<?xml version="1.0" encoding="UTF-8" standalone="no" ?>
<gpx xmlns="http://www.topografix.com/GPX/1/1" xmlns:xsi="http://www.w3.org/2001/XMLSchema-instance" xsi:schemaLocation="http://www.topografix.com/GPX/1/1 http://www.topografix.com/GPX/1/1/gpx.xsd" version="1.1" creator="VisuGPX - https://www.visugpx.com">
  <metadata>
    <name>Raid 80 BL 19</name>
    <desc><![CDATA[Raid 80 boucles Longuéennes 2019]]></desc>
  </metadata>
  <trk>
    <name><![CDATA[20190327213616-4QGtY]]></name>
    <trkseg>
      <trkpt lat="47.31859" lon="0.07751">
        <ele>60.7</ele>
        <time>2016-01-09T08:52:13Z</time>
      </trkpt>
      <trkpt lat="47.31859" lon="0.07755">
        <ele>60.7</ele>
        <time>2016-01-09T08:52:14Z</time>
      </trkpt>
      <trkpt lat="47.31859" lon="0.07758">
        <ele>60.22</ele>
        <time>2016-01-09T08:52:15Z</time>
      </trkpt>
      <trkpt lat="47.31859" lon="0.07761">
        <ele>60.22</ele>
        <time>2016-01-09T08:52:16Z</time>
      </trkpt>
      <trkpt lat="47.3186" lon="0.07763">
        <ele>60.22</ele>
        <time>2016-01-09T08:52:17Z</time>
      </trkpt>
      <trkpt lat="47.31862" lon="0.07766">
        <ele>60.22</ele>
        <time>2016-01-09T08:52:18Z</time>
      </trkpt>
      <trkpt lat="47.31862" lon="0.0777">
        <ele>60.22</ele>
        <time>2016-01-09T08:52:19Z</time>
      </trkpt>
      <trkpt lat="47.31864" lon="0.07772">
        <ele>59.26</ele>
        <time>2016-01-09T08:52:20Z</time>
      </trkpt>
      <trkpt lat="47.31867" lon="0.07772">
        <ele>58.3</ele>
        <time>2016-01-09T08:52:21Z</time>
      </trkpt>
      <trkpt lat="47.3187" lon="0.07774">
        <ele>57.82</ele>
        <time>2016-01-09T08:52:22Z</time>
      </trkpt>
      <trkpt lat="47.31872" lon="0.07776">
        <ele>56.86</ele>
        <time>2016-01-09T08:52:23Z</time>
      </trkpt>
      <trkpt lat="47.31875" lon="0.07777">
        <ele>55.89</ele>
        <time>2016-01-09T08:52:24Z</time>
      </trkpt>
      <trkpt lat="47.31893" lon="0.07782">
        <ele>51.57</ele>
        <time>2016-01-09T08:52:29Z</time>
      </trkpt>
      <trkpt lat="47.31923" lon="0.07785">
        <ele>48.2</ele>
        <time>2016-01-09T08:52:36Z</time>
      </trkpt>
      <trkpt lat="47.31946" lon="0.07785">
        <ele>46.76</ele>
        <time>2016-01-09T08:52:41Z</time>
      </trkpt>
      <trkpt lat="47.31983" lon="0.07783">
        <ele>46.28</ele>
        <time>2016-01-09T08:52:48Z</time>
      </trkpt>
      <trkpt lat="47.31987" lon="0.07782">
        <ele>46.76</ele>
        <time>2016-01-09T08:52:49Z</time>
      </trkpt>
      <trkpt lat="47.31992" lon="0.07781">
        <ele>46.76</ele>
        <time>2016-01-09T08:52:50Z</time>
      </trkpt>
      <trkpt lat="47.31996" lon="0.0778">
        <ele>46.28</ele>
        <time>2016-01-09T08:52:51Z</time>
      </trkpt>
      <trkpt lat="47.32001" lon="0.0778">
        <ele>46.28</ele>
        <time>2016-01-09T08:52:52Z</time>
      </trkpt>
      <trkpt lat="47.32005" lon="0.0778">
        <ele>46.28</ele>
        <time>2016-01-09T08:52:53Z</time>
      </trkpt>
      <trkpt lat="47.32008" lon="0.07781">
        <ele>46.28</ele>
        <time>2016-01-09T08:52:54Z</time>
      </trkpt>
      <trkpt lat="47.32012" lon="0.07782">
        <ele>46.76</ele>
        <time>2016-01-09T08:52:55Z</time>
      </trkpt>
      <trkpt lat="47.32015" lon="0.07786">
        <ele>46.28</ele>
        <time>2016-01-09T08:52:56Z</time>
      </trkpt>
      <trkpt lat="47.32016" lon="0.07791">
        <ele>46.76</ele>
        <time>2016-01-09T08:52:57Z</time>
      </trkpt>
      <trkpt lat="47.32017" lon="0.07797">
        <ele>46.76</ele>
        <time>2016-01-09T08:52:58Z</time>
      </trkpt>
      <trkpt lat="47.32016" lon="0.07803">
        <ele>46.76</ele>
        <time>2016-01-09T08:52:59Z</time>
      </trkpt>
      <trkpt lat="47.32016" lon="0.07809">
        <ele>47.24</ele>
        <time>2016-01-09T08:53:00Z</time>
      </trkpt>
      <trkpt lat="47.32015" lon="0.07816">
        <ele>47.72</ele>
        <time>2016-01-09T08:53:01Z</time>
      </trkpt>
      <trkpt lat="47.32014" lon="0.07824">
        <ele>47.72</ele>
        <time>2016-01-09T08:53:02Z</time>
      </trkpt>
      <trkpt lat="47.32013" lon="0.0783">
        <ele>48.2</ele>
        <time>2016-01-09T08:53:03Z</time>
      </trkpt>
      <trkpt lat="47.32005" lon="0.07868">
        <ele>48.2</ele>
        <time>2016-01-09T08:53:08Z</time>
      </trkpt>
      <trkpt lat="47.32001" lon="0.07883">
        <ele>47.72</ele>
        <time>2016-01-09T08:53:10Z</time>
      </trkpt>
      <trkpt lat="47.32" lon="0.07891">
        <ele>47.72</ele>
        <time>2016-01-09T08:53:11Z</time>
      </trkpt>
      <trkpt lat="47.31985" lon="0.07971">
        <ele>47.24</ele>
        <time>2016-01-09T08:53:20Z</time>
      </trkpt>
      <trkpt lat="47.31969" lon="0.08048">
        <ele>49.16</ele>
        <time>2016-01-09T08:53:28Z</time>
      </trkpt>
      <trkpt lat="47.31955" lon="0.08117">
        <ele>50.61</ele>
        <time>2016-01-09T08:53:35Z</time>
      </trkpt>
      <trkpt lat="47.31952" lon="0.08124">
        <ele>50.61</ele>
        <time>2016-01-09T08:53:36Z</time>
      </trkpt>
      <trkpt lat="47.31948" lon="0.0813">
        <ele>50.61</ele>
        <time>2016-01-09T08:53:37Z</time>
      </trkpt>
      <trkpt lat="47.31943" lon="0.08134">
        <ele>50.61</ele>
        <time>2016-01-09T08:53:38Z</time>
      </trkpt>
      <trkpt lat="47.31938" lon="0.08138">
        <ele>50.61</ele>
        <time>2016-01-09T08:53:39Z</time>
      </trkpt>
      <trkpt lat="47.31933" lon="0.08142">
        <ele>50.61</ele>
        <time>2016-01-09T08:53:40Z</time>
      </trkpt>
      <trkpt lat="47.31929" lon="0.08147">
        <ele>50.61</ele>
        <time>2016-01-09T08:53:41Z</time>
      </trkpt>
      <trkpt lat="47.31925" lon="0.08152">
        <ele>50.61</ele>
        <time>2016-01-09T08:53:42Z</time>
      </trkpt>
      <trkpt lat="47.31922" lon="0.08156">
        <ele>50.13</ele>
        <time>2016-01-09T08:53:43Z</time>
      </trkpt>
      <trkpt lat="47.31918" lon="0.08162">
        <ele>49.65</ele>
        <time>2016-01-09T08:53:44Z</time>
      </trkpt>
      <trkpt lat="47.31915" lon="0.08168">
        <ele>49.65</ele>
        <time>2016-01-09T08:53:45Z</time>
      </trkpt>
      <trkpt lat="47.31912" lon="0.08174">
        <ele>49.65</ele>
        <time>2016-01-09T08:53:46Z</time>
      </trkpt>
      <trkpt lat="47.31908" lon="0.08179">
        <ele>49.65</ele>
        <time>2016-01-09T08:53:47Z</time>
      </trkpt>
      <trkpt lat="47.31895" lon="0.08199">
        <ele>50.61</ele>
        <time>2016-01-09T08:53:51Z</time>
      </trkpt>
      <trkpt lat="47.31888" lon="0.08215">
        <ele>50.61</ele>
        <time>2016-01-09T08:53:54Z</time>
      </trkpt>
      <trkpt lat="47.31878" lon="0.08247">
        <ele>50.61</ele>
        <time>2016-01-09T08:54:00Z</time>
      </trkpt>
      <trkpt lat="47.31877" lon="0.08253">
        <ele>50.61</ele>
        <time>2016-01-09T08:54:01Z</time>
      </trkpt>
      <trkpt lat="47.31875" lon="0.08258">
        <ele>50.61</ele>
        <time>2016-01-09T08:54:02Z</time>
      </trkpt>
      <trkpt lat="47.31874" lon="0.08263">
        <ele>51.09</ele>
        <time>2016-01-09T08:54:03Z</time>
      </trkpt>
      <trkpt lat="47.31872" lon="0.08269">
        <ele>51.09</ele>
        <time>2016-01-09T08:54:04Z</time>
      </trkpt>
      <trkpt lat="47.3187" lon="0.08274">
        <ele>51.09</ele>
        <time>2016-01-09T08:54:05Z</time>
      </trkpt>
      <trkpt lat="47.31868" lon="0.08279">
        <ele>51.09</ele>
        <time>2016-01-09T08:54:06Z</time>
      </trkpt>
      <trkpt lat="47.31864" lon="0.08289">
        <ele>51.09</ele>
        <time>2016-01-09T08:54:08Z</time>
      </trkpt>
      <trkpt lat="47.31854" lon="0.08313">
        <ele>53.01</ele>
        <time>2016-01-09T08:54:13Z</time>
      </trkpt>
      <trkpt lat="47.31851" lon="0.08318">
        <ele>53.97</ele>
        <time>2016-01-09T08:54:14Z</time>
      </trkpt>
      <trkpt lat="47.31846" lon="0.08325">
        <ele>54.93</ele>
        <time>2016-01-09T08:54:16Z</time>
      </trkpt>
      <trkpt lat="47.31843" lon="0.08329">
        <ele>55.41</ele>
        <time>2016-01-09T08:54:17Z</time>
      </trkpt>
      <trkpt lat="47.3184" lon="0.08333">
        <ele>55.89</ele>
        <time>2016-01-09T08:54:18Z</time>
      </trkpt>
      <trkpt lat="47.31817" lon="0.08349">
        <ele>61.66</ele>
        <time>2016-01-09T08:54:25Z</time>
      </trkpt>
      <trkpt lat="47.31798" lon="0.08355">
        <ele>65.99</ele>
        <time>2016-01-09T08:54:31Z</time>
      </trkpt>
      <trkpt lat="47.31779" lon="0.08365">
        <ele>67.91</ele>
        <time>2016-01-09T08:54:37Z</time>
      </trkpt>
      <trkpt lat="47.31757" lon="0.08373">
        <ele>69.35</ele>
        <time>2016-01-09T08:54:44Z</time>
      </trkpt>
      <trkpt lat="47.31737" lon="0.08386">
        <ele>75.12</ele>
        <time>2016-01-09T08:54:50Z</time>
      </trkpt>
      <trkpt lat="47.31714" lon="0.08395">
        <ele>78.97</ele>
        <time>2016-01-09T08:54:57Z</time>
      </trkpt>
      <trkpt lat="47.31698" lon="0.08402">
        <ele>78.48</ele>
        <time>2016-01-09T08:55:02Z</time>
      </trkpt>
      <trkpt lat="47.31684" lon="0.08408">
        <ele>79.45</ele>
        <time>2016-01-09T08:55:07Z</time>
      </trkpt>
      <trkpt lat="47.31664" lon="0.08415">
        <ele>80.41</ele>
        <time>2016-01-09T08:55:13Z</time>
      </trkpt>
      <trkpt lat="47.31647" lon="0.08421">
        <ele>79.45</ele>
        <time>2016-01-09T08:55:19Z</time>
      </trkpt>
      <trkpt lat="47.31631" lon="0.08426">
        <ele>78</ele>
        <time>2016-01-09T08:55:24Z</time>
      </trkpt>
      <trkpt lat="47.3162" lon="0.0843">
        <ele>78.48</ele>
        <time>2016-01-09T08:55:27Z</time>
      </trkpt>
      <trkpt lat="47.31616" lon="0.08429">
        <ele>78.48</ele>
        <time>2016-01-09T08:55:28Z</time>
      </trkpt>
      <trkpt lat="47.316" lon="0.08429">
        <ele>78.48</ele>
        <time>2016-01-09T08:55:33Z</time>
      </trkpt>
      <trkpt lat="47.31579" lon="0.08434">
        <ele>75.6</ele>
        <time>2016-01-09T08:55:39Z</time>
      </trkpt>
      <trkpt lat="47.31559" lon="0.08436">
        <ele>75.6</ele>
        <time>2016-01-09T08:55:44Z</time>
      </trkpt>
      <trkpt lat="47.31538" lon="0.08443">
        <ele>74.64</ele>
        <time>2016-01-09T08:55:51Z</time>
      </trkpt>
      <trkpt lat="47.31532" lon="0.08445">
        <ele>74.16</ele>
        <time>2016-01-09T08:55:53Z</time>
      </trkpt>
      <trkpt lat="47.31528" lon="0.08445">
        <ele>74.64</ele>
        <time>2016-01-09T08:55:54Z</time>
      </trkpt>
      <trkpt lat="47.31525" lon="0.08446">
        <ele>74.16</ele>
        <time>2016-01-09T08:55:55Z</time>
      </trkpt>
      <trkpt lat="47.31522" lon="0.08446">
        <ele>74.16</ele>
        <time>2016-01-09T08:55:56Z</time>
      </trkpt>
      <trkpt lat="47.31519" lon="0.08447">
        <ele>73.68</ele>
        <time>2016-01-09T08:55:57Z</time>
      </trkpt>
      <trkpt lat="47.31517" lon="0.08449">
        <ele>73.2</ele>
        <time>2016-01-09T08:55:58Z</time>
      </trkpt>
      <trkpt lat="47.31513" lon="0.08451">
        <ele>72.72</ele>
        <time>2016-01-09T08:55:59Z</time>
      </trkpt>
      <trkpt lat="47.3151" lon="0.08452">
        <ele>72.24</ele>
        <time>2016-01-09T08:56:00Z</time>
      </trkpt>
      <trkpt lat="47.31507" lon="0.08453">
        <ele>72.24</ele>
        <time>2016-01-09T08:56:01Z</time>
      </trkpt>
      <trkpt lat="47.31505" lon="0.08456">
        <ele>71.76</ele>
        <time>2016-01-09T08:56:02Z</time>
      </trkpt>
      <trkpt lat="47.31502" lon="0.08457">
        <ele>71.76</ele>
        <time>2016-01-09T08:56:03Z</time>
      </trkpt>
      <trkpt lat="47.31498" lon="0.08459">
        <ele>71.27</ele>
        <time>2016-01-09T08:56:04Z</time>
      </trkpt>
      <trkpt lat="47.31474" lon="0.08468">
        <ele>70.31</ele>
        <time>2016-01-09T08:56:11Z</time>
      </trkpt>
      <trkpt lat="47.31454" lon="0.08481">
        <ele>66.95</ele>
        <time>2016-01-09T08:56:18Z</time>
      </trkpt>
      <trkpt lat="47.3143" lon="0.08493">
        <ele>66.47</ele>
        <time>2016-01-09T08:56:25Z</time>
      </trkpt>
      <trkpt lat="47.31419" lon="0.08499">
        <ele>66.47</ele>
        <time>2016-01-09T08:56:28Z</time>
      </trkpt>
      <trkpt lat="47.31415" lon="0.08502">
        <ele>65.99</ele>
        <time>2016-01-09T08:56:29Z</time>
      </trkpt>
      <trkpt lat="47.31412" lon="0.08505">
        <ele>65.51</ele>
        <time>2016-01-09T08:56:30Z</time>
      </trkpt>
      <trkpt lat="47.31408" lon="0.08508">
        <ele>65.51</ele>
        <time>2016-01-09T08:56:31Z</time>
      </trkpt>
      <trkpt lat="47.31404" lon="0.08511">
        <ele>65.51</ele>
        <time>2016-01-09T08:56:32Z</time>
      </trkpt>
      <trkpt lat="47.31401" lon="0.08514">
        <ele>65.51</ele>
        <time>2016-01-09T08:56:33Z</time>
      </trkpt>
      <trkpt lat="47.31368" lon="0.08539">
        <ele>65.99</ele>
        <time>2016-01-09T08:56:41Z</time>
      </trkpt>
      <trkpt lat="47.31352" lon="0.08553">
        <ele>66.47</ele>
        <time>2016-01-09T08:56:45Z</time>
      </trkpt>
      <trkpt lat="47.31329" lon="0.0857">
        <ele>68.39</ele>
        <time>2016-01-09T08:56:50Z</time>
      </trkpt>
      <trkpt lat="47.31296" lon="0.086">
        <ele>71.27</ele>
        <time>2016-01-09T08:56:58Z</time>
      </trkpt>
      <trkpt lat="47.31271" lon="0.0863">
        <ele>74.16</ele>
        <time>2016-01-09T08:57:05Z</time>
      </trkpt>
      <trkpt lat="47.31268" lon="0.08634">
        <ele>74.16</ele>
        <time>2016-01-09T08:57:06Z</time>
      </trkpt>
      <trkpt lat="47.31265" lon="0.08639">
        <ele>74.16</ele>
        <time>2016-01-09T08:57:07Z</time>
      </trkpt>
      <trkpt lat="47.31239" lon="0.08672">
        <ele>76.08</ele>
        <time>2016-01-09T08:57:14Z</time>
      </trkpt>
      <trkpt lat="47.31225" lon="0.0869">
        <ele>77.04</ele>
        <time>2016-01-09T08:57:18Z</time>
      </trkpt>
      <trkpt lat="47.31221" lon="0.08694">
        <ele>77.04</ele>
        <time>2016-01-09T08:57:19Z</time>
      </trkpt>
      <trkpt lat="47.31195" lon="0.08715">
        <ele>78.97</ele>
        <time>2016-01-09T08:57:26Z</time>
      </trkpt>
      <trkpt lat="47.31187" lon="0.08722">
        <ele>79.93</ele>
        <time>2016-01-09T08:57:28Z</time>
      </trkpt>
      <trkpt lat="47.31166" lon="0.08746">
        <ele>81.85</ele>
        <time>2016-01-09T08:57:33Z</time>
      </trkpt>
      <trkpt lat="47.31163" lon="0.08752">
        <ele>81.85</ele>
        <time>2016-01-09T08:57:34Z</time>
      </trkpt>
      <trkpt lat="47.31149" lon="0.08778">
        <ele>82.33</ele>
        <time>2016-01-09T08:57:38Z</time>
      </trkpt>
      <trkpt lat="47.31137" lon="0.08798">
        <ele>82.81</ele>
        <time>2016-01-09T08:57:41Z</time>
      </trkpt>
      <trkpt lat="47.31129" lon="0.0881">
        <ele>82.33</ele>
        <time>2016-01-09T08:57:43Z</time>
      </trkpt>
      <trkpt lat="47.31119" lon="0.08821">
        <ele>82.33</ele>
        <time>2016-01-09T08:57:45Z</time>
      </trkpt>
      <trkpt lat="47.311" lon="0.08851">
        <ele>81.37</ele>
        <time>2016-01-09T08:57:50Z</time>
      </trkpt>
      <trkpt lat="47.31096" lon="0.08856">
        <ele>81.37</ele>
        <time>2016-01-09T08:57:51Z</time>
      </trkpt>
      <trkpt lat="47.31093" lon="0.08863">
        <ele>80.89</ele>
        <time>2016-01-09T08:57:52Z</time>
      </trkpt>
      <trkpt lat="47.3109" lon="0.08869">
        <ele>80.41</ele>
        <time>2016-01-09T08:57:53Z</time>
      </trkpt>
      <trkpt lat="47.31087" lon="0.08875">
        <ele>79.93</ele>
        <time>2016-01-09T08:57:54Z</time>
      </trkpt>
      <trkpt lat="47.31083" lon="0.08881">
        <ele>79.45</ele>
        <time>2016-01-09T08:57:55Z</time>
      </trkpt>
      <trkpt lat="47.3107" lon="0.08904">
        <ele>77.52</ele>
        <time>2016-01-09T08:57:59Z</time>
      </trkpt>
      <trkpt lat="47.31062" lon="0.08925">
        <ele>76.56</ele>
        <time>2016-01-09T08:58:02Z</time>
      </trkpt>
      <trkpt lat="47.31055" lon="0.08947">
        <ele>75.6</ele>
        <time>2016-01-09T08:58:05Z</time>
      </trkpt>
      <trkpt lat="47.31052" lon="0.08954">
        <ele>75.6</ele>
        <time>2016-01-09T08:58:06Z</time>
      </trkpt>
      <trkpt lat="47.31048" lon="0.0896">
        <ele>75.12</ele>
        <time>2016-01-09T08:58:07Z</time>
      </trkpt>
      <trkpt lat="47.31043" lon="0.08965">
        <ele>75.12</ele>
        <time>2016-01-09T08:58:08Z</time>
      </trkpt>
      <trkpt lat="47.31038" lon="0.0897">
        <ele>74.64</ele>
        <time>2016-01-09T08:58:09Z</time>
      </trkpt>
      <trkpt lat="47.31032" lon="0.08975">
        <ele>74.16</ele>
        <time>2016-01-09T08:58:10Z</time>
      </trkpt>
      <trkpt lat="47.31027" lon="0.08979">
        <ele>73.68</ele>
        <time>2016-01-09T08:58:11Z</time>
      </trkpt>
      <trkpt lat="47.31021" lon="0.08982">
        <ele>73.2</ele>
        <time>2016-01-09T08:58:12Z</time>
      </trkpt>
      <trkpt lat="47.3097" lon="0.09016">
        <ele>68.87</ele>
        <time>2016-01-09T08:58:20Z</time>
      </trkpt>
      <trkpt lat="47.30914" lon="0.09054">
        <ele>63.58</ele>
        <time>2016-01-09T08:58:28Z</time>
      </trkpt>
      <trkpt lat="47.30862" lon="0.09092">
        <ele>59.26</ele>
        <time>2016-01-09T08:58:35Z</time>
      </trkpt>
      <trkpt lat="47.30838" lon="0.09108">
        <ele>56.86</ele>
        <time>2016-01-09T08:58:39Z</time>
      </trkpt>
      <trkpt lat="47.3083" lon="0.09118">
        <ele>55.89</ele>
        <time>2016-01-09T08:58:42Z</time>
      </trkpt>
      <trkpt lat="47.3083" lon="0.09124">
        <ele>55.89</ele>
        <time>2016-01-09T08:58:43Z</time>
      </trkpt>
      <trkpt lat="47.3083" lon="0.0913">
        <ele>55.41</ele>
        <time>2016-01-09T08:58:44Z</time>
      </trkpt>
      <trkpt lat="47.30832" lon="0.09136">
        <ele>55.41</ele>
        <time>2016-01-09T08:58:45Z</time>
      </trkpt>
      <trkpt lat="47.30833" lon="0.09143">
        <ele>54.93</ele>
        <time>2016-01-09T08:58:46Z</time>
      </trkpt>
      <trkpt lat="47.30845" lon="0.09214">
        <ele>52.05</ele>
        <time>2016-01-09T08:58:55Z</time>
      </trkpt>
      <trkpt lat="47.30856" lon="0.09302">
        <ele>49.65</ele>
        <time>2016-01-09T08:59:05Z</time>
      </trkpt>
      <trkpt lat="47.30872" lon="0.09378">
        <ele>48.68</ele>
        <time>2016-01-09T08:59:14Z</time>
      </trkpt>
      <trkpt lat="47.3089" lon="0.09466">
        <ele>47.24</ele>
        <time>2016-01-09T08:59:25Z</time>
      </trkpt>
      <trkpt lat="47.30904" lon="0.09531">
        <ele>46.76</ele>
        <time>2016-01-09T08:59:34Z</time>
      </trkpt>
      <trkpt lat="47.30905" lon="0.09538">
        <ele>46.76</ele>
        <time>2016-01-09T08:59:35Z</time>
      </trkpt>
      <trkpt lat="47.30919" lon="0.0961">
        <ele>47.24</ele>
        <time>2016-01-09T08:59:45Z</time>
      </trkpt>
      <trkpt lat="47.30919" lon="0.09617">
        <ele>47.24</ele>
        <time>2016-01-09T08:59:46Z</time>
      </trkpt>
      <trkpt lat="47.30915" lon="0.09621">
        <ele>47.24</ele>
        <time>2016-01-09T08:59:47Z</time>
      </trkpt>
      <trkpt lat="47.30912" lon="0.09623">
        <ele>47.24</ele>
        <time>2016-01-09T08:59:48Z</time>
      </trkpt>
      <trkpt lat="47.30908" lon="0.09623">
        <ele>47.72</ele>
        <time>2016-01-09T08:59:49Z</time>
      </trkpt>
      <trkpt lat="47.30904" lon="0.09622">
        <ele>47.24</ele>
        <time>2016-01-09T08:59:50Z</time>
      </trkpt>
      <trkpt lat="47.30866" lon="0.09624">
        <ele>48.2</ele>
        <time>2016-01-09T09:00:00Z</time>
      </trkpt>
      <trkpt lat="47.30864" lon="0.09629">
        <ele>48.2</ele>
        <time>2016-01-09T09:00:01Z</time>
      </trkpt>
      <trkpt lat="47.30852" lon="0.09669">
        <ele>48.68</ele>
        <time>2016-01-09T09:00:09Z</time>
      </trkpt>
      <trkpt lat="47.30843" lon="0.09705">
        <ele>50.13</ele>
        <time>2016-01-09T09:00:17Z</time>
      </trkpt>
      <trkpt lat="47.30838" lon="0.09729">
        <ele>52.53</ele>
        <time>2016-01-09T09:00:24Z</time>
      </trkpt>
      <trkpt lat="47.30832" lon="0.09751">
        <ele>54.93</ele>
        <time>2016-01-09T09:00:31Z</time>
      </trkpt>
      <trkpt lat="47.30826" lon="0.09782">
        <ele>57.34</ele>
        <time>2016-01-09T09:00:40Z</time>
      </trkpt>
      <trkpt lat="47.30824" lon="0.09807">
        <ele>58.78</ele>
        <time>2016-01-09T09:00:48Z</time>
      </trkpt>
      <trkpt lat="47.30824" lon="0.09832">
        <ele>60.22</ele>
        <time>2016-01-09T09:00:56Z</time>
      </trkpt>
      <trkpt lat="47.30824" lon="0.09851">
        <ele>61.66</ele>
        <time>2016-01-09T09:01:02Z</time>
      </trkpt>
      <trkpt lat="47.30823" lon="0.09873">
        <ele>63.1</ele>
        <time>2016-01-09T09:01:09Z</time>
      </trkpt>
      <trkpt lat="47.30819" lon="0.09883">
        <ele>63.58</ele>
        <time>2016-01-09T09:01:13Z</time>
      </trkpt>
      <trkpt lat="47.30818" lon="0.09884">
        <ele>63.58</ele>
        <time>2016-01-09T09:01:14Z</time>
      </trkpt>
      <trkpt lat="47.30817" lon="0.09885">
        <ele>63.58</ele>
        <time>2016-01-09T09:01:15Z</time>
      </trkpt>
      <trkpt lat="47.30817" lon="0.09885">
        <ele>63.1</ele>
        <time>2016-01-09T09:01:20Z</time>
      </trkpt>
      <trkpt lat="47.30816" lon="0.09885">
        <ele>62.14</ele>
        <time>2016-01-09T09:01:36Z</time>
      </trkpt>
      <trkpt lat="47.30816" lon="0.09885">
        <ele>61.18</ele>
        <time>2016-01-09T09:01:56Z</time>
      </trkpt>
      <trkpt lat="47.30815" lon="0.09884">
        <ele>62.14</ele>
        <time>2016-01-09T09:02:12Z</time>
      </trkpt>
      <trkpt lat="47.30814" lon="0.09883">
        <ele>63.1</ele>
        <time>2016-01-09T09:02:27Z</time>
      </trkpt>
      <trkpt lat="47.30813" lon="0.09884">
        <ele>63.1</ele>
        <time>2016-01-09T09:02:31Z</time>
      </trkpt>
      <trkpt lat="47.30804" lon="0.09884">
        <ele>63.58</ele>
        <time>2016-01-09T09:02:36Z</time>
      </trkpt>
      <trkpt lat="47.30803" lon="0.09885">
        <ele>63.1</ele>
        <time>2016-01-09T09:02:37Z</time>
      </trkpt>
      <trkpt lat="47.30802" lon="0.09886">
        <ele>63.1</ele>
        <time>2016-01-09T09:02:38Z</time>
      </trkpt>
      <trkpt lat="47.30801" lon="0.09888">
        <ele>63.1</ele>
        <time>2016-01-09T09:02:39Z</time>
      </trkpt>
      <trkpt lat="47.308" lon="0.0989">
        <ele>63.1</ele>
        <time>2016-01-09T09:02:40Z</time>
      </trkpt>
      <trkpt lat="47.30799" lon="0.09892">
        <ele>63.1</ele>
        <time>2016-01-09T09:02:41Z</time>
      </trkpt>
      <trkpt lat="47.30799" lon="0.09895">
        <ele>63.1</ele>
        <time>2016-01-09T09:02:42Z</time>
      </trkpt>
      <trkpt lat="47.30797" lon="0.09898">
        <ele>63.1</ele>
        <time>2016-01-09T09:02:43Z</time>
      </trkpt>
      <trkpt lat="47.3079" lon="0.09922">
        <ele>64.07</ele>
        <time>2016-01-09T09:02:51Z</time>
      </trkpt>
      <trkpt lat="47.30783" lon="0.09939">
        <ele>65.03</ele>
        <time>2016-01-09T09:02:57Z</time>
      </trkpt>
      <trkpt lat="47.30778" lon="0.09961">
        <ele>66.95</ele>
        <time>2016-01-09T09:03:05Z</time>
      </trkpt>
      <trkpt lat="47.30774" lon="0.09972">
        <ele>67.91</ele>
        <time>2016-01-09T09:03:10Z</time>
      </trkpt>
      <trkpt lat="47.30773" lon="0.09974">
        <ele>68.39</ele>
        <time>2016-01-09T09:03:11Z</time>
      </trkpt>
      <trkpt lat="47.30773" lon="0.09977">
        <ele>68.39</ele>
        <time>2016-01-09T09:03:12Z</time>
      </trkpt>
      <trkpt lat="47.30771" lon="0.09979">
        <ele>68.39</ele>
        <time>2016-01-09T09:03:13Z</time>
      </trkpt>
      <trkpt lat="47.3077" lon="0.09981">
        <ele>68.87</ele>
        <time>2016-01-09T09:03:14Z</time>
      </trkpt>
      <trkpt lat="47.3077" lon="0.09984">
        <ele>68.87</ele>
        <time>2016-01-09T09:03:15Z</time>
      </trkpt>
      <trkpt lat="47.30765" lon="0.09998">
        <ele>70.31</ele>
        <time>2016-01-09T09:03:22Z</time>
      </trkpt>
      <trkpt lat="47.30763" lon="0.1">
        <ele>70.79</ele>
        <time>2016-01-09T09:03:23Z</time>
      </trkpt>
      <trkpt lat="47.30761" lon="0.10004">
        <ele>71.76</ele>
        <time>2016-01-09T09:03:25Z</time>
      </trkpt>
      <trkpt lat="47.30761" lon="0.10006">
        <ele>72.24</ele>
        <time>2016-01-09T09:03:26Z</time>
      </trkpt>
      <trkpt lat="47.30756" lon="0.10019">
        <ele>75.12</ele>
        <time>2016-01-09T09:03:31Z</time>
      </trkpt>
      <trkpt lat="47.30751" lon="0.1003">
        <ele>78.48</ele>
        <time>2016-01-09T09:03:37Z</time>
      </trkpt>
      <trkpt lat="47.3075" lon="0.10032">
        <ele>78.97</ele>
        <time>2016-01-09T09:03:38Z</time>
      </trkpt>
      <trkpt lat="47.3075" lon="0.10035">
        <ele>79.93</ele>
        <time>2016-01-09T09:03:40Z</time>
      </trkpt>
      <trkpt lat="47.30748" lon="0.10036">
        <ele>80.41</ele>
        <time>2016-01-09T09:03:41Z</time>
      </trkpt>
      <trkpt lat="47.30747" lon="0.10038">
        <ele>80.41</ele>
        <time>2016-01-09T09:03:42Z</time>
      </trkpt>
      <trkpt lat="47.30746" lon="0.10039">
        <ele>80.89</ele>
        <time>2016-01-09T09:03:43Z</time>
      </trkpt>
      <trkpt lat="47.30742" lon="0.10047">
        <ele>82.81</ele>
        <time>2016-01-09T09:03:48Z</time>
      </trkpt>
      <trkpt lat="47.30735" lon="0.10057">
        <ele>81.85</ele>
        <time>2016-01-09T09:03:54Z</time>
      </trkpt>
      <trkpt lat="47.30726" lon="0.10071">
        <ele>81.85</ele>
        <time>2016-01-09T09:04:00Z</time>
      </trkpt>
      <trkpt lat="47.30722" lon="0.10075">
        <ele>82.81</ele>
        <time>2016-01-09T09:04:02Z</time>
      </trkpt>
      <trkpt lat="47.3072" lon="0.10077">
        <ele>82.81</ele>
        <time>2016-01-09T09:04:03Z</time>
      </trkpt>
      <trkpt lat="47.30718" lon="0.10079">
        <ele>83.29</ele>
        <time>2016-01-09T09:04:04Z</time>
      </trkpt>
      <trkpt lat="47.3071" lon="0.1009">
        <ele>83.77</ele>
        <time>2016-01-09T09:04:10Z</time>
      </trkpt>
      <trkpt lat="47.30707" lon="0.10097">
        <ele>84.73</ele>
        <time>2016-01-09T09:04:14Z</time>
      </trkpt>
      <trkpt lat="47.30705" lon="0.10099">
        <ele>84.73</ele>
        <time>2016-01-09T09:04:15Z</time>
      </trkpt>
      <trkpt lat="47.30704" lon="0.10101">
        <ele>85.21</ele>
        <time>2016-01-09T09:04:16Z</time>
      </trkpt>
      <trkpt lat="47.30703" lon="0.10102">
        <ele>85.69</ele>
        <time>2016-01-09T09:04:17Z</time>
      </trkpt>
      <trkpt lat="47.30702" lon="0.10104">
        <ele>85.69</ele>
        <time>2016-01-09T09:04:18Z</time>
      </trkpt>
      <trkpt lat="47.30693" lon="0.10115">
        <ele>86.18</ele>
        <time>2016-01-09T09:04:25Z</time>
      </trkpt>
      <trkpt lat="47.30685" lon="0.10122">
        <ele>86.66</ele>
        <time>2016-01-09T09:04:32Z</time>
      </trkpt>
      <trkpt lat="47.30675" lon="0.10132">
        <ele>88.58</ele>
        <time>2016-01-09T09:04:39Z</time>
      </trkpt>
      <trkpt lat="47.30672" lon="0.10134">
        <ele>88.1</ele>
        <time>2016-01-09T09:04:44Z</time>
      </trkpt>
      <trkpt lat="47.30671" lon="0.10137">
        <ele>89.06</ele>
        <time>2016-01-09T09:04:53Z</time>
      </trkpt>
      <trkpt lat="47.3067" lon="0.10137">
        <ele>89.54</ele>
        <time>2016-01-09T09:05:01Z</time>
      </trkpt>
      <trkpt lat="47.30668" lon="0.10136">
        <ele>90.02</ele>
        <time>2016-01-09T09:05:09Z</time>
      </trkpt>
      <trkpt lat="47.30668" lon="0.10133">
        <ele>89.06</ele>
        <time>2016-01-09T09:05:15Z</time>
      </trkpt>
      <trkpt lat="47.30667" lon="0.10134">
        <ele>90.02</ele>
        <time>2016-01-09T09:05:23Z</time>
      </trkpt>
      <trkpt lat="47.30666" lon="0.10134">
        <ele>90.5</ele>
        <time>2016-01-09T09:05:28Z</time>
      </trkpt>
      <trkpt lat="47.30666" lon="0.10139">
        <ele>90.5</ele>
        <time>2016-01-09T09:05:35Z</time>
      </trkpt>
      <trkpt lat="47.30664" lon="0.10141">
        <ele>90.5</ele>
        <time>2016-01-09T09:05:42Z</time>
      </trkpt>
      <trkpt lat="47.30664" lon="0.10142">
        <ele>90.5</ele>
        <time>2016-01-09T09:05:53Z</time>
      </trkpt>
      <trkpt lat="47.30663" lon="0.10142">
        <ele>90.5</ele>
        <time>2016-01-09T09:05:59Z</time>
      </trkpt>
      <trkpt lat="47.30663" lon="0.10143">
        <ele>90.98</ele>
        <time>2016-01-09T09:06:08Z</time>
      </trkpt>
      <trkpt lat="47.30659" lon="0.10146">
        <ele>90.5</ele>
        <time>2016-01-09T09:06:13Z</time>
      </trkpt>
      <trkpt lat="47.30657" lon="0.10146">
        <ele>90.02</ele>
        <time>2016-01-09T09:06:14Z</time>
      </trkpt>
      <trkpt lat="47.30655" lon="0.10148">
        <ele>90.5</ele>
        <time>2016-01-09T09:06:16Z</time>
      </trkpt>
      <trkpt lat="47.30654" lon="0.1015">
        <ele>90.02</ele>
        <time>2016-01-09T09:06:17Z</time>
      </trkpt>
      <trkpt lat="47.30646" lon="0.10155">
        <ele>88.58</ele>
        <time>2016-01-09T09:06:22Z</time>
      </trkpt>
      <trkpt lat="47.30641" lon="0.10158">
        <ele>90.02</ele>
        <time>2016-01-09T09:06:26Z</time>
      </trkpt>
      <trkpt lat="47.30639" lon="0.10158">
        <ele>90.5</ele>
        <time>2016-01-09T09:06:27Z</time>
      </trkpt>
      <trkpt lat="47.30637" lon="0.10159">
        <ele>90.98</ele>
        <time>2016-01-09T09:06:28Z</time>
      </trkpt>
      <trkpt lat="47.30635" lon="0.1016">
        <ele>90.98</ele>
        <time>2016-01-09T09:06:29Z</time>
      </trkpt>
      <trkpt lat="47.30634" lon="0.10162">
        <ele>91.46</ele>
        <time>2016-01-09T09:06:30Z</time>
      </trkpt>
      <trkpt lat="47.30632" lon="0.10164">
        <ele>91.94</ele>
        <time>2016-01-09T09:06:31Z</time>
      </trkpt>
      <trkpt lat="47.3063" lon="0.10165">
        <ele>92.42</ele>
        <time>2016-01-09T09:06:32Z</time>
      </trkpt>
      <trkpt lat="47.30618" lon="0.10175">
        <ele>94.83</ele>
        <time>2016-01-09T09:06:38Z</time>
      </trkpt>
      <trkpt lat="47.30606" lon="0.10185">
        <ele>96.27</ele>
        <time>2016-01-09T09:06:44Z</time>
      </trkpt>
      <trkpt lat="47.30601" lon="0.10189">
        <ele>95.79</ele>
        <time>2016-01-09T09:06:50Z</time>
      </trkpt>
      <trkpt lat="47.30598" lon="0.10189">
        <ele>95.79</ele>
        <time>2016-01-09T09:07:01Z</time>
      </trkpt>
      <trkpt lat="47.30596" lon="0.10191">
        <ele>94.83</ele>
        <time>2016-01-09T09:07:07Z</time>
      </trkpt>
      <trkpt lat="47.30595" lon="0.10192">
        <ele>93.39</ele>
        <time>2016-01-09T09:07:22Z</time>
      </trkpt>
      <trkpt lat="47.30595" lon="0.10192">
        <ele>93.87</ele>
        <time>2016-01-09T09:07:37Z</time>
      </trkpt>
      <trkpt lat="47.30595" lon="0.10192">
        <ele>94.35</ele>
        <time>2016-01-09T09:07:40Z</time>
      </trkpt>
      <trkpt lat="47.30592" lon="0.10193">
        <ele>93.87</ele>
        <time>2016-01-09T09:07:46Z</time>
      </trkpt>
      <trkpt lat="47.30591" lon="0.10194">
        <ele>93.87</ele>
        <time>2016-01-09T09:07:47Z</time>
      </trkpt>
      <trkpt lat="47.3059" lon="0.10195">
        <ele>93.87</ele>
        <time>2016-01-09T09:07:48Z</time>
      </trkpt>
      <trkpt lat="47.30588" lon="0.10195">
        <ele>93.87</ele>
        <time>2016-01-09T09:07:49Z</time>
      </trkpt>
      <trkpt lat="47.30586" lon="0.10197">
        <ele>93.39</ele>
        <time>2016-01-09T09:07:50Z</time>
      </trkpt>
      <trkpt lat="47.30584" lon="0.10199">
        <ele>93.39</ele>
        <time>2016-01-09T09:07:51Z</time>
      </trkpt>
      <trkpt lat="47.3057" lon="0.10214">
        <ele>92.9</ele>
        <time>2016-01-09T09:07:57Z</time>
      </trkpt>
      <trkpt lat="47.30552" lon="0.10244">
        <ele>90.98</ele>
        <time>2016-01-09T09:08:04Z</time>
      </trkpt>
      <trkpt lat="47.30535" lon="0.10278">
        <ele>90.02</ele>
        <time>2016-01-09T09:08:11Z</time>
      </trkpt>
      <trkpt lat="47.30532" lon="0.10283">
        <ele>90.02</ele>
        <time>2016-01-09T09:08:12Z</time>
      </trkpt>
      <trkpt lat="47.30509" lon="0.10322">
        <ele>89.54</ele>
        <time>2016-01-09T09:08:20Z</time>
      </trkpt>
      <trkpt lat="47.30492" lon="0.10358">
        <ele>88.1</ele>
        <time>2016-01-09T09:08:27Z</time>
      </trkpt>
      <trkpt lat="47.30469" lon="0.10391">
        <ele>85.21</ele>
        <time>2016-01-09T09:08:34Z</time>
      </trkpt>
      <trkpt lat="47.30465" lon="0.10396">
        <ele>85.21</ele>
        <time>2016-01-09T09:08:35Z</time>
      </trkpt>
      <trkpt lat="47.3046" lon="0.10399">
        <ele>84.73</ele>
        <time>2016-01-09T09:08:36Z</time>
      </trkpt>
      <trkpt lat="47.30456" lon="0.10401">
        <ele>84.25</ele>
        <time>2016-01-09T09:08:37Z</time>
      </trkpt>
      <trkpt lat="47.30451" lon="0.10403">
        <ele>84.25</ele>
        <time>2016-01-09T09:08:38Z</time>
      </trkpt>
      <trkpt lat="47.30447" lon="0.10405">
        <ele>83.77</ele>
        <time>2016-01-09T09:08:39Z</time>
      </trkpt>
      <trkpt lat="47.30443" lon="0.10409">
        <ele>83.29</ele>
        <time>2016-01-09T09:08:40Z</time>
      </trkpt>
      <trkpt lat="47.30441" lon="0.10416">
        <ele>82.81</ele>
        <time>2016-01-09T09:08:41Z</time>
      </trkpt>
      <trkpt lat="47.30439" lon="0.10424">
        <ele>82.33</ele>
        <time>2016-01-09T09:08:42Z</time>
      </trkpt>
      <trkpt lat="47.30438" lon="0.10432">
        <ele>81.85</ele>
        <time>2016-01-09T09:08:43Z</time>
      </trkpt>
      <trkpt lat="47.30437" lon="0.10441">
        <ele>80.89</ele>
        <time>2016-01-09T09:08:44Z</time>
      </trkpt>
      <trkpt lat="47.30426" lon="0.10521">
        <ele>77.04</ele>
        <time>2016-01-09T09:08:53Z</time>
      </trkpt>
      <trkpt lat="47.30413" lon="0.10594">
        <ele>74.16</ele>
        <time>2016-01-09T09:09:01Z</time>
      </trkpt>
      <trkpt lat="47.30411" lon="0.10602">
        <ele>74.16</ele>
        <time>2016-01-09T09:09:02Z</time>
      </trkpt>
      <trkpt lat="47.30408" lon="0.10609">
        <ele>74.16</ele>
        <time>2016-01-09T09:09:03Z</time>
      </trkpt>
      <trkpt lat="47.30404" lon="0.10616">
        <ele>74.16</ele>
        <time>2016-01-09T09:09:04Z</time>
      </trkpt>
      <trkpt lat="47.304" lon="0.10622">
        <ele>74.16</ele>
        <time>2016-01-09T09:09:05Z</time>
      </trkpt>
      <trkpt lat="47.30397" lon="0.10627">
        <ele>74.16</ele>
        <time>2016-01-09T09:09:06Z</time>
      </trkpt>
      <trkpt lat="47.30371" lon="0.10667">
        <ele>74.64</ele>
        <time>2016-01-09T09:09:14Z</time>
      </trkpt>
      <trkpt lat="47.30368" lon="0.10673">
        <ele>74.64</ele>
        <time>2016-01-09T09:09:15Z</time>
      </trkpt>
      <trkpt lat="47.30365" lon="0.10679">
        <ele>74.64</ele>
        <time>2016-01-09T09:09:16Z</time>
      </trkpt>
      <trkpt lat="47.30363" lon="0.10686">
        <ele>75.12</ele>
        <time>2016-01-09T09:09:17Z</time>
      </trkpt>
      <trkpt lat="47.30359" lon="0.10705">
        <ele>75.12</ele>
        <time>2016-01-09T09:09:20Z</time>
      </trkpt>
      <trkpt lat="47.3035" lon="0.10756">
        <ele>75.12</ele>
        <time>2016-01-09T09:09:28Z</time>
      </trkpt>
      <trkpt lat="47.30341" lon="0.10792">
        <ele>76.08</ele>
        <time>2016-01-09T09:09:35Z</time>
      </trkpt>
      <trkpt lat="47.30339" lon="0.10793">
        <ele>76.08</ele>
        <time>2016-01-09T09:09:36Z</time>
      </trkpt>
      <trkpt lat="47.30335" lon="0.10793">
        <ele>75.6</ele>
        <time>2016-01-09T09:09:37Z</time>
      </trkpt>
      <trkpt lat="47.30331" lon="0.10791">
        <ele>75.6</ele>
        <time>2016-01-09T09:09:38Z</time>
      </trkpt>
      <trkpt lat="47.30328" lon="0.10789">
        <ele>75.6</ele>
        <time>2016-01-09T09:09:39Z</time>
      </trkpt>
      <trkpt lat="47.30323" lon="0.10786">
        <ele>75.6</ele>
        <time>2016-01-09T09:09:40Z</time>
      </trkpt>
      <trkpt lat="47.30288" lon="0.10769">
        <ele>72.72</ele>
        <time>2016-01-09T09:09:46Z</time>
      </trkpt>
      <trkpt lat="47.3024" lon="0.10745">
        <ele>68.39</ele>
        <time>2016-01-09T09:09:53Z</time>
      </trkpt>
      <trkpt lat="47.30224" lon="0.10737">
        <ele>66.47</ele>
        <time>2016-01-09T09:09:57Z</time>
      </trkpt>
      <trkpt lat="47.30211" lon="0.10729">
        <ele>64.07</ele>
        <time>2016-01-09T09:10:02Z</time>
      </trkpt>
      <trkpt lat="47.30191" lon="0.10723">
        <ele>63.1</ele>
        <time>2016-01-09T09:10:07Z</time>
      </trkpt>
      <trkpt lat="47.30178" lon="0.10718">
        <ele>62.62</ele>
        <time>2016-01-09T09:10:10Z</time>
      </trkpt>
      <trkpt lat="47.30174" lon="0.10717">
        <ele>62.62</ele>
        <time>2016-01-09T09:10:11Z</time>
      </trkpt>
      <trkpt lat="47.30133" lon="0.10706">
        <ele>60.22</ele>
        <time>2016-01-09T09:10:18Z</time>
      </trkpt>
      <trkpt lat="47.3008" lon="0.10693">
        <ele>57.34</ele>
        <time>2016-01-09T09:10:26Z</time>
      </trkpt>
      <trkpt lat="47.30069" lon="0.10694">
        <ele>57.34</ele>
        <time>2016-01-09T09:10:29Z</time>
      </trkpt>
      <trkpt lat="47.30067" lon="0.10699">
        <ele>57.34</ele>
        <time>2016-01-09T09:10:30Z</time>
      </trkpt>
      <trkpt lat="47.30066" lon="0.10704">
        <ele>57.34</ele>
        <time>2016-01-09T09:10:31Z</time>
      </trkpt>
      <trkpt lat="47.30066" lon="0.1071">
        <ele>57.34</ele>
        <time>2016-01-09T09:10:32Z</time>
      </trkpt>
      <trkpt lat="47.30066" lon="0.10715">
        <ele>57.34</ele>
        <time>2016-01-09T09:10:33Z</time>
      </trkpt>
      <trkpt lat="47.30065" lon="0.10722">
        <ele>57.34</ele>
        <time>2016-01-09T09:10:34Z</time>
      </trkpt>
      <trkpt lat="47.30062" lon="0.10742">
        <ele>56.86</ele>
        <time>2016-01-09T09:10:37Z</time>
      </trkpt>
      <trkpt lat="47.30054" lon="0.10801">
        <ele>57.34</ele>
        <time>2016-01-09T09:10:46Z</time>
      </trkpt>
      <trkpt lat="47.30051" lon="0.10819">
        <ele>57.34</ele>
        <time>2016-01-09T09:10:49Z</time>
      </trkpt>
      <trkpt lat="47.30051" lon="0.10825">
        <ele>57.34</ele>
        <time>2016-01-09T09:10:50Z</time>
      </trkpt>
      <trkpt lat="47.30053" lon="0.10831">
        <ele>57.82</ele>
        <time>2016-01-09T09:10:51Z</time>
      </trkpt>
      <trkpt lat="47.30063" lon="0.10835">
        <ele>58.78</ele>
        <time>2016-01-09T09:10:54Z</time>
      </trkpt>
      <trkpt lat="47.30103" lon="0.10847">
        <ele>61.18</ele>
        <time>2016-01-09T09:11:05Z</time>
      </trkpt>
      <trkpt lat="47.30119" lon="0.10855">
        <ele>61.18</ele>
        <time>2016-01-09T09:11:11Z</time>
      </trkpt>
      <trkpt lat="47.30124" lon="0.10857">
        <ele>61.66</ele>
        <time>2016-01-09T09:11:13Z</time>
      </trkpt>
      <trkpt lat="47.30133" lon="0.10867">
        <ele>62.14</ele>
        <time>2016-01-09T09:11:19Z</time>
      </trkpt>
      <trkpt lat="47.30131" lon="0.1088">
        <ele>62.62</ele>
        <time>2016-01-09T09:11:22Z</time>
      </trkpt>
      <trkpt lat="47.30126" lon="0.10913">
        <ele>63.58</ele>
        <time>2016-01-09T09:11:30Z</time>
      </trkpt>
      <trkpt lat="47.30136" lon="0.10924">
        <ele>64.55</ele>
        <time>2016-01-09T09:11:36Z</time>
      </trkpt>
      <trkpt lat="47.30161" lon="0.1093">
        <ele>65.99</ele>
        <time>2016-01-09T09:11:45Z</time>
      </trkpt>
      <trkpt lat="47.30174" lon="0.10937">
        <ele>66.95</ele>
        <time>2016-01-09T09:11:51Z</time>
      </trkpt>
      <trkpt lat="47.30173" lon="0.10963">
        <ele>68.39</ele>
        <time>2016-01-09T09:11:57Z</time>
      </trkpt>
      <trkpt lat="47.30177" lon="0.10982">
        <ele>69.35</ele>
        <time>2016-01-09T09:12:02Z</time>
      </trkpt>
      <trkpt lat="47.30192" lon="0.1099">
        <ele>70.79</ele>
        <time>2016-01-09T09:12:08Z</time>
      </trkpt>
      <trkpt lat="47.3022" lon="0.10997">
        <ele>73.2</ele>
        <time>2016-01-09T09:12:18Z</time>
      </trkpt>
      <trkpt lat="47.30228" lon="0.11">
        <ele>73.68</ele>
        <time>2016-01-09T09:12:21Z</time>
      </trkpt>
      <trkpt lat="47.3023" lon="0.11017">
        <ele>75.12</ele>
        <time>2016-01-09T09:12:26Z</time>
      </trkpt>
      <trkpt lat="47.30225" lon="0.11058">
        <ele>74.64</ele>
        <time>2016-01-09T09:12:35Z</time>
      </trkpt>
      <trkpt lat="47.30228" lon="0.11083">
        <ele>75.6</ele>
        <time>2016-01-09T09:12:41Z</time>
      </trkpt>
      <trkpt lat="47.30245" lon="0.11091">
        <ele>77.52</ele>
        <time>2016-01-09T09:12:50Z</time>
      </trkpt>
      <trkpt lat="47.30255" lon="0.11093">
        <ele>78.97</ele>
        <time>2016-01-09T09:12:57Z</time>
      </trkpt>
      <trkpt lat="47.30266" lon="0.11095">
        <ele>79.93</ele>
        <time>2016-01-09T09:13:03Z</time>
      </trkpt>
      <trkpt lat="47.30276" lon="0.11101">
        <ele>80.41</ele>
        <time>2016-01-09T09:13:09Z</time>
      </trkpt>
      <trkpt lat="47.30284" lon="0.11122">
        <ele>80.89</ele>
        <time>2016-01-09T09:13:18Z</time>
      </trkpt>
      <trkpt lat="47.30293" lon="0.11136">
        <ele>82.81</ele>
        <time>2016-01-09T09:13:25Z</time>
      </trkpt>
      <trkpt lat="47.30303" lon="0.11141">
        <ele>84.73</ele>
        <time>2016-01-09T09:13:32Z</time>
      </trkpt>
      <trkpt lat="47.30304" lon="0.11142">
        <ele>85.21</ele>
        <time>2016-01-09T09:13:33Z</time>
      </trkpt>
      <trkpt lat="47.30309" lon="0.11161">
        <ele>87.14</ele>
        <time>2016-01-09T09:13:40Z</time>
      </trkpt>
      <trkpt lat="47.30305" lon="0.11194">
        <ele>88.58</ele>
        <time>2016-01-09T09:13:47Z</time>
      </trkpt>
      <trkpt lat="47.30303" lon="0.11207">
        <ele>87.62</ele>
        <time>2016-01-09T09:13:50Z</time>
      </trkpt>
      <trkpt lat="47.30289" lon="0.11213">
        <ele>85.69</ele>
        <time>2016-01-09T09:13:56Z</time>
      </trkpt>
      <trkpt lat="47.30277" lon="0.11205">
        <ele>84.25</ele>
        <time>2016-01-09T09:14:00Z</time>
      </trkpt>
      <trkpt lat="47.30268" lon="0.11201">
        <ele>83.29</ele>
        <time>2016-01-09T09:14:03Z</time>
      </trkpt>
      <trkpt lat="47.3026" lon="0.11211">
        <ele>82.81</ele>
        <time>2016-01-09T09:14:06Z</time>
      </trkpt>
      <trkpt lat="47.30259" lon="0.11217">
        <ele>82.81</ele>
        <time>2016-01-09T09:14:07Z</time>
      </trkpt>
      <trkpt lat="47.30259" lon="0.11223">
        <ele>82.81</ele>
        <time>2016-01-09T09:14:08Z</time>
      </trkpt>
      <trkpt lat="47.30258" lon="0.1123">
        <ele>82.81</ele>
        <time>2016-01-09T09:14:09Z</time>
      </trkpt>
      <trkpt lat="47.30255" lon="0.11285">
        <ele>84.25</ele>
        <time>2016-01-09T09:14:17Z</time>
      </trkpt>
      <trkpt lat="47.30253" lon="0.11321">
        <ele>85.69</ele>
        <time>2016-01-09T09:14:23Z</time>
      </trkpt>
      <trkpt lat="47.30258" lon="0.1133">
        <ele>83.77</ele>
        <time>2016-01-09T09:14:25Z</time>
      </trkpt>
      <trkpt lat="47.30274" lon="0.11335">
        <ele>81.37</ele>
        <time>2016-01-09T09:14:31Z</time>
      </trkpt>
      <trkpt lat="47.30294" lon="0.11344">
        <ele>81.85</ele>
        <time>2016-01-09T09:14:39Z</time>
      </trkpt>
      <trkpt lat="47.30306" lon="0.11355">
        <ele>81.85</ele>
        <time>2016-01-09T09:14:47Z</time>
      </trkpt>
      <trkpt lat="47.30314" lon="0.1136">
        <ele>83.77</ele>
        <time>2016-01-09T09:14:53Z</time>
      </trkpt>
      <trkpt lat="47.30315" lon="0.11361">
        <ele>83.77</ele>
        <time>2016-01-09T09:14:54Z</time>
      </trkpt>
      <trkpt lat="47.30316" lon="0.11361">
        <ele>83.77</ele>
        <time>2016-01-09T09:14:55Z</time>
      </trkpt>
      <trkpt lat="47.30317" lon="0.11362">
        <ele>83.77</ele>
        <time>2016-01-09T09:14:56Z</time>
      </trkpt>
      <trkpt lat="47.30318" lon="0.11363">
        <ele>83.77</ele>
        <time>2016-01-09T09:14:57Z</time>
      </trkpt>
      <trkpt lat="47.30327" lon="0.11369">
        <ele>84.25</ele>
        <time>2016-01-09T09:15:04Z</time>
      </trkpt>
      <trkpt lat="47.30339" lon="0.11378">
        <ele>86.18</ele>
        <time>2016-01-09T09:15:13Z</time>
      </trkpt>
      <trkpt lat="47.30348" lon="0.11384">
        <ele>86.18</ele>
        <time>2016-01-09T09:15:20Z</time>
      </trkpt>
      <trkpt lat="47.30352" lon="0.11389">
        <ele>86.66</ele>
        <time>2016-01-09T09:15:24Z</time>
      </trkpt>
      <trkpt lat="47.3036" lon="0.11394">
        <ele>88.1</ele>
        <time>2016-01-09T09:15:31Z</time>
      </trkpt>
      <trkpt lat="47.30362" lon="0.11396">
        <ele>89.06</ele>
        <time>2016-01-09T09:15:34Z</time>
      </trkpt>
      <trkpt lat="47.30363" lon="0.11399">
        <ele>90.02</ele>
        <time>2016-01-09T09:15:41Z</time>
      </trkpt>
      <trkpt lat="47.30363" lon="0.11399">
        <ele>90.98</ele>
        <time>2016-01-09T09:15:53Z</time>
      </trkpt>
      <trkpt lat="47.30363" lon="0.11399">
        <ele>91.46</ele>
        <time>2016-01-09T09:16:00Z</time>
      </trkpt>
      <trkpt lat="47.30362" lon="0.11402">
        <ele>91.46</ele>
        <time>2016-01-09T09:16:07Z</time>
      </trkpt>
      <trkpt lat="47.30362" lon="0.11402">
        <ele>91.46</ele>
        <time>2016-01-09T09:16:15Z</time>
      </trkpt>
      <trkpt lat="47.30362" lon="0.11402">
        <ele>90.5</ele>
        <time>2016-01-09T09:16:28Z</time>
      </trkpt>
      <trkpt lat="47.30362" lon="0.11403">
        <ele>89.54</ele>
        <time>2016-01-09T09:16:36Z</time>
      </trkpt>
      <trkpt lat="47.30362" lon="0.11404">
        <ele>89.06</ele>
        <time>2016-01-09T09:16:56Z</time>
      </trkpt>
      <trkpt lat="47.30362" lon="0.11403">
        <ele>90.5</ele>
        <time>2016-01-09T09:17:17Z</time>
      </trkpt>
      <trkpt lat="47.30362" lon="0.11404">
        <ele>90.5</ele>
        <time>2016-01-09T09:17:28Z</time>
      </trkpt>
      <trkpt lat="47.30361" lon="0.11407">
        <ele>90.98</ele>
        <time>2016-01-09T09:17:38Z</time>
      </trkpt>
      <trkpt lat="47.30361" lon="0.11408">
        <ele>91.46</ele>
        <time>2016-01-09T09:17:39Z</time>
      </trkpt>
      <trkpt lat="47.3036" lon="0.1141">
        <ele>91.46</ele>
        <time>2016-01-09T09:17:40Z</time>
      </trkpt>
      <trkpt lat="47.30359" lon="0.11412">
        <ele>91.46</ele>
        <time>2016-01-09T09:17:41Z</time>
      </trkpt>
      <trkpt lat="47.30359" lon="0.11414">
        <ele>91.94</ele>
        <time>2016-01-09T09:17:42Z</time>
      </trkpt>
      <trkpt lat="47.30359" lon="0.11416">
        <ele>91.94</ele>
        <time>2016-01-09T09:17:43Z</time>
      </trkpt>
      <trkpt lat="47.30359" lon="0.11418">
        <ele>92.42</ele>
        <time>2016-01-09T09:17:44Z</time>
      </trkpt>
      <trkpt lat="47.30355" lon="0.11431">
        <ele>93.87</ele>
        <time>2016-01-09T09:17:50Z</time>
      </trkpt>
      <trkpt lat="47.30351" lon="0.11446">
        <ele>94.83</ele>
        <time>2016-01-09T09:17:57Z</time>
      </trkpt>
      <trkpt lat="47.30345" lon="0.11468">
        <ele>94.83</ele>
        <time>2016-01-09T09:18:04Z</time>
      </trkpt>
      <trkpt lat="47.30338" lon="0.11492">
        <ele>93.39</ele>
        <time>2016-01-09T09:18:09Z</time>
      </trkpt>
      <trkpt lat="47.3034" lon="0.11518">
        <ele>90.98</ele>
        <time>2016-01-09T09:18:14Z</time>
      </trkpt>
      <trkpt lat="47.30342" lon="0.11521">
        <ele>90.98</ele>
        <time>2016-01-09T09:18:15Z</time>
      </trkpt>
      <trkpt lat="47.30349" lon="0.11527">
        <ele>90.5</ele>
        <time>2016-01-09T09:18:18Z</time>
      </trkpt>
      <trkpt lat="47.30351" lon="0.11546">
        <ele>89.54</ele>
        <time>2016-01-09T09:18:22Z</time>
      </trkpt>
      <trkpt lat="47.30352" lon="0.11552">
        <ele>89.06</ele>
        <time>2016-01-09T09:18:23Z</time>
      </trkpt>
      <trkpt lat="47.30355" lon="0.11557">
        <ele>88.58</ele>
        <time>2016-01-09T09:18:24Z</time>
      </trkpt>
      <trkpt lat="47.30358" lon="0.11561">
        <ele>88.1</ele>
        <time>2016-01-09T09:18:25Z</time>
      </trkpt>
      <trkpt lat="47.30362" lon="0.11563">
        <ele>87.62</ele>
        <time>2016-01-09T09:18:26Z</time>
      </trkpt>
      <trkpt lat="47.30365" lon="0.11564">
        <ele>87.14</ele>
        <time>2016-01-09T09:18:27Z</time>
      </trkpt>
      <trkpt lat="47.30369" lon="0.11564">
        <ele>87.14</ele>
        <time>2016-01-09T09:18:28Z</time>
      </trkpt>
      <trkpt lat="47.30384" lon="0.1157">
        <ele>86.66</ele>
        <time>2016-01-09T09:18:34Z</time>
      </trkpt>
      <trkpt lat="47.30393" lon="0.11576">
        <ele>85.69</ele>
        <time>2016-01-09T09:18:38Z</time>
      </trkpt>
      <trkpt lat="47.3039" lon="0.11588">
        <ele>85.21</ele>
        <time>2016-01-09T09:18:41Z</time>
      </trkpt>
      <trkpt lat="47.30386" lon="0.11593">
        <ele>84.73</ele>
        <time>2016-01-09T09:18:42Z</time>
      </trkpt>
      <trkpt lat="47.30384" lon="0.11599">
        <ele>84.25</ele>
        <time>2016-01-09T09:18:43Z</time>
      </trkpt>
      <trkpt lat="47.30383" lon="0.11607">
        <ele>83.77</ele>
        <time>2016-01-09T09:18:44Z</time>
      </trkpt>
      <trkpt lat="47.3037" lon="0.1167">
        <ele>80.89</ele>
        <time>2016-01-09T09:18:51Z</time>
      </trkpt>
      <trkpt lat="47.30367" lon="0.11698">
        <ele>79.45</ele>
        <time>2016-01-09T09:18:55Z</time>
      </trkpt>
      <trkpt lat="47.30368" lon="0.117">
        <ele>79.45</ele>
        <time>2016-01-09T09:18:56Z</time>
      </trkpt>
      <trkpt lat="47.3037" lon="0.11701">
        <ele>79.45</ele>
        <time>2016-01-09T09:18:57Z</time>
      </trkpt>
      <trkpt lat="47.30387" lon="0.11712">
        <ele>79.45</ele>
        <time>2016-01-09T09:19:04Z</time>
      </trkpt>
      <trkpt lat="47.3041" lon="0.11739">
        <ele>79.45</ele>
        <time>2016-01-09T09:19:12Z</time>
      </trkpt>
      <trkpt lat="47.30413" lon="0.11743">
        <ele>78.97</ele>
        <time>2016-01-09T09:19:13Z</time>
      </trkpt>
      <trkpt lat="47.30434" lon="0.11762">
        <ele>78</ele>
        <time>2016-01-09T09:19:20Z</time>
      </trkpt>
      <trkpt lat="47.3044" lon="0.11781">
        <ele>77.04</ele>
        <time>2016-01-09T09:19:24Z</time>
      </trkpt>
      <trkpt lat="47.30439" lon="0.11787">
        <ele>77.52</ele>
        <time>2016-01-09T09:19:25Z</time>
      </trkpt>
      <trkpt lat="47.30437" lon="0.11792">
        <ele>77.52</ele>
        <time>2016-01-09T09:19:26Z</time>
      </trkpt>
      <trkpt lat="47.30434" lon="0.11797">
        <ele>77.52</ele>
        <time>2016-01-09T09:19:27Z</time>
      </trkpt>
      <trkpt lat="47.30432" lon="0.11802">
        <ele>77.52</ele>
        <time>2016-01-09T09:19:28Z</time>
      </trkpt>
      <trkpt lat="47.30416" lon="0.11834">
        <ele>76.56</ele>
        <time>2016-01-09T09:19:34Z</time>
      </trkpt>
      <trkpt lat="47.30412" lon="0.11839">
        <ele>76.56</ele>
        <time>2016-01-09T09:19:35Z</time>
      </trkpt>
      <trkpt lat="47.30407" lon="0.11843">
        <ele>76.56</ele>
        <time>2016-01-09T09:19:36Z</time>
      </trkpt>
      <trkpt lat="47.30402" lon="0.11847">
        <ele>76.56</ele>
        <time>2016-01-09T09:19:37Z</time>
      </trkpt>
      <trkpt lat="47.30398" lon="0.11851">
        <ele>76.08</ele>
        <time>2016-01-09T09:19:38Z</time>
      </trkpt>
      <trkpt lat="47.30394" lon="0.11855">
        <ele>76.56</ele>
        <time>2016-01-09T09:19:39Z</time>
      </trkpt>
      <trkpt lat="47.30391" lon="0.11858">
        <ele>76.56</ele>
        <time>2016-01-09T09:19:40Z</time>
      </trkpt>
      <trkpt lat="47.30387" lon="0.11861">
        <ele>76.56</ele>
        <time>2016-01-09T09:19:41Z</time>
      </trkpt>
      <trkpt lat="47.30376" lon="0.1187">
        <ele>77.52</ele>
        <time>2016-01-09T09:19:46Z</time>
      </trkpt>
      <trkpt lat="47.30369" lon="0.11877">
        <ele>78.97</ele>
        <time>2016-01-09T09:19:51Z</time>
      </trkpt>
      <trkpt lat="47.30368" lon="0.11878">
        <ele>79.45</ele>
        <time>2016-01-09T09:19:52Z</time>
      </trkpt>
      <trkpt lat="47.30367" lon="0.1188">
        <ele>79.93</ele>
        <time>2016-01-09T09:19:53Z</time>
      </trkpt>
      <trkpt lat="47.30357" lon="0.11891">
        <ele>81.85</ele>
        <time>2016-01-09T09:19:59Z</time>
      </trkpt>
      <trkpt lat="47.30343" lon="0.11907">
        <ele>82.81</ele>
        <time>2016-01-09T09:20:05Z</time>
      </trkpt>
      <trkpt lat="47.30341" lon="0.11907">
        <ele>82.81</ele>
        <time>2016-01-09T09:20:06Z</time>
      </trkpt>
      <trkpt lat="47.30338" lon="0.11905">
        <ele>82.81</ele>
        <time>2016-01-09T09:20:07Z</time>
      </trkpt>
      <trkpt lat="47.30335" lon="0.11905">
        <ele>82.81</ele>
        <time>2016-01-09T09:20:08Z</time>
      </trkpt>
      <trkpt lat="47.3033" lon="0.11909">
        <ele>83.29</ele>
        <time>2016-01-09T09:20:10Z</time>
      </trkpt>
      <trkpt lat="47.30328" lon="0.11913">
        <ele>83.29</ele>
        <time>2016-01-09T09:20:11Z</time>
      </trkpt>
      <trkpt lat="47.30327" lon="0.11918">
        <ele>83.29</ele>
        <time>2016-01-09T09:20:12Z</time>
      </trkpt>
      <trkpt lat="47.30324" lon="0.11938">
        <ele>83.77</ele>
        <time>2016-01-09T09:20:17Z</time>
      </trkpt>
      <trkpt lat="47.30333" lon="0.11944">
        <ele>83.77</ele>
        <time>2016-01-09T09:20:22Z</time>
      </trkpt>
      <trkpt lat="47.30352" lon="0.11951">
        <ele>84.25</ele>
        <time>2016-01-09T09:20:30Z</time>
      </trkpt>
      <trkpt lat="47.30365" lon="0.11955">
        <ele>84.25</ele>
        <time>2016-01-09T09:20:36Z</time>
      </trkpt>
      <trkpt lat="47.30382" lon="0.1196">
        <ele>85.69</ele>
        <time>2016-01-09T09:20:44Z</time>
      </trkpt>
      <trkpt lat="47.30396" lon="0.11966">
        <ele>87.62</ele>
        <time>2016-01-09T09:20:52Z</time>
      </trkpt>
      <trkpt lat="47.30405" lon="0.11967">
        <ele>89.06</ele>
        <time>2016-01-09T09:20:56Z</time>
      </trkpt>
      <trkpt lat="47.30406" lon="0.1198">
        <ele>90.98</ele>
        <time>2016-01-09T09:21:01Z</time>
      </trkpt>
      <trkpt lat="47.304" lon="0.12002">
        <ele>90.5</ele>
        <time>2016-01-09T09:21:06Z</time>
      </trkpt>
      <trkpt lat="47.30396" lon="0.12026">
        <ele>89.54</ele>
        <time>2016-01-09T09:21:10Z</time>
      </trkpt>
      <trkpt lat="47.30393" lon="0.12072">
        <ele>88.1</ele>
        <time>2016-01-09T09:21:18Z</time>
      </trkpt>
      <trkpt lat="47.30391" lon="0.12097">
        <ele>88.1</ele>
        <time>2016-01-09T09:21:22Z</time>
      </trkpt>
      <trkpt lat="47.3039" lon="0.12103">
        <ele>88.1</ele>
        <time>2016-01-09T09:21:23Z</time>
      </trkpt>
      <trkpt lat="47.30389" lon="0.12109">
        <ele>88.1</ele>
        <time>2016-01-09T09:21:24Z</time>
      </trkpt>
      <trkpt lat="47.30387" lon="0.12144">
        <ele>88.58</ele>
        <time>2016-01-09T09:21:30Z</time>
      </trkpt>
      <trkpt lat="47.3038" lon="0.12194">
        <ele>87.62</ele>
        <time>2016-01-09T09:21:38Z</time>
      </trkpt>
      <trkpt lat="47.30383" lon="0.12219">
        <ele>87.62</ele>
        <time>2016-01-09T09:21:42Z</time>
      </trkpt>
      <trkpt lat="47.30384" lon="0.12225">
        <ele>87.62</ele>
        <time>2016-01-09T09:21:43Z</time>
      </trkpt>
      <trkpt lat="47.30385" lon="0.1223">
        <ele>87.62</ele>
        <time>2016-01-09T09:21:44Z</time>
      </trkpt>
      <trkpt lat="47.30395" lon="0.12263">
        <ele>87.62</ele>
        <time>2016-01-09T09:21:50Z</time>
      </trkpt>
      <trkpt lat="47.30395" lon="0.12278">
        <ele>87.62</ele>
        <time>2016-01-09T09:21:56Z</time>
      </trkpt>
      <trkpt lat="47.30394" lon="0.12284">
        <ele>88.1</ele>
        <time>2016-01-09T09:22:01Z</time>
      </trkpt>
      <trkpt lat="47.30393" lon="0.12284">
        <ele>87.14</ele>
        <time>2016-01-09T09:22:11Z</time>
      </trkpt>
      <trkpt lat="47.30391" lon="0.12283">
        <ele>86.66</ele>
        <time>2016-01-09T09:22:17Z</time>
      </trkpt>
      <trkpt lat="47.30391" lon="0.12284">
        <ele>86.66</ele>
        <time>2016-01-09T09:22:26Z</time>
      </trkpt>
      <trkpt lat="47.30391" lon="0.12284">
        <ele>86.18</ele>
        <time>2016-01-09T09:22:38Z</time>
      </trkpt>
      <trkpt lat="47.30392" lon="0.12286">
        <ele>86.18</ele>
        <time>2016-01-09T09:22:46Z</time>
      </trkpt>
      <trkpt lat="47.30393" lon="0.12286">
        <ele>85.69</ele>
        <time>2016-01-09T09:23:03Z</time>
      </trkpt>
      <trkpt lat="47.30393" lon="0.12286">
        <ele>85.69</ele>
        <time>2016-01-09T09:23:08Z</time>
      </trkpt>
      <trkpt lat="47.30394" lon="0.12284">
        <ele>85.69</ele>
        <time>2016-01-09T09:23:12Z</time>
      </trkpt>
      <trkpt lat="47.30394" lon="0.12278">
        <ele>84.73</ele>
        <time>2016-01-09T09:23:20Z</time>
      </trkpt>
      <trkpt lat="47.30395" lon="0.12279">
        <ele>84.25</ele>
        <time>2016-01-09T09:23:21Z</time>
      </trkpt>
      <trkpt lat="47.30395" lon="0.1228">
        <ele>83.77</ele>
        <time>2016-01-09T09:23:22Z</time>
      </trkpt>
      <trkpt lat="47.30396" lon="0.12283">
        <ele>83.29</ele>
        <time>2016-01-09T09:23:23Z</time>
      </trkpt>
      <trkpt lat="47.30393" lon="0.12304">
        <ele>80.89</ele>
        <time>2016-01-09T09:23:27Z</time>
      </trkpt>
      <trkpt lat="47.30391" lon="0.1231">
        <ele>80.41</ele>
        <time>2016-01-09T09:23:28Z</time>
      </trkpt>
      <trkpt lat="47.30388" lon="0.12315">
        <ele>79.93</ele>
        <time>2016-01-09T09:23:29Z</time>
      </trkpt>
      <trkpt lat="47.30383" lon="0.12317">
        <ele>79.93</ele>
        <time>2016-01-09T09:23:30Z</time>
      </trkpt>
      <trkpt lat="47.30379" lon="0.12318">
        <ele>79.45</ele>
        <time>2016-01-09T09:23:31Z</time>
      </trkpt>
      <trkpt lat="47.30375" lon="0.12317">
        <ele>78.97</ele>
        <time>2016-01-09T09:23:32Z</time>
      </trkpt>
      <trkpt lat="47.30337" lon="0.12306">
        <ele>76.56</ele>
        <time>2016-01-09T09:23:41Z</time>
      </trkpt>
      <trkpt lat="47.30333" lon="0.12307">
        <ele>76.56</ele>
        <time>2016-01-09T09:23:42Z</time>
      </trkpt>
      <trkpt lat="47.30328" lon="0.12308">
        <ele>76.08</ele>
        <time>2016-01-09T09:23:43Z</time>
      </trkpt>
      <trkpt lat="47.30324" lon="0.12309">
        <ele>76.08</ele>
        <time>2016-01-09T09:23:44Z</time>
      </trkpt>
      <trkpt lat="47.30319" lon="0.12309">
        <ele>76.08</ele>
        <time>2016-01-09T09:23:45Z</time>
      </trkpt>
      <trkpt lat="47.30314" lon="0.12309">
        <ele>75.6</ele>
        <time>2016-01-09T09:23:46Z</time>
      </trkpt>
      <trkpt lat="47.30309" lon="0.12309">
        <ele>75.6</ele>
        <time>2016-01-09T09:23:47Z</time>
      </trkpt>
      <trkpt lat="47.30303" lon="0.1231">
        <ele>75.12</ele>
        <time>2016-01-09T09:23:48Z</time>
      </trkpt>
      <trkpt lat="47.30297" lon="0.12311">
        <ele>74.64</ele>
        <time>2016-01-09T09:23:49Z</time>
      </trkpt>
      <trkpt lat="47.30293" lon="0.12311">
        <ele>74.64</ele>
        <time>2016-01-09T09:23:50Z</time>
      </trkpt>
      <trkpt lat="47.30264" lon="0.12307">
        <ele>73.2</ele>
        <time>2016-01-09T09:23:57Z</time>
      </trkpt>
      <trkpt lat="47.30255" lon="0.12305">
        <ele>73.68</ele>
        <time>2016-01-09T09:23:59Z</time>
      </trkpt>
      <trkpt lat="47.30234" lon="0.12299">
        <ele>74.64</ele>
        <time>2016-01-09T09:24:06Z</time>
      </trkpt>
      <trkpt lat="47.30233" lon="0.12299">
        <ele>74.64</ele>
        <time>2016-01-09T09:24:11Z</time>
      </trkpt>
      <trkpt lat="47.30234" lon="0.12302">
        <ele>75.12</ele>
        <time>2016-01-09T09:24:19Z</time>
      </trkpt>
      <trkpt lat="47.30236" lon="0.12302">
        <ele>74.64</ele>
        <time>2016-01-09T09:24:20Z</time>
      </trkpt>
      <trkpt lat="47.30237" lon="0.12303">
        <ele>75.12</ele>
        <time>2016-01-09T09:24:21Z</time>
      </trkpt>
      <trkpt lat="47.30256" lon="0.12307">
        <ele>75.12</ele>
        <time>2016-01-09T09:24:28Z</time>
      </trkpt>
      <trkpt lat="47.30281" lon="0.12313">
        <ele>74.64</ele>
        <time>2016-01-09T09:24:36Z</time>
      </trkpt>
      <trkpt lat="47.30308" lon="0.12318">
        <ele>75.6</ele>
        <time>2016-01-09T09:24:45Z</time>
      </trkpt>
      <trkpt lat="47.30327" lon="0.12325">
        <ele>77.04</ele>
        <time>2016-01-09T09:24:53Z</time>
      </trkpt>
      <trkpt lat="47.30329" lon="0.12323">
        <ele>76.56</ele>
        <time>2016-01-09T09:24:54Z</time>
      </trkpt>
      <trkpt lat="47.3033" lon="0.12321">
        <ele>76.56</ele>
        <time>2016-01-09T09:24:55Z</time>
      </trkpt>
      <trkpt lat="47.30332" lon="0.12321">
        <ele>76.56</ele>
        <time>2016-01-09T09:24:56Z</time>
      </trkpt>
      <trkpt lat="47.30334" lon="0.12321">
        <ele>77.04</ele>
        <time>2016-01-09T09:24:57Z</time>
      </trkpt>
      <trkpt lat="47.30336" lon="0.12321">
        <ele>77.04</ele>
        <time>2016-01-09T09:24:58Z</time>
      </trkpt>
      <trkpt lat="47.30338" lon="0.12322">
        <ele>77.04</ele>
        <time>2016-01-09T09:24:59Z</time>
      </trkpt>
      <trkpt lat="47.30352" lon="0.12328">
        <ele>78</ele>
        <time>2016-01-09T09:25:06Z</time>
      </trkpt>
      <trkpt lat="47.30365" lon="0.12331">
        <ele>79.45</ele>
        <time>2016-01-09T09:25:12Z</time>
      </trkpt>
      <trkpt lat="47.30382" lon="0.12337">
        <ele>80.41</ele>
        <time>2016-01-09T09:25:21Z</time>
      </trkpt>
      <trkpt lat="47.30398" lon="0.12345">
        <ele>81.37</ele>
        <time>2016-01-09T09:25:30Z</time>
      </trkpt>
      <trkpt lat="47.30413" lon="0.1235">
        <ele>81.37</ele>
        <time>2016-01-09T09:25:38Z</time>
      </trkpt>
      <trkpt lat="47.3042" lon="0.12357">
        <ele>81.85</ele>
        <time>2016-01-09T09:25:43Z</time>
      </trkpt>
      <trkpt lat="47.30421" lon="0.1236">
        <ele>81.85</ele>
        <time>2016-01-09T09:25:44Z</time>
      </trkpt>
      <trkpt lat="47.30422" lon="0.12363">
        <ele>81.85</ele>
        <time>2016-01-09T09:25:45Z</time>
      </trkpt>
      <trkpt lat="47.30422" lon="0.12366">
        <ele>81.85</ele>
        <time>2016-01-09T09:25:46Z</time>
      </trkpt>
      <trkpt lat="47.30423" lon="0.12369">
        <ele>82.33</ele>
        <time>2016-01-09T09:25:47Z</time>
      </trkpt>
      <trkpt lat="47.30424" lon="0.12372">
        <ele>82.33</ele>
        <time>2016-01-09T09:25:48Z</time>
      </trkpt>
      <trkpt lat="47.30424" lon="0.12376">
        <ele>82.33</ele>
        <time>2016-01-09T09:25:49Z</time>
      </trkpt>
      <trkpt lat="47.30424" lon="0.12379">
        <ele>82.33</ele>
        <time>2016-01-09T09:25:50Z</time>
      </trkpt>
      <trkpt lat="47.30424" lon="0.12382">
        <ele>82.33</ele>
        <time>2016-01-09T09:25:51Z</time>
      </trkpt>
      <trkpt lat="47.30425" lon="0.12407">
        <ele>83.77</ele>
        <time>2016-01-09T09:25:58Z</time>
      </trkpt>
      <trkpt lat="47.30426" lon="0.1241">
        <ele>83.77</ele>
        <time>2016-01-09T09:25:59Z</time>
      </trkpt>
      <trkpt lat="47.30426" lon="0.12414">
        <ele>84.25</ele>
        <time>2016-01-09T09:26:00Z</time>
      </trkpt>
      <trkpt lat="47.30429" lon="0.12434">
        <ele>85.69</ele>
        <time>2016-01-09T09:26:05Z</time>
      </trkpt>
      <trkpt lat="47.30437" lon="0.12457">
        <ele>86.18</ele>
        <time>2016-01-09T09:26:11Z</time>
      </trkpt>
      <trkpt lat="47.30437" lon="0.12481">
        <ele>86.66</ele>
        <time>2016-01-09T09:26:16Z</time>
      </trkpt>
      <trkpt lat="47.30422" lon="0.12497">
        <ele>84.73</ele>
        <time>2016-01-09T09:26:21Z</time>
      </trkpt>
      <trkpt lat="47.30404" lon="0.12511">
        <ele>83.29</ele>
        <time>2016-01-09T09:26:25Z</time>
      </trkpt>
      <trkpt lat="47.30371" lon="0.12544">
        <ele>79.45</ele>
        <time>2016-01-09T09:26:33Z</time>
      </trkpt>
      <trkpt lat="47.3036" lon="0.12559">
        <ele>77.52</ele>
        <time>2016-01-09T09:26:38Z</time>
      </trkpt>
      <trkpt lat="47.3036" lon="0.12561">
        <ele>77.52</ele>
        <time>2016-01-09T09:26:39Z</time>
      </trkpt>
      <trkpt lat="47.30361" lon="0.12563">
        <ele>77.52</ele>
        <time>2016-01-09T09:26:40Z</time>
      </trkpt>
      <trkpt lat="47.30363" lon="0.12563">
        <ele>77.04</ele>
        <time>2016-01-09T09:26:41Z</time>
      </trkpt>
      <trkpt lat="47.30375" lon="0.12551">
        <ele>77.04</ele>
        <time>2016-01-09T09:26:48Z</time>
      </trkpt>
      <trkpt lat="47.3039" lon="0.12536">
        <ele>76.08</ele>
        <time>2016-01-09T09:26:56Z</time>
      </trkpt>
      <trkpt lat="47.30405" lon="0.12525">
        <ele>78</ele>
        <time>2016-01-09T09:27:04Z</time>
      </trkpt>
      <trkpt lat="47.30413" lon="0.12517">
        <ele>78.48</ele>
        <time>2016-01-09T09:27:10Z</time>
      </trkpt>
      <trkpt lat="47.30424" lon="0.12508">
        <ele>77.04</ele>
        <time>2016-01-09T09:27:18Z</time>
      </trkpt>
      <trkpt lat="47.30437" lon="0.12505">
        <ele>78</ele>
        <time>2016-01-09T09:27:28Z</time>
      </trkpt>
      <trkpt lat="47.30445" lon="0.12503">
        <ele>78.97</ele>
        <time>2016-01-09T09:27:33Z</time>
      </trkpt>
      <trkpt lat="47.30458" lon="0.12503">
        <ele>80.41</ele>
        <time>2016-01-09T09:27:41Z</time>
      </trkpt>
      <trkpt lat="47.30462" lon="0.12505">
        <ele>81.85</ele>
        <time>2016-01-09T09:27:47Z</time>
      </trkpt>
      <trkpt lat="47.30464" lon="0.12505">
        <ele>83.29</ele>
        <time>2016-01-09T09:27:56Z</time>
      </trkpt>
      <trkpt lat="47.30466" lon="0.12505">
        <ele>84.73</ele>
        <time>2016-01-09T09:28:02Z</time>
      </trkpt>
      <trkpt lat="47.30464" lon="0.12504">
        <ele>86.18</ele>
        <time>2016-01-09T09:28:21Z</time>
      </trkpt>
      <trkpt lat="47.30464" lon="0.12504">
        <ele>86.66</ele>
        <time>2016-01-09T09:28:31Z</time>
      </trkpt>
      <trkpt lat="47.30466" lon="0.12506">
        <ele>85.69</ele>
        <time>2016-01-09T09:28:39Z</time>
      </trkpt>
      <trkpt lat="47.30467" lon="0.12506">
        <ele>85.69</ele>
        <time>2016-01-09T09:28:58Z</time>
      </trkpt>
      <trkpt lat="47.30466" lon="0.12506">
        <ele>84.73</ele>
        <time>2016-01-09T09:29:16Z</time>
      </trkpt>
      <trkpt lat="47.30468" lon="0.12507">
        <ele>84.73</ele>
        <time>2016-01-09T09:29:28Z</time>
      </trkpt>
      <trkpt lat="47.30472" lon="0.12507">
        <ele>83.77</ele>
        <time>2016-01-09T09:29:34Z</time>
      </trkpt>
      <trkpt lat="47.30473" lon="0.12507">
        <ele>84.25</ele>
        <time>2016-01-09T09:29:35Z</time>
      </trkpt>
      <trkpt lat="47.30476" lon="0.12507">
        <ele>85.69</ele>
        <time>2016-01-09T09:29:41Z</time>
      </trkpt>
      <trkpt lat="47.30477" lon="0.12506">
        <ele>86.18</ele>
        <time>2016-01-09T09:29:53Z</time>
      </trkpt>
      <trkpt lat="47.30484" lon="0.12507">
        <ele>84.73</ele>
        <time>2016-01-09T09:30:02Z</time>
      </trkpt>
      <trkpt lat="47.30489" lon="0.12505">
        <ele>84.25</ele>
        <time>2016-01-09T09:30:07Z</time>
      </trkpt>
      <trkpt lat="47.30494" lon="0.12504">
        <ele>84.73</ele>
        <time>2016-01-09T09:30:13Z</time>
      </trkpt>
      <trkpt lat="47.30497" lon="0.12501">
        <ele>85.21</ele>
        <time>2016-01-09T09:30:19Z</time>
      </trkpt>
      <trkpt lat="47.30504" lon="0.12499">
        <ele>85.69</ele>
        <time>2016-01-09T09:30:23Z</time>
      </trkpt>
      <trkpt lat="47.30509" lon="0.12496">
        <ele>85.69</ele>
        <time>2016-01-09T09:30:28Z</time>
      </trkpt>
      <trkpt lat="47.30517" lon="0.12493">
        <ele>84.25</ele>
        <time>2016-01-09T09:30:34Z</time>
      </trkpt>
      <trkpt lat="47.30525" lon="0.1249">
        <ele>84.25</ele>
        <time>2016-01-09T09:30:39Z</time>
      </trkpt>
      <trkpt lat="47.30534" lon="0.12485">
        <ele>85.69</ele>
        <time>2016-01-09T09:30:46Z</time>
      </trkpt>
      <trkpt lat="47.30542" lon="0.12475">
        <ele>89.06</ele>
        <time>2016-01-09T09:30:52Z</time>
      </trkpt>
      <trkpt lat="47.30545" lon="0.12472">
        <ele>90.02</ele>
        <time>2016-01-09T09:30:54Z</time>
      </trkpt>
      <trkpt lat="47.30552" lon="0.12456">
        <ele>90.5</ele>
        <time>2016-01-09T09:31:01Z</time>
      </trkpt>
      <trkpt lat="47.30557" lon="0.12448">
        <ele>88.58</ele>
        <time>2016-01-09T09:31:06Z</time>
      </trkpt>
      <trkpt lat="47.3057" lon="0.12446">
        <ele>90.5</ele>
        <time>2016-01-09T09:31:13Z</time>
      </trkpt>
      <trkpt lat="47.30574" lon="0.12445">
        <ele>90.98</ele>
        <time>2016-01-09T09:31:16Z</time>
      </trkpt>
      <trkpt lat="47.30579" lon="0.12439">
        <ele>92.9</ele>
        <time>2016-01-09T09:31:20Z</time>
      </trkpt>
      <trkpt lat="47.30585" lon="0.12426">
        <ele>93.87</ele>
        <time>2016-01-09T09:31:25Z</time>
      </trkpt>
      <trkpt lat="47.30587" lon="0.12418">
        <ele>94.83</ele>
        <time>2016-01-09T09:31:28Z</time>
      </trkpt>
      <trkpt lat="47.30587" lon="0.12405">
        <ele>94.83</ele>
        <time>2016-01-09T09:31:33Z</time>
      </trkpt>
      <trkpt lat="47.3059" lon="0.12395">
        <ele>94.35</ele>
        <time>2016-01-09T09:31:37Z</time>
      </trkpt>
      <trkpt lat="47.30591" lon="0.12389">
        <ele>94.83</ele>
        <time>2016-01-09T09:31:39Z</time>
      </trkpt>
      <trkpt lat="47.30593" lon="0.12367">
        <ele>91.94</ele>
        <time>2016-01-09T09:31:47Z</time>
      </trkpt>
      <trkpt lat="47.30594" lon="0.12361">
        <ele>91.94</ele>
        <time>2016-01-09T09:31:49Z</time>
      </trkpt>
      <trkpt lat="47.30595" lon="0.12355">
        <ele>92.42</ele>
        <time>2016-01-09T09:31:51Z</time>
      </trkpt>
      <trkpt lat="47.30596" lon="0.12341">
        <ele>95.79</ele>
        <time>2016-01-09T09:31:59Z</time>
      </trkpt>
      <trkpt lat="47.30607" lon="0.12326">
        <ele>98.67</ele>
        <time>2016-01-09T09:32:08Z</time>
      </trkpt>
      <trkpt lat="47.30608" lon="0.12325">
        <ele>99.15</ele>
        <time>2016-01-09T09:32:09Z</time>
      </trkpt>
      <trkpt lat="47.30619" lon="0.12318">
        <ele>101.08</ele>
        <time>2016-01-09T09:32:16Z</time>
      </trkpt>
      <trkpt lat="47.30629" lon="0.12313">
        <ele>102.04</ele>
        <time>2016-01-09T09:32:20Z</time>
      </trkpt>
      <trkpt lat="47.30637" lon="0.1231">
        <ele>103.96</ele>
        <time>2016-01-09T09:32:23Z</time>
      </trkpt>
      <trkpt lat="47.30661" lon="0.12295">
        <ele>106.36</ele>
        <time>2016-01-09T09:32:31Z</time>
      </trkpt>
      <trkpt lat="47.30665" lon="0.12293">
        <ele>106.84</ele>
        <time>2016-01-09T09:32:32Z</time>
      </trkpt>
      <trkpt lat="47.30688" lon="0.12279">
        <ele>107.81</ele>
        <time>2016-01-09T09:32:38Z</time>
      </trkpt>
      <trkpt lat="47.30709" lon="0.12266">
        <ele>105.88</ele>
        <time>2016-01-09T09:32:44Z</time>
      </trkpt>
      <trkpt lat="47.30711" lon="0.12265">
        <ele>105.88</ele>
        <time>2016-01-09T09:32:45Z</time>
      </trkpt>
      <trkpt lat="47.30732" lon="0.12247">
        <ele>106.36</ele>
        <time>2016-01-09T09:32:52Z</time>
      </trkpt>
      <trkpt lat="47.30751" lon="0.12231">
        <ele>105.88</ele>
        <time>2016-01-09T09:32:57Z</time>
      </trkpt>
      <trkpt lat="47.30754" lon="0.12227">
        <ele>105.88</ele>
        <time>2016-01-09T09:32:58Z</time>
      </trkpt>
      <trkpt lat="47.30758" lon="0.12224">
        <ele>104.92</ele>
        <time>2016-01-09T09:32:59Z</time>
      </trkpt>
      <trkpt lat="47.30762" lon="0.1222">
        <ele>104.92</ele>
        <time>2016-01-09T09:33:00Z</time>
      </trkpt>
      <trkpt lat="47.30767" lon="0.12216">
        <ele>104.44</ele>
        <time>2016-01-09T09:33:01Z</time>
      </trkpt>
      <trkpt lat="47.30771" lon="0.12214">
        <ele>103.96</ele>
        <time>2016-01-09T09:33:02Z</time>
      </trkpt>
      <trkpt lat="47.30776" lon="0.12211">
        <ele>103</ele>
        <time>2016-01-09T09:33:03Z</time>
      </trkpt>
      <trkpt lat="47.30781" lon="0.12208">
        <ele>103</ele>
        <time>2016-01-09T09:33:04Z</time>
      </trkpt>
      <trkpt lat="47.30784" lon="0.12205">
        <ele>102.52</ele>
        <time>2016-01-09T09:33:05Z</time>
      </trkpt>
      <trkpt lat="47.30787" lon="0.12202">
        <ele>102.04</ele>
        <time>2016-01-09T09:33:06Z</time>
      </trkpt>
      <trkpt lat="47.30789" lon="0.12199">
        <ele>102.52</ele>
        <time>2016-01-09T09:33:07Z</time>
      </trkpt>
      <trkpt lat="47.30813" lon="0.12174">
        <ele>104.44</ele>
        <time>2016-01-09T09:33:14Z</time>
      </trkpt>
      <trkpt lat="47.30829" lon="0.12159">
        <ele>106.36</ele>
        <time>2016-01-09T09:33:20Z</time>
      </trkpt>
      <trkpt lat="47.30857" lon="0.1214">
        <ele>107.81</ele>
        <time>2016-01-09T09:33:24Z</time>
      </trkpt>
      <trkpt lat="47.30864" lon="0.12136">
        <ele>108.29</ele>
        <time>2016-01-09T09:33:25Z</time>
      </trkpt>
      <trkpt lat="47.30906" lon="0.12112">
        <ele>110.21</ele>
        <time>2016-01-09T09:33:32Z</time>
      </trkpt>
      <trkpt lat="47.30925" lon="0.12099">
        <ele>110.21</ele>
        <time>2016-01-09T09:33:36Z</time>
      </trkpt>
      <trkpt lat="47.30929" lon="0.12094">
        <ele>110.21</ele>
        <time>2016-01-09T09:33:37Z</time>
      </trkpt>
      <trkpt lat="47.30932" lon="0.12089">
        <ele>110.21</ele>
        <time>2016-01-09T09:33:38Z</time>
      </trkpt>
      <trkpt lat="47.30949" lon="0.12063">
        <ele>110.21</ele>
        <time>2016-01-09T09:33:42Z</time>
      </trkpt>
      <trkpt lat="47.30953" lon="0.12057">
        <ele>110.21</ele>
        <time>2016-01-09T09:33:43Z</time>
      </trkpt>
      <trkpt lat="47.30961" lon="0.12044">
        <ele>109.73</ele>
        <time>2016-01-09T09:33:45Z</time>
      </trkpt>
      <trkpt lat="47.30965" lon="0.12038">
        <ele>109.73</ele>
        <time>2016-01-09T09:33:46Z</time>
      </trkpt>
      <trkpt lat="47.30987" lon="0.11999">
        <ele>110.21</ele>
        <time>2016-01-09T09:33:52Z</time>
      </trkpt>
      <trkpt lat="47.30995" lon="0.11988">
        <ele>110.21</ele>
        <time>2016-01-09T09:33:54Z</time>
      </trkpt>
      <trkpt lat="47.30999" lon="0.11984">
        <ele>110.21</ele>
        <time>2016-01-09T09:33:55Z</time>
      </trkpt>
      <trkpt lat="47.31004" lon="0.1198">
        <ele>110.21</ele>
        <time>2016-01-09T09:33:56Z</time>
      </trkpt>
      <trkpt lat="47.31009" lon="0.11977">
        <ele>110.21</ele>
        <time>2016-01-09T09:33:57Z</time>
      </trkpt>
      <trkpt lat="47.31013" lon="0.11975">
        <ele>110.21</ele>
        <time>2016-01-09T09:33:58Z</time>
      </trkpt>
      <trkpt lat="47.31018" lon="0.11974">
        <ele>110.21</ele>
        <time>2016-01-09T09:33:59Z</time>
      </trkpt>
      <trkpt lat="47.31024" lon="0.11973">
        <ele>110.69</ele>
        <time>2016-01-09T09:34:00Z</time>
      </trkpt>
      <trkpt lat="47.31029" lon="0.11972">
        <ele>111.17</ele>
        <time>2016-01-09T09:34:01Z</time>
      </trkpt>
      <trkpt lat="47.31034" lon="0.11971">
        <ele>112.13</ele>
        <time>2016-01-09T09:34:02Z</time>
      </trkpt>
      <trkpt lat="47.3105" lon="0.11968">
        <ele>112.61</ele>
        <time>2016-01-09T09:34:07Z</time>
      </trkpt>
      <trkpt lat="47.31059" lon="0.11962">
        <ele>110.21</ele>
        <time>2016-01-09T09:34:12Z</time>
      </trkpt>
      <trkpt lat="47.31063" lon="0.11961">
        <ele>115.5</ele>
        <time>2016-01-09T09:34:26Z</time>
      </trkpt>
      <trkpt lat="47.31063" lon="0.11963">
        <ele>115.5</ele>
        <time>2016-01-09T09:34:27Z</time>
      </trkpt>
      <trkpt lat="47.31062" lon="0.11965">
        <ele>115.5</ele>
        <time>2016-01-09T09:34:28Z</time>
      </trkpt>
      <trkpt lat="47.31061" lon="0.11967">
        <ele>115.01</ele>
        <time>2016-01-09T09:34:29Z</time>
      </trkpt>
      <trkpt lat="47.31062" lon="0.11969">
        <ele>115.01</ele>
        <time>2016-01-09T09:34:30Z</time>
      </trkpt>
      <trkpt lat="47.31063" lon="0.1197">
        <ele>115.01</ele>
        <time>2016-01-09T09:34:31Z</time>
      </trkpt>
      <trkpt lat="47.31064" lon="0.11972">
        <ele>114.53</ele>
        <time>2016-01-09T09:34:32Z</time>
      </trkpt>
      <trkpt lat="47.31066" lon="0.11974">
        <ele>114.05</ele>
        <time>2016-01-09T09:34:33Z</time>
      </trkpt>
      <trkpt lat="47.31068" lon="0.11976">
        <ele>114.05</ele>
        <time>2016-01-09T09:34:34Z</time>
      </trkpt>
      <trkpt lat="47.3107" lon="0.11978">
        <ele>113.57</ele>
        <time>2016-01-09T09:34:35Z</time>
      </trkpt>
      <trkpt lat="47.31073" lon="0.11981">
        <ele>113.57</ele>
        <time>2016-01-09T09:34:36Z</time>
      </trkpt>
      <trkpt lat="47.31083" lon="0.11989">
        <ele>112.61</ele>
        <time>2016-01-09T09:34:39Z</time>
      </trkpt>
      <trkpt lat="47.31091" lon="0.11995">
        <ele>111.65</ele>
        <time>2016-01-09T09:34:41Z</time>
      </trkpt>
      <trkpt lat="47.31095" lon="0.11998">
        <ele>111.17</ele>
        <time>2016-01-09T09:34:42Z</time>
      </trkpt>
      <trkpt lat="47.31104" lon="0.1201">
        <ele>110.69</ele>
        <time>2016-01-09T09:34:45Z</time>
      </trkpt>
      <trkpt lat="47.31108" lon="0.12014">
        <ele>110.69</ele>
        <time>2016-01-09T09:34:46Z</time>
      </trkpt>
      <trkpt lat="47.31116" lon="0.12023">
        <ele>110.21</ele>
        <time>2016-01-09T09:34:48Z</time>
      </trkpt>
      <trkpt lat="47.31136" lon="0.1204">
        <ele>108.77</ele>
        <time>2016-01-09T09:34:52Z</time>
      </trkpt>
      <trkpt lat="47.3114" lon="0.12044">
        <ele>108.29</ele>
        <time>2016-01-09T09:34:53Z</time>
      </trkpt>
      <trkpt lat="47.31185" lon="0.12084">
        <ele>107.81</ele>
        <time>2016-01-09T09:35:02Z</time>
      </trkpt>
      <trkpt lat="47.31196" lon="0.12093">
        <ele>108.29</ele>
        <time>2016-01-09T09:35:04Z</time>
      </trkpt>
      <trkpt lat="47.31227" lon="0.12121">
        <ele>107.81</ele>
        <time>2016-01-09T09:35:10Z</time>
      </trkpt>
      <trkpt lat="47.3123" lon="0.12127">
        <ele>107.81</ele>
        <time>2016-01-09T09:35:11Z</time>
      </trkpt>
      <trkpt lat="47.31232" lon="0.12132">
        <ele>107.81</ele>
        <time>2016-01-09T09:35:12Z</time>
      </trkpt>
      <trkpt lat="47.31236" lon="0.12136">
        <ele>107.32</ele>
        <time>2016-01-09T09:35:13Z</time>
      </trkpt>
      <trkpt lat="47.31241" lon="0.12142">
        <ele>107.32</ele>
        <time>2016-01-09T09:35:14Z</time>
      </trkpt>
      <trkpt lat="47.31246" lon="0.12147">
        <ele>106.84</ele>
        <time>2016-01-09T09:35:15Z</time>
      </trkpt>
      <trkpt lat="47.31251" lon="0.12152">
        <ele>106.84</ele>
        <time>2016-01-09T09:35:16Z</time>
      </trkpt>
      <trkpt lat="47.31261" lon="0.1216">
        <ele>106.84</ele>
        <time>2016-01-09T09:35:18Z</time>
      </trkpt>
      <trkpt lat="47.31288" lon="0.12177">
        <ele>105.88</ele>
        <time>2016-01-09T09:35:23Z</time>
      </trkpt>
      <trkpt lat="47.31298" lon="0.12183">
        <ele>105.88</ele>
        <time>2016-01-09T09:35:25Z</time>
      </trkpt>
      <trkpt lat="47.31303" lon="0.12185">
        <ele>105.4</ele>
        <time>2016-01-09T09:35:26Z</time>
      </trkpt>
      <trkpt lat="47.31335" lon="0.12204">
        <ele>105.4</ele>
        <time>2016-01-09T09:35:32Z</time>
      </trkpt>
      <trkpt lat="47.31339" lon="0.12206">
        <ele>104.92</ele>
        <time>2016-01-09T09:35:33Z</time>
      </trkpt>
      <trkpt lat="47.31343" lon="0.12208">
        <ele>104.92</ele>
        <time>2016-01-09T09:35:34Z</time>
      </trkpt>
      <trkpt lat="47.31347" lon="0.1221">
        <ele>104.92</ele>
        <time>2016-01-09T09:35:35Z</time>
      </trkpt>
      <trkpt lat="47.3135" lon="0.12213">
        <ele>104.92</ele>
        <time>2016-01-09T09:35:36Z</time>
      </trkpt>
      <trkpt lat="47.31354" lon="0.12215">
        <ele>104.92</ele>
        <time>2016-01-09T09:35:37Z</time>
      </trkpt>
      <trkpt lat="47.31373" lon="0.12227">
        <ele>104.44</ele>
        <time>2016-01-09T09:35:42Z</time>
      </trkpt>
      <trkpt lat="47.31376" lon="0.12226">
        <ele>104.44</ele>
        <time>2016-01-09T09:35:43Z</time>
      </trkpt>
      <trkpt lat="47.3138" lon="0.12223">
        <ele>104.44</ele>
        <time>2016-01-09T09:35:44Z</time>
      </trkpt>
      <trkpt lat="47.31384" lon="0.12218">
        <ele>103.96</ele>
        <time>2016-01-09T09:35:45Z</time>
      </trkpt>
      <trkpt lat="47.31388" lon="0.12213">
        <ele>103.48</ele>
        <time>2016-01-09T09:35:46Z</time>
      </trkpt>
      <trkpt lat="47.31393" lon="0.12193">
        <ele>103.48</ele>
        <time>2016-01-09T09:35:50Z</time>
      </trkpt>
      <trkpt lat="47.31395" lon="0.12171">
        <ele>104.92</ele>
        <time>2016-01-09T09:35:57Z</time>
      </trkpt>
      <trkpt lat="47.31386" lon="0.12148">
        <ele>103.96</ele>
        <time>2016-01-09T09:36:04Z</time>
      </trkpt>
      <trkpt lat="47.31367" lon="0.12124">
        <ele>101.08</ele>
        <time>2016-01-09T09:36:10Z</time>
      </trkpt>
      <trkpt lat="47.31349" lon="0.12104">
        <ele>101.56</ele>
        <time>2016-01-09T09:36:15Z</time>
      </trkpt>
      <trkpt lat="47.31339" lon="0.12084">
        <ele>101.08</ele>
        <time>2016-01-09T09:36:19Z</time>
      </trkpt>
      <trkpt lat="47.31339" lon="0.1208">
        <ele>101.08</ele>
        <time>2016-01-09T09:36:20Z</time>
      </trkpt>
      <trkpt lat="47.3134" lon="0.12077">
        <ele>100.6</ele>
        <time>2016-01-09T09:36:21Z</time>
      </trkpt>
      <trkpt lat="47.31341" lon="0.12074">
        <ele>100.11</ele>
        <time>2016-01-09T09:36:22Z</time>
      </trkpt>
      <trkpt lat="47.31343" lon="0.1207">
        <ele>99.63</ele>
        <time>2016-01-09T09:36:23Z</time>
      </trkpt>
      <trkpt lat="47.31343" lon="0.12066">
        <ele>98.67</ele>
        <time>2016-01-09T09:36:24Z</time>
      </trkpt>
      <trkpt lat="47.3135" lon="0.12047">
        <ele>94.83</ele>
        <time>2016-01-09T09:36:28Z</time>
      </trkpt>
      <trkpt lat="47.31353" lon="0.12042">
        <ele>93.87</ele>
        <time>2016-01-09T09:36:29Z</time>
      </trkpt>
      <trkpt lat="47.31354" lon="0.12038">
        <ele>92.42</ele>
        <time>2016-01-09T09:36:30Z</time>
      </trkpt>
      <trkpt lat="47.31357" lon="0.12033">
        <ele>90.98</ele>
        <time>2016-01-09T09:36:31Z</time>
      </trkpt>
      <trkpt lat="47.3136" lon="0.12028">
        <ele>90.02</ele>
        <time>2016-01-09T09:36:32Z</time>
      </trkpt>
      <trkpt lat="47.31363" lon="0.12022">
        <ele>89.06</ele>
        <time>2016-01-09T09:36:33Z</time>
      </trkpt>
      <trkpt lat="47.31367" lon="0.12018">
        <ele>88.1</ele>
        <time>2016-01-09T09:36:34Z</time>
      </trkpt>
      <trkpt lat="47.3137" lon="0.12013">
        <ele>87.14</ele>
        <time>2016-01-09T09:36:35Z</time>
      </trkpt>
      <trkpt lat="47.31381" lon="0.11985">
        <ele>84.73</ele>
        <time>2016-01-09T09:36:40Z</time>
      </trkpt>
      <trkpt lat="47.31382" lon="0.11981">
        <ele>84.73</ele>
        <time>2016-01-09T09:36:41Z</time>
      </trkpt>
      <trkpt lat="47.31384" lon="0.11977">
        <ele>85.21</ele>
        <time>2016-01-09T09:36:42Z</time>
      </trkpt>
      <trkpt lat="47.31396" lon="0.11946">
        <ele>87.62</ele>
        <time>2016-01-09T09:36:48Z</time>
      </trkpt>
      <trkpt lat="47.3141" lon="0.11915">
        <ele>90.5</ele>
        <time>2016-01-09T09:36:53Z</time>
      </trkpt>
      <trkpt lat="47.31423" lon="0.11887">
        <ele>92.9</ele>
        <time>2016-01-09T09:36:58Z</time>
      </trkpt>
      <trkpt lat="47.31427" lon="0.11884">
        <ele>93.87</ele>
        <time>2016-01-09T09:36:59Z</time>
      </trkpt>
      <trkpt lat="47.31432" lon="0.11879">
        <ele>94.35</ele>
        <time>2016-01-09T09:37:00Z</time>
      </trkpt>
      <trkpt lat="47.31436" lon="0.11874">
        <ele>95.31</ele>
        <time>2016-01-09T09:37:01Z</time>
      </trkpt>
      <trkpt lat="47.31438" lon="0.1187">
        <ele>95.31</ele>
        <time>2016-01-09T09:37:02Z</time>
      </trkpt>
      <trkpt lat="47.31442" lon="0.11864">
        <ele>95.31</ele>
        <time>2016-01-09T09:37:03Z</time>
      </trkpt>
      <trkpt lat="47.31446" lon="0.11858">
        <ele>95.79</ele>
        <time>2016-01-09T09:37:04Z</time>
      </trkpt>
      <trkpt lat="47.31448" lon="0.11853">
        <ele>95.31</ele>
        <time>2016-01-09T09:37:05Z</time>
      </trkpt>
      <trkpt lat="47.31452" lon="0.11847">
        <ele>95.79</ele>
        <time>2016-01-09T09:37:06Z</time>
      </trkpt>
      <trkpt lat="47.31473" lon="0.11821">
        <ele>96.75</ele>
        <time>2016-01-09T09:37:10Z</time>
      </trkpt>
      <trkpt lat="47.31474" lon="0.11792">
        <ele>96.75</ele>
        <time>2016-01-09T09:37:15Z</time>
      </trkpt>
      <trkpt lat="47.3147" lon="0.1178">
        <ele>96.27</ele>
        <time>2016-01-09T09:37:18Z</time>
      </trkpt>
      <trkpt lat="47.3146" lon="0.11764">
        <ele>96.75</ele>
        <time>2016-01-09T09:37:22Z</time>
      </trkpt>
      <trkpt lat="47.31446" lon="0.11744">
        <ele>96.27</ele>
        <time>2016-01-09T09:37:26Z</time>
      </trkpt>
      <trkpt lat="47.31439" lon="0.11736">
        <ele>95.31</ele>
        <time>2016-01-09T09:37:28Z</time>
      </trkpt>
      <trkpt lat="47.31442" lon="0.1172">
        <ele>93.87</ele>
        <time>2016-01-09T09:37:33Z</time>
      </trkpt>
      <trkpt lat="47.31445" lon="0.11717">
        <ele>93.39</ele>
        <time>2016-01-09T09:37:34Z</time>
      </trkpt>
      <trkpt lat="47.31463" lon="0.11704">
        <ele>91.46</ele>
        <time>2016-01-09T09:37:39Z</time>
      </trkpt>
      <trkpt lat="47.31478" lon="0.11696">
        <ele>90.02</ele>
        <time>2016-01-09T09:37:43Z</time>
      </trkpt>
      <trkpt lat="47.3149" lon="0.11685">
        <ele>87.14</ele>
        <time>2016-01-09T09:37:48Z</time>
      </trkpt>
      <trkpt lat="47.31503" lon="0.11674">
        <ele>84.73</ele>
        <time>2016-01-09T09:37:53Z</time>
      </trkpt>
      <trkpt lat="47.31515" lon="0.11664">
        <ele>84.73</ele>
        <time>2016-01-09T09:37:58Z</time>
      </trkpt>
      <trkpt lat="47.31529" lon="0.11663">
        <ele>86.18</ele>
        <time>2016-01-09T09:38:04Z</time>
      </trkpt>
      <trkpt lat="47.31542" lon="0.11669">
        <ele>88.58</ele>
        <time>2016-01-09T09:38:12Z</time>
      </trkpt>
      <trkpt lat="47.31544" lon="0.1167">
        <ele>90.02</ele>
        <time>2016-01-09T09:38:15Z</time>
      </trkpt>
      <trkpt lat="47.31553" lon="0.11677">
        <ele>92.42</ele>
        <time>2016-01-09T09:38:21Z</time>
      </trkpt>
      <trkpt lat="47.31558" lon="0.11683">
        <ele>92.9</ele>
        <time>2016-01-09T09:38:26Z</time>
      </trkpt>
      <trkpt lat="47.31563" lon="0.11691">
        <ele>95.31</ele>
        <time>2016-01-09T09:38:32Z</time>
      </trkpt>
      <trkpt lat="47.31568" lon="0.11699">
        <ele>99.15</ele>
        <time>2016-01-09T09:38:38Z</time>
      </trkpt>
      <trkpt lat="47.31577" lon="0.11709">
        <ele>100.6</ele>
        <time>2016-01-09T09:38:44Z</time>
      </trkpt>
      <trkpt lat="47.31583" lon="0.11717">
        <ele>102.04</ele>
        <time>2016-01-09T09:38:49Z</time>
      </trkpt>
      <trkpt lat="47.31588" lon="0.11726">
        <ele>102.52</ele>
        <time>2016-01-09T09:38:55Z</time>
      </trkpt>
      <trkpt lat="47.31595" lon="0.11739">
        <ele>103</ele>
        <time>2016-01-09T09:38:59Z</time>
      </trkpt>
      <trkpt lat="47.31604" lon="0.11748">
        <ele>102.52</ele>
        <time>2016-01-09T09:39:07Z</time>
      </trkpt>
      <trkpt lat="47.31604" lon="0.11748">
        <ele>102.52</ele>
        <time>2016-01-09T09:39:08Z</time>
      </trkpt>
      <trkpt lat="47.31607" lon="0.11739">
        <ele>100.6</ele>
        <time>2016-01-09T09:39:11Z</time>
      </trkpt>
      <trkpt lat="47.31612" lon="0.11729">
        <ele>98.67</ele>
        <time>2016-01-09T09:39:14Z</time>
      </trkpt>
      <trkpt lat="47.31618" lon="0.11711">
        <ele>94.35</ele>
        <time>2016-01-09T09:39:20Z</time>
      </trkpt>
      <trkpt lat="47.31619" lon="0.11708">
        <ele>93.87</ele>
        <time>2016-01-09T09:39:21Z</time>
      </trkpt>
      <trkpt lat="47.3162" lon="0.11696">
        <ele>90.5</ele>
        <time>2016-01-09T09:39:26Z</time>
      </trkpt>
      <trkpt lat="47.31636" lon="0.11684">
        <ele>84.25</ele>
        <time>2016-01-09T09:39:32Z</time>
      </trkpt>
      <trkpt lat="47.31644" lon="0.11679">
        <ele>79.93</ele>
        <time>2016-01-09T09:39:35Z</time>
      </trkpt>
      <trkpt lat="47.31663" lon="0.11656">
        <ele>73.2</ele>
        <time>2016-01-09T09:39:41Z</time>
      </trkpt>
      <trkpt lat="47.31665" lon="0.11653">
        <ele>72.24</ele>
        <time>2016-01-09T09:39:42Z</time>
      </trkpt>
      <trkpt lat="47.3168" lon="0.11656">
        <ele>67.43</ele>
        <time>2016-01-09T09:39:47Z</time>
      </trkpt>
      <trkpt lat="47.31698" lon="0.1167">
        <ele>63.58</ele>
        <time>2016-01-09T09:39:52Z</time>
      </trkpt>
      <trkpt lat="47.31705" lon="0.11678">
        <ele>60.7</ele>
        <time>2016-01-09T09:39:55Z</time>
      </trkpt>
      <trkpt lat="47.31714" lon="0.1169">
        <ele>62.62</ele>
        <time>2016-01-09T09:40:01Z</time>
      </trkpt>
      <trkpt lat="47.31719" lon="0.11699">
        <ele>64.07</ele>
        <time>2016-01-09T09:40:04Z</time>
      </trkpt>
      <trkpt lat="47.31731" lon="0.11715">
        <ele>65.03</ele>
        <time>2016-01-09T09:40:10Z</time>
      </trkpt>
      <trkpt lat="47.31734" lon="0.11723">
        <ele>65.51</ele>
        <time>2016-01-09T09:40:12Z</time>
      </trkpt>
      <trkpt lat="47.31741" lon="0.11739">
        <ele>67.43</ele>
        <time>2016-01-09T09:40:17Z</time>
      </trkpt>
      <trkpt lat="47.31751" lon="0.11753">
        <ele>70.31</ele>
        <time>2016-01-09T09:40:23Z</time>
      </trkpt>
      <trkpt lat="47.31755" lon="0.11759">
        <ele>71.27</ele>
        <time>2016-01-09T09:40:25Z</time>
      </trkpt>
      <trkpt lat="47.31769" lon="0.11774">
        <ele>74.16</ele>
        <time>2016-01-09T09:40:31Z</time>
      </trkpt>
      <trkpt lat="47.3178" lon="0.11791">
        <ele>75.6</ele>
        <time>2016-01-09T09:40:36Z</time>
      </trkpt>
      <trkpt lat="47.31791" lon="0.11812">
        <ele>79.93</ele>
        <time>2016-01-09T09:40:44Z</time>
      </trkpt>
      <trkpt lat="47.318" lon="0.11825">
        <ele>83.29</ele>
        <time>2016-01-09T09:40:50Z</time>
      </trkpt>
      <trkpt lat="47.31801" lon="0.11826">
        <ele>83.29</ele>
        <time>2016-01-09T09:40:51Z</time>
      </trkpt>
      <trkpt lat="47.31809" lon="0.11833">
        <ele>86.18</ele>
        <time>2016-01-09T09:40:58Z</time>
      </trkpt>
      <trkpt lat="47.31815" lon="0.11837">
        <ele>89.06</ele>
        <time>2016-01-09T09:41:04Z</time>
      </trkpt>
      <trkpt lat="47.3182" lon="0.11841">
        <ele>90.98</ele>
        <time>2016-01-09T09:41:10Z</time>
      </trkpt>
      <trkpt lat="47.3183" lon="0.11848">
        <ele>92.9</ele>
        <time>2016-01-09T09:41:19Z</time>
      </trkpt>
      <trkpt lat="47.31839" lon="0.11854">
        <ele>94.83</ele>
        <time>2016-01-09T09:41:27Z</time>
      </trkpt>
      <trkpt lat="47.31847" lon="0.11859">
        <ele>96.27</ele>
        <time>2016-01-09T09:41:34Z</time>
      </trkpt>
      <trkpt lat="47.31857" lon="0.11863">
        <ele>97.71</ele>
        <time>2016-01-09T09:41:41Z</time>
      </trkpt>
      <trkpt lat="47.31859" lon="0.11864">
        <ele>97.71</ele>
        <time>2016-01-09T09:41:48Z</time>
      </trkpt>
      <trkpt lat="47.31859" lon="0.11865">
        <ele>97.23</ele>
        <time>2016-01-09T09:42:05Z</time>
      </trkpt>
      <trkpt lat="47.31858" lon="0.11866">
        <ele>96.27</ele>
        <time>2016-01-09T09:42:22Z</time>
      </trkpt>
      <trkpt lat="47.31858" lon="0.11867">
        <ele>96.27</ele>
        <time>2016-01-09T09:42:28Z</time>
      </trkpt>
      <trkpt lat="47.31858" lon="0.11868">
        <ele>96.27</ele>
        <time>2016-01-09T09:42:29Z</time>
      </trkpt>
      <trkpt lat="47.31858" lon="0.1188">
        <ele>97.71</ele>
        <time>2016-01-09T09:42:35Z</time>
      </trkpt>
      <trkpt lat="47.31856" lon="0.11882">
        <ele>98.67</ele>
        <time>2016-01-09T09:42:37Z</time>
      </trkpt>
      <trkpt lat="47.31849" lon="0.11891">
        <ele>97.71</ele>
        <time>2016-01-09T09:42:42Z</time>
      </trkpt>
      <trkpt lat="47.31844" lon="0.11907">
        <ele>99.63</ele>
        <time>2016-01-09T09:42:48Z</time>
      </trkpt>
      <trkpt lat="47.31837" lon="0.11918">
        <ele>100.6</ele>
        <time>2016-01-09T09:42:53Z</time>
      </trkpt>
      <trkpt lat="47.31835" lon="0.11921">
        <ele>101.08</ele>
        <time>2016-01-09T09:42:54Z</time>
      </trkpt>
      <trkpt lat="47.31834" lon="0.11925">
        <ele>102.04</ele>
        <time>2016-01-09T09:42:56Z</time>
      </trkpt>
      <trkpt lat="47.31827" lon="0.11935">
        <ele>103</ele>
        <time>2016-01-09T09:43:00Z</time>
      </trkpt>
      <trkpt lat="47.31819" lon="0.11953">
        <ele>104.44</ele>
        <time>2016-01-09T09:43:07Z</time>
      </trkpt>
      <trkpt lat="47.31817" lon="0.11956">
        <ele>105.4</ele>
        <time>2016-01-09T09:43:08Z</time>
      </trkpt>
      <trkpt lat="47.31809" lon="0.11974">
        <ele>107.81</ele>
        <time>2016-01-09T09:43:14Z</time>
      </trkpt>
      <trkpt lat="47.31804" lon="0.11984">
        <ele>107.32</ele>
        <time>2016-01-09T09:43:18Z</time>
      </trkpt>
      <trkpt lat="47.31798" lon="0.12001">
        <ele>106.84</ele>
        <time>2016-01-09T09:43:24Z</time>
      </trkpt>
      <trkpt lat="47.31792" lon="0.12006">
        <ele>107.32</ele>
        <time>2016-01-09T09:43:27Z</time>
      </trkpt>
      <trkpt lat="47.31788" lon="0.12009">
        <ele>107.81</ele>
        <time>2016-01-09T09:43:29Z</time>
      </trkpt>
      <trkpt lat="47.31785" lon="0.12023">
        <ele>107.32</ele>
        <time>2016-01-09T09:43:35Z</time>
      </trkpt>
      <trkpt lat="47.31789" lon="0.12037">
        <ele>105.4</ele>
        <time>2016-01-09T09:43:40Z</time>
      </trkpt>
      <trkpt lat="47.31796" lon="0.12062">
        <ele>101.08</ele>
        <time>2016-01-09T09:43:50Z</time>
      </trkpt>
      <trkpt lat="47.318" lon="0.12083">
        <ele>97.71</ele>
        <time>2016-01-09T09:43:57Z</time>
      </trkpt>
      <trkpt lat="47.31806" lon="0.1211">
        <ele>96.27</ele>
        <time>2016-01-09T09:44:05Z</time>
      </trkpt>
      <trkpt lat="47.31813" lon="0.1214">
        <ele>98.19</ele>
        <time>2016-01-09T09:44:12Z</time>
      </trkpt>
      <trkpt lat="47.31826" lon="0.1216">
        <ele>100.11</ele>
        <time>2016-01-09T09:44:19Z</time>
      </trkpt>
      <trkpt lat="47.31832" lon="0.12161">
        <ele>101.08</ele>
        <time>2016-01-09T09:44:21Z</time>
      </trkpt>
      <trkpt lat="47.31843" lon="0.12162">
        <ele>102.52</ele>
        <time>2016-01-09T09:44:26Z</time>
      </trkpt>
      <trkpt lat="47.31847" lon="0.12158">
        <ele>102.52</ele>
        <time>2016-01-09T09:44:32Z</time>
      </trkpt>
      <trkpt lat="47.31847" lon="0.12161">
        <ele>104.44</ele>
        <time>2016-01-09T09:44:48Z</time>
      </trkpt>
      <trkpt lat="47.31848" lon="0.12162">
        <ele>104.44</ele>
        <time>2016-01-09T09:45:07Z</time>
      </trkpt>
      <trkpt lat="47.31848" lon="0.12162">
        <ele>104.92</ele>
        <time>2016-01-09T09:45:09Z</time>
      </trkpt>
      <trkpt lat="47.31849" lon="0.12164">
        <ele>104.44</ele>
        <time>2016-01-09T09:45:12Z</time>
      </trkpt>
      <trkpt lat="47.31854" lon="0.12169">
        <ele>104.92</ele>
        <time>2016-01-09T09:45:16Z</time>
      </trkpt>
      <trkpt lat="47.31859" lon="0.12179">
        <ele>104.44</ele>
        <time>2016-01-09T09:45:21Z</time>
      </trkpt>
      <trkpt lat="47.31862" lon="0.12187">
        <ele>104.44</ele>
        <time>2016-01-09T09:45:25Z</time>
      </trkpt>
      <trkpt lat="47.31869" lon="0.12208">
        <ele>103.96</ele>
        <time>2016-01-09T09:45:32Z</time>
      </trkpt>
      <trkpt lat="47.31879" lon="0.12235">
        <ele>103.48</ele>
        <time>2016-01-09T09:45:39Z</time>
      </trkpt>
      <trkpt lat="47.31894" lon="0.1228">
        <ele>103.96</ele>
        <time>2016-01-09T09:45:48Z</time>
      </trkpt>
      <trkpt lat="47.31908" lon="0.12316">
        <ele>104.92</ele>
        <time>2016-01-09T09:45:55Z</time>
      </trkpt>
      <trkpt lat="47.31915" lon="0.12338">
        <ele>105.4</ele>
        <time>2016-01-09T09:45:59Z</time>
      </trkpt>
      <trkpt lat="47.31924" lon="0.12359">
        <ele>106.36</ele>
        <time>2016-01-09T09:46:03Z</time>
      </trkpt>
      <trkpt lat="47.31926" lon="0.12365">
        <ele>106.36</ele>
        <time>2016-01-09T09:46:04Z</time>
      </trkpt>
      <trkpt lat="47.31945" lon="0.12415">
        <ele>106.84</ele>
        <time>2016-01-09T09:46:12Z</time>
      </trkpt>
      <trkpt lat="47.31962" lon="0.12453">
        <ele>105.4</ele>
        <time>2016-01-09T09:46:19Z</time>
      </trkpt>
      <trkpt lat="47.31964" lon="0.12459">
        <ele>105.4</ele>
        <time>2016-01-09T09:46:20Z</time>
      </trkpt>
      <trkpt lat="47.31966" lon="0.12464">
        <ele>105.4</ele>
        <time>2016-01-09T09:46:21Z</time>
      </trkpt>
      <trkpt lat="47.31971" lon="0.12475">
        <ele>104.92</ele>
        <time>2016-01-09T09:46:23Z</time>
      </trkpt>
      <trkpt lat="47.31974" lon="0.1248">
        <ele>104.92</ele>
        <time>2016-01-09T09:46:24Z</time>
      </trkpt>
      <trkpt lat="47.31983" lon="0.1251">
        <ele>103</ele>
        <time>2016-01-09T09:46:30Z</time>
      </trkpt>
      <trkpt lat="47.31992" lon="0.12535">
        <ele>103</ele>
        <time>2016-01-09T09:46:36Z</time>
      </trkpt>
      <trkpt lat="47.31999" lon="0.12552">
        <ele>103</ele>
        <time>2016-01-09T09:46:40Z</time>
      </trkpt>
      <trkpt lat="47.32001" lon="0.12556">
        <ele>103.48</ele>
        <time>2016-01-09T09:46:41Z</time>
      </trkpt>
      <trkpt lat="47.32004" lon="0.12559">
        <ele>103.48</ele>
        <time>2016-01-09T09:46:42Z</time>
      </trkpt>
      <trkpt lat="47.32005" lon="0.12564">
        <ele>103.48</ele>
        <time>2016-01-09T09:46:43Z</time>
      </trkpt>
      <trkpt lat="47.32007" lon="0.12569">
        <ele>103.48</ele>
        <time>2016-01-09T09:46:44Z</time>
      </trkpt>
      <trkpt lat="47.32024" lon="0.12617">
        <ele>102.04</ele>
        <time>2016-01-09T09:46:53Z</time>
      </trkpt>
      <trkpt lat="47.32034" lon="0.12645">
        <ele>102.52</ele>
        <time>2016-01-09T09:46:58Z</time>
      </trkpt>
      <trkpt lat="47.32053" lon="0.12694">
        <ele>102.52</ele>
        <time>2016-01-09T09:47:06Z</time>
      </trkpt>
      <trkpt lat="47.32056" lon="0.12701">
        <ele>103</ele>
        <time>2016-01-09T09:47:07Z</time>
      </trkpt>
      <trkpt lat="47.32074" lon="0.12749">
        <ele>103</ele>
        <time>2016-01-09T09:47:13Z</time>
      </trkpt>
      <trkpt lat="47.32077" lon="0.12756">
        <ele>103</ele>
        <time>2016-01-09T09:47:14Z</time>
      </trkpt>
      <trkpt lat="47.3208" lon="0.12762">
        <ele>102.52</ele>
        <time>2016-01-09T09:47:15Z</time>
      </trkpt>
      <trkpt lat="47.32082" lon="0.12769">
        <ele>102.52</ele>
        <time>2016-01-09T09:47:16Z</time>
      </trkpt>
      <trkpt lat="47.32083" lon="0.12775">
        <ele>102.52</ele>
        <time>2016-01-09T09:47:17Z</time>
      </trkpt>
      <trkpt lat="47.32085" lon="0.12779">
        <ele>102.52</ele>
        <time>2016-01-09T09:47:18Z</time>
      </trkpt>
      <trkpt lat="47.32086" lon="0.12784">
        <ele>102.52</ele>
        <time>2016-01-09T09:47:19Z</time>
      </trkpt>
      <trkpt lat="47.32087" lon="0.12789">
        <ele>102.04</ele>
        <time>2016-01-09T09:47:20Z</time>
      </trkpt>
      <trkpt lat="47.32088" lon="0.12793">
        <ele>102.04</ele>
        <time>2016-01-09T09:47:21Z</time>
      </trkpt>
      <trkpt lat="47.3209" lon="0.12796">
        <ele>102.04</ele>
        <time>2016-01-09T09:47:22Z</time>
      </trkpt>
      <trkpt lat="47.32093" lon="0.12798">
        <ele>102.52</ele>
        <time>2016-01-09T09:47:23Z</time>
      </trkpt>
      <trkpt lat="47.32096" lon="0.12799">
        <ele>102.52</ele>
        <time>2016-01-09T09:47:24Z</time>
      </trkpt>
      <trkpt lat="47.32098" lon="0.128">
        <ele>102.52</ele>
        <time>2016-01-09T09:47:25Z</time>
      </trkpt>
      <trkpt lat="47.32107" lon="0.1281">
        <ele>103</ele>
        <time>2016-01-09T09:47:28Z</time>
      </trkpt>
      <trkpt lat="47.32114" lon="0.12819">
        <ele>103.48</ele>
        <time>2016-01-09T09:47:30Z</time>
      </trkpt>
      <trkpt lat="47.32133" lon="0.12833">
        <ele>103.96</ele>
        <time>2016-01-09T09:47:34Z</time>
      </trkpt>
      <trkpt lat="47.32137" lon="0.12835">
        <ele>103.96</ele>
        <time>2016-01-09T09:47:35Z</time>
      </trkpt>
      <trkpt lat="47.32153" lon="0.12845">
        <ele>104.44</ele>
        <time>2016-01-09T09:47:41Z</time>
      </trkpt>
      <trkpt lat="47.32166" lon="0.12855">
        <ele>107.32</ele>
        <time>2016-01-09T09:47:48Z</time>
      </trkpt>
      <trkpt lat="47.32182" lon="0.12868">
        <ele>113.09</ele>
        <time>2016-01-09T09:47:56Z</time>
      </trkpt>
      <trkpt lat="47.322" lon="0.12878">
        <ele>117.42</ele>
        <time>2016-01-09T09:48:04Z</time>
      </trkpt>
      <trkpt lat="47.32218" lon="0.12889">
        <ele>120.78</ele>
        <time>2016-01-09T09:48:11Z</time>
      </trkpt>
      <trkpt lat="47.32236" lon="0.12902">
        <ele>124.15</ele>
        <time>2016-01-09T09:48:18Z</time>
      </trkpt>
      <trkpt lat="47.32257" lon="0.12916">
        <ele>128.47</ele>
        <time>2016-01-09T09:48:26Z</time>
      </trkpt>
      <trkpt lat="47.32273" lon="0.12927">
        <ele>131.36</ele>
        <time>2016-01-09T09:48:32Z</time>
      </trkpt>
      <trkpt lat="47.3229" lon="0.12941">
        <ele>134.24</ele>
        <time>2016-01-09T09:48:39Z</time>
      </trkpt>
      <trkpt lat="47.32313" lon="0.12961">
        <ele>134.24</ele>
        <time>2016-01-09T09:48:47Z</time>
      </trkpt>
      <trkpt lat="47.32345" lon="0.12979">
        <ele>134.24</ele>
        <time>2016-01-09T09:48:55Z</time>
      </trkpt>
      <trkpt lat="47.3237" lon="0.12996">
        <ele>133.76</ele>
        <time>2016-01-09T09:49:02Z</time>
      </trkpt>
      <trkpt lat="47.32404" lon="0.13017">
        <ele>89.54</ele>
        <time>2015-01-04T10:43:44Z</time>
      </trkpt>
      <trkpt lat="47.32408" lon="0.13008">
        <ele>89.06</ele>
        <time>2015-01-04T10:43:39Z</time>
      </trkpt>
      <trkpt lat="47.32409" lon="0.13003">
        <ele>88.1</ele>
        <time>2015-01-04T10:43:37Z</time>
      </trkpt>
      <trkpt lat="47.32416" lon="0.12982">
        <ele>87.62</ele>
        <time>2015-01-04T10:43:29Z</time>
      </trkpt>
      <trkpt lat="47.32417" lon="0.12979">
        <ele>88.1</ele>
        <time>2015-01-04T10:43:28Z</time>
      </trkpt>
      <trkpt lat="47.32418" lon="0.12976">
        <ele>87.62</ele>
        <time>2015-01-04T10:43:27Z</time>
      </trkpt>
      <trkpt lat="47.32423" lon="0.12959">
        <ele>86.66</ele>
        <time>2015-01-04T10:43:21Z</time>
      </trkpt>
      <trkpt lat="47.32427" lon="0.12944">
        <ele>86.18</ele>
        <time>2015-01-04T10:43:14Z</time>
      </trkpt>
      <trkpt lat="47.32433" lon="0.12922">
        <ele>84.73</ele>
        <time>2015-01-04T10:43:06Z</time>
      </trkpt>
      <trkpt lat="47.32439" lon="0.12906">
        <ele>83.77</ele>
        <time>2015-01-04T10:42:59Z</time>
      </trkpt>
      <trkpt lat="47.32445" lon="0.12888">
        <ele>82.33</ele>
        <time>2015-01-04T10:42:52Z</time>
      </trkpt>
      <trkpt lat="47.32447" lon="0.12883">
        <ele>81.85</ele>
        <time>2015-01-04T10:42:50Z</time>
      </trkpt>
      <trkpt lat="47.32448" lon="0.12881">
        <ele>80.89</ele>
        <time>2015-01-04T10:42:49Z</time>
      </trkpt>
      <trkpt lat="47.32448" lon="0.12879">
        <ele>81.37</ele>
        <time>2015-01-04T10:42:48Z</time>
      </trkpt>
      <trkpt lat="47.3245" lon="0.12877">
        <ele>80.89</ele>
        <time>2015-01-04T10:42:47Z</time>
      </trkpt>
      <trkpt lat="47.32451" lon="0.12875">
        <ele>81.37</ele>
        <time>2015-01-04T10:42:46Z</time>
      </trkpt>
      <trkpt lat="47.32452" lon="0.12872">
        <ele>80.89</ele>
        <time>2015-01-04T10:42:45Z</time>
      </trkpt>
      <trkpt lat="47.32452" lon="0.1287">
        <ele>80.89</ele>
        <time>2015-01-04T10:42:44Z</time>
      </trkpt>
      <trkpt lat="47.32454" lon="0.12867">
        <ele>80.89</ele>
        <time>2015-01-04T10:42:42Z</time>
      </trkpt>
      <trkpt lat="47.32456" lon="0.12861">
        <ele>79.93</ele>
        <time>2015-01-04T10:42:39Z</time>
      </trkpt>
      <trkpt lat="47.32456" lon="0.12859">
        <ele>79.93</ele>
        <time>2015-01-04T10:42:38Z</time>
      </trkpt>
      <trkpt lat="47.3246" lon="0.12843">
        <ele>78.48</ele>
        <time>2015-01-04T10:42:32Z</time>
      </trkpt>
      <trkpt lat="47.32467" lon="0.1282">
        <ele>77.52</ele>
        <time>2015-01-04T10:42:24Z</time>
      </trkpt>
      <trkpt lat="47.32472" lon="0.12804">
        <ele>75.6</ele>
        <time>2015-01-04T10:42:18Z</time>
      </trkpt>
      <trkpt lat="47.32479" lon="0.12786">
        <ele>75.12</ele>
        <time>2015-01-04T10:42:11Z</time>
      </trkpt>
      <trkpt lat="47.32485" lon="0.1277">
        <ele>73.68</ele>
        <time>2015-01-04T10:42:05Z</time>
      </trkpt>
      <trkpt lat="47.3249" lon="0.12752">
        <ele>72.72</ele>
        <time>2015-01-04T10:41:59Z</time>
      </trkpt>
      <trkpt lat="47.3249" lon="0.12749">
        <ele>72.24</ele>
        <time>2015-01-04T10:41:58Z</time>
      </trkpt>
      <trkpt lat="47.32497" lon="0.12733">
        <ele>70.79</ele>
        <time>2015-01-04T10:41:51Z</time>
      </trkpt>
      <trkpt lat="47.32501" lon="0.12721">
        <ele>69.35</ele>
        <time>2015-01-04T10:41:47Z</time>
      </trkpt>
      <trkpt lat="47.32509" lon="0.12696">
        <ele>67.43</ele>
        <time>2015-01-04T10:41:40Z</time>
      </trkpt>
      <trkpt lat="47.32515" lon="0.12679">
        <ele>65.51</ele>
        <time>2015-01-04T10:41:35Z</time>
      </trkpt>
      <trkpt lat="47.32524" lon="0.12656">
        <ele>63.1</ele>
        <time>2015-01-04T10:41:29Z</time>
      </trkpt>
      <trkpt lat="47.32526" lon="0.1265">
        <ele>63.1</ele>
        <time>2015-01-04T10:41:28Z</time>
      </trkpt>
      <trkpt lat="47.32527" lon="0.12644">
        <ele>64.07</ele>
        <time>2015-01-04T10:41:27Z</time>
      </trkpt>
      <trkpt lat="47.3254" lon="0.12601">
        <ele>67.43</ele>
        <time>2015-01-04T10:41:20Z</time>
      </trkpt>
      <trkpt lat="47.32549" lon="0.12569">
        <ele>67.43</ele>
        <time>2015-01-04T10:41:14Z</time>
      </trkpt>
      <trkpt lat="47.32551" lon="0.12563">
        <ele>67.43</ele>
        <time>2015-01-04T10:41:13Z</time>
      </trkpt>
      <trkpt lat="47.32553" lon="0.12558">
        <ele>67.43</ele>
        <time>2015-01-04T10:41:12Z</time>
      </trkpt>
      <trkpt lat="47.32554" lon="0.12552">
        <ele>67.43</ele>
        <time>2015-01-04T10:41:11Z</time>
      </trkpt>
      <trkpt lat="47.32555" lon="0.12547">
        <ele>66.95</ele>
        <time>2015-01-04T10:41:10Z</time>
      </trkpt>
      <trkpt lat="47.32557" lon="0.12541">
        <ele>67.91</ele>
        <time>2015-01-04T10:41:09Z</time>
      </trkpt>
      <trkpt lat="47.32564" lon="0.12521">
        <ele>68.87</ele>
        <time>2015-01-04T10:41:06Z</time>
      </trkpt>
      <trkpt lat="47.32577" lon="0.12484">
        <ele>71.27</ele>
        <time>2015-01-04T10:41:00Z</time>
      </trkpt>
      <trkpt lat="47.32586" lon="0.1246">
        <ele>72.24</ele>
        <time>2015-01-04T10:40:54Z</time>
      </trkpt>
      <trkpt lat="47.32587" lon="0.12457">
        <ele>72.72</ele>
        <time>2015-01-04T10:40:53Z</time>
      </trkpt>
      <trkpt lat="47.32588" lon="0.12454">
        <ele>73.2</ele>
        <time>2015-01-04T10:40:52Z</time>
      </trkpt>
      <trkpt lat="47.32589" lon="0.12451">
        <ele>72.24</ele>
        <time>2015-01-04T10:40:51Z</time>
      </trkpt>
      <trkpt lat="47.32589" lon="0.12449">
        <ele>73.68</ele>
        <time>2015-01-04T10:40:50Z</time>
      </trkpt>
      <trkpt lat="47.3259" lon="0.12439">
        <ele>72.72</ele>
        <time>2015-01-04T10:40:45Z</time>
      </trkpt>
      <trkpt lat="47.32604" lon="0.12426">
        <ele>76.08</ele>
        <time>2015-01-04T10:38:56Z</time>
      </trkpt>
      <trkpt lat="47.32609" lon="0.12425">
        <ele>76.56</ele>
        <time>2015-01-04T10:38:55Z</time>
      </trkpt>
      <trkpt lat="47.32629" lon="0.12422">
        <ele>79.93</ele>
        <time>2015-01-04T10:38:52Z</time>
      </trkpt>
      <trkpt lat="47.32636" lon="0.12421">
        <ele>79.93</ele>
        <time>2015-01-04T10:38:51Z</time>
      </trkpt>
      <trkpt lat="47.32648" lon="0.12419">
        <ele>81.85</ele>
        <time>2015-01-04T10:38:49Z</time>
      </trkpt>
      <trkpt lat="47.32673" lon="0.12415">
        <ele>85.21</ele>
        <time>2015-01-04T10:38:45Z</time>
      </trkpt>
      <trkpt lat="47.32706" lon="0.12412">
        <ele>88.58</ele>
        <time>2015-01-04T10:38:39Z</time>
      </trkpt>
      <trkpt lat="47.32723" lon="0.1241">
        <ele>89.54</ele>
        <time>2015-01-04T10:38:36Z</time>
      </trkpt>
      <trkpt lat="47.3276" lon="0.12413">
        <ele>91.46</ele>
        <time>2015-01-04T10:38:29Z</time>
      </trkpt>
      <trkpt lat="47.32765" lon="0.12413">
        <ele>91.94</ele>
        <time>2015-01-04T10:38:28Z</time>
      </trkpt>
      <trkpt lat="47.32776" lon="0.12413">
        <ele>92.42</ele>
        <time>2015-01-04T10:38:25Z</time>
      </trkpt>
      <trkpt lat="47.3278" lon="0.12414">
        <ele>92.9</ele>
        <time>2015-01-04T10:38:24Z</time>
      </trkpt>
      <trkpt lat="47.32784" lon="0.12414">
        <ele>93.39</ele>
        <time>2015-01-04T10:38:23Z</time>
      </trkpt>
      <trkpt lat="47.32788" lon="0.12415">
        <ele>93.39</ele>
        <time>2015-01-04T10:38:22Z</time>
      </trkpt>
      <trkpt lat="47.32791" lon="0.12418">
        <ele>93.39</ele>
        <time>2015-01-04T10:38:21Z</time>
      </trkpt>
      <trkpt lat="47.32792" lon="0.12454">
        <ele>94.83</ele>
        <time>2015-01-04T10:38:15Z</time>
      </trkpt>
      <trkpt lat="47.32792" lon="0.1246">
        <ele>94.83</ele>
        <time>2015-01-04T10:38:14Z</time>
      </trkpt>
      <trkpt lat="47.32792" lon="0.12473">
        <ele>94.83</ele>
        <time>2015-01-04T10:38:12Z</time>
      </trkpt>
      <trkpt lat="47.32794" lon="0.12511">
        <ele>96.27</ele>
        <time>2015-01-04T10:38:07Z</time>
      </trkpt>
      <trkpt lat="47.32795" lon="0.12518">
        <ele>96.27</ele>
        <time>2015-01-04T10:38:06Z</time>
      </trkpt>
      <trkpt lat="47.32796" lon="0.12525">
        <ele>94.83</ele>
        <time>2015-01-04T10:38:05Z</time>
      </trkpt>
      <trkpt lat="47.32798" lon="0.1254">
        <ele>95.31</ele>
        <time>2015-01-04T10:38:03Z</time>
      </trkpt>
      <trkpt lat="47.32799" lon="0.12547">
        <ele>95.79</ele>
        <time>2015-01-04T10:38:02Z</time>
      </trkpt>
      <trkpt lat="47.32799" lon="0.12554">
        <ele>96.27</ele>
        <time>2015-01-04T10:38:01Z</time>
      </trkpt>
      <trkpt lat="47.32803" lon="0.12581">
        <ele>95.79</ele>
        <time>2015-01-04T10:37:57Z</time>
      </trkpt>
      <trkpt lat="47.32804" lon="0.12587">
        <ele>95.79</ele>
        <time>2015-01-04T10:37:56Z</time>
      </trkpt>
      <trkpt lat="47.32804" lon="0.12594">
        <ele>96.27</ele>
        <time>2015-01-04T10:37:55Z</time>
      </trkpt>
      <trkpt lat="47.32804" lon="0.12601">
        <ele>95.79</ele>
        <time>2015-01-04T10:37:54Z</time>
      </trkpt>
      <trkpt lat="47.32812" lon="0.1265">
        <ele>96.27</ele>
        <time>2015-01-04T10:37:47Z</time>
      </trkpt>
      <trkpt lat="47.32814" lon="0.12656">
        <ele>96.27</ele>
        <time>2015-01-04T10:37:46Z</time>
      </trkpt>
      <trkpt lat="47.32815" lon="0.12662">
        <ele>95.79</ele>
        <time>2015-01-04T10:37:45Z</time>
      </trkpt>
      <trkpt lat="47.32817" lon="0.12667">
        <ele>96.75</ele>
        <time>2015-01-04T10:37:44Z</time>
      </trkpt>
      <trkpt lat="47.32818" lon="0.12672">
        <ele>96.75</ele>
        <time>2015-01-04T10:37:43Z</time>
      </trkpt>
      <trkpt lat="47.32819" lon="0.12677">
        <ele>97.23</ele>
        <time>2015-01-04T10:37:42Z</time>
      </trkpt>
      <trkpt lat="47.32821" lon="0.12681">
        <ele>95.79</ele>
        <time>2015-01-04T10:37:41Z</time>
      </trkpt>
      <trkpt lat="47.32823" lon="0.12685">
        <ele>96.27</ele>
        <time>2015-01-04T10:37:40Z</time>
      </trkpt>
      <trkpt lat="47.32826" lon="0.12688">
        <ele>96.75</ele>
        <time>2015-01-04T10:37:39Z</time>
      </trkpt>
      <trkpt lat="47.3283" lon="0.12691">
        <ele>96.75</ele>
        <time>2015-01-04T10:37:38Z</time>
      </trkpt>
      <trkpt lat="47.32835" lon="0.12692">
        <ele>96.75</ele>
        <time>2015-01-04T10:37:37Z</time>
      </trkpt>
      <trkpt lat="47.32841" lon="0.12692">
        <ele>96.75</ele>
        <time>2015-01-04T10:37:36Z</time>
      </trkpt>
      <trkpt lat="47.32846" lon="0.12692">
        <ele>97.23</ele>
        <time>2015-01-04T10:37:35Z</time>
      </trkpt>
      <trkpt lat="47.32869" lon="0.12692">
        <ele>97.71</ele>
        <time>2015-01-04T10:37:30Z</time>
      </trkpt>
      <trkpt lat="47.32887" lon="0.12709">
        <ele>98.19</ele>
        <time>2015-01-04T10:37:25Z</time>
      </trkpt>
      <trkpt lat="47.32888" lon="0.12714">
        <ele>97.71</ele>
        <time>2015-01-04T10:37:24Z</time>
      </trkpt>
      <trkpt lat="47.32888" lon="0.12748">
        <ele>97.23</ele>
        <time>2015-01-04T10:37:18Z</time>
      </trkpt>
      <trkpt lat="47.32888" lon="0.12754">
        <ele>98.19</ele>
        <time>2015-01-04T10:37:17Z</time>
      </trkpt>
      <trkpt lat="47.32892" lon="0.12787">
        <ele>96.75</ele>
        <time>2015-01-04T10:37:10Z</time>
      </trkpt>
      <trkpt lat="47.32892" lon="0.12791">
        <ele>95.79</ele>
        <time>2015-01-04T10:37:09Z</time>
      </trkpt>
      <trkpt lat="47.32894" lon="0.12816">
        <ele>95.31</ele>
        <time>2015-01-04T10:37:04Z</time>
      </trkpt>
      <trkpt lat="47.32898" lon="0.1283">
        <ele>94.35</ele>
        <time>2015-01-04T10:37:00Z</time>
      </trkpt>
      <trkpt lat="47.32901" lon="0.12832">
        <ele>94.35</ele>
        <time>2015-01-04T10:36:59Z</time>
      </trkpt>
      <trkpt lat="47.32906" lon="0.12832">
        <ele>94.35</ele>
        <time>2015-01-04T10:36:58Z</time>
      </trkpt>
      <trkpt lat="47.32909" lon="0.12832">
        <ele>94.35</ele>
        <time>2015-01-04T10:36:57Z</time>
      </trkpt>
      <trkpt lat="47.32923" lon="0.12831">
        <ele>94.83</ele>
        <time>2015-01-04T10:36:53Z</time>
      </trkpt>
      <trkpt lat="47.32949" lon="0.1283">
        <ele>95.31</ele>
        <time>2015-01-04T10:36:47Z</time>
      </trkpt>
      <trkpt lat="47.32967" lon="0.12826">
        <ele>95.31</ele>
        <time>2015-01-04T10:36:42Z</time>
      </trkpt>
      <trkpt lat="47.32983" lon="0.1282">
        <ele>95.79</ele>
        <time>2015-01-04T10:36:37Z</time>
      </trkpt>
      <trkpt lat="47.32987" lon="0.12819">
        <ele>95.79</ele>
        <time>2015-01-04T10:36:36Z</time>
      </trkpt>
      <trkpt lat="47.3299" lon="0.12816">
        <ele>96.27</ele>
        <time>2015-01-04T10:36:35Z</time>
      </trkpt>
      <trkpt lat="47.33002" lon="0.12813">
        <ele>96.75</ele>
        <time>2015-01-04T10:36:32Z</time>
      </trkpt>
      <trkpt lat="47.33029" lon="0.12817">
        <ele>97.23</ele>
        <time>2015-01-04T10:36:26Z</time>
      </trkpt>
      <trkpt lat="47.33033" lon="0.12819">
        <ele>97.23</ele>
        <time>2015-01-04T10:36:25Z</time>
      </trkpt>
      <trkpt lat="47.33038" lon="0.12822">
        <ele>97.23</ele>
        <time>2015-01-04T10:36:24Z</time>
      </trkpt>
      <trkpt lat="47.33069" lon="0.12833">
        <ele>97.23</ele>
        <time>2015-01-04T10:36:17Z</time>
      </trkpt>
      <trkpt lat="47.33074" lon="0.12833">
        <ele>96.75</ele>
        <time>2015-01-04T10:36:16Z</time>
      </trkpt>
      <trkpt lat="47.33078" lon="0.12834">
        <ele>96.75</ele>
        <time>2015-01-04T10:36:15Z</time>
      </trkpt>
      <trkpt lat="47.33082" lon="0.12835">
        <ele>96.75</ele>
        <time>2015-01-04T10:36:14Z</time>
      </trkpt>
      <trkpt lat="47.33087" lon="0.12836">
        <ele>96.27</ele>
        <time>2015-01-04T10:36:13Z</time>
      </trkpt>
      <trkpt lat="47.33092" lon="0.12837">
        <ele>96.75</ele>
        <time>2015-01-04T10:36:12Z</time>
      </trkpt>
      <trkpt lat="47.33111" lon="0.1284">
        <ele>96.27</ele>
        <time>2015-01-04T10:36:08Z</time>
      </trkpt>
      <trkpt lat="47.33116" lon="0.1284">
        <ele>96.27</ele>
        <time>2015-01-04T10:36:07Z</time>
      </trkpt>
      <trkpt lat="47.33121" lon="0.1284">
        <ele>95.79</ele>
        <time>2015-01-04T10:36:06Z</time>
      </trkpt>
      <trkpt lat="47.33126" lon="0.12841">
        <ele>95.79</ele>
        <time>2015-01-04T10:36:05Z</time>
      </trkpt>
      <trkpt lat="47.3313" lon="0.12842">
        <ele>96.27</ele>
        <time>2015-01-04T10:36:04Z</time>
      </trkpt>
      <trkpt lat="47.33135" lon="0.12843">
        <ele>95.79</ele>
        <time>2015-01-04T10:36:03Z</time>
      </trkpt>
      <trkpt lat="47.3314" lon="0.12844">
        <ele>95.31</ele>
        <time>2015-01-04T10:36:02Z</time>
      </trkpt>
      <trkpt lat="47.33145" lon="0.12845">
        <ele>96.27</ele>
        <time>2015-01-04T10:36:01Z</time>
      </trkpt>
      <trkpt lat="47.33149" lon="0.12847">
        <ele>96.27</ele>
        <time>2015-01-04T10:36:00Z</time>
      </trkpt>
      <trkpt lat="47.33167" lon="0.12846">
        <ele>95.79</ele>
        <time>2015-01-04T10:35:56Z</time>
      </trkpt>
      <trkpt lat="47.33171" lon="0.12846">
        <ele>95.79</ele>
        <time>2015-01-04T10:35:55Z</time>
      </trkpt>
      <trkpt lat="47.33175" lon="0.12844">
        <ele>95.79</ele>
        <time>2015-01-04T10:35:54Z</time>
      </trkpt>
      <trkpt lat="47.33178" lon="0.12842">
        <ele>95.31</ele>
        <time>2015-01-04T10:35:53Z</time>
      </trkpt>
      <trkpt lat="47.33181" lon="0.1284">
        <ele>95.31</ele>
        <time>2015-01-04T10:35:52Z</time>
      </trkpt>
      <trkpt lat="47.33184" lon="0.12835">
        <ele>94.83</ele>
        <time>2015-01-04T10:35:51Z</time>
      </trkpt>
      <trkpt lat="47.33185" lon="0.12829">
        <ele>95.31</ele>
        <time>2015-01-04T10:35:50Z</time>
      </trkpt>
      <trkpt lat="47.33186" lon="0.12791">
        <ele>95.79</ele>
        <time>2015-01-04T10:35:45Z</time>
      </trkpt>
      <trkpt lat="47.33186" lon="0.1273">
        <ele>95.31</ele>
        <time>2015-01-04T10:35:37Z</time>
      </trkpt>
      <trkpt lat="47.33186" lon="0.12696">
        <ele>95.79</ele>
        <time>2015-01-04T10:35:32Z</time>
      </trkpt>
      <trkpt lat="47.33186" lon="0.1269">
        <ele>95.31</ele>
        <time>2015-01-04T10:35:31Z</time>
      </trkpt>
      <trkpt lat="47.33186" lon="0.12684">
        <ele>95.31</ele>
        <time>2015-01-04T10:35:30Z</time>
      </trkpt>
      <trkpt lat="47.33185" lon="0.12677">
        <ele>95.79</ele>
        <time>2015-01-04T10:35:29Z</time>
      </trkpt>
      <trkpt lat="47.33184" lon="0.12671">
        <ele>94.83</ele>
        <time>2015-01-04T10:35:28Z</time>
      </trkpt>
      <trkpt lat="47.33183" lon="0.12664">
        <ele>95.31</ele>
        <time>2015-01-04T10:35:27Z</time>
      </trkpt>
      <trkpt lat="47.33182" lon="0.12658">
        <ele>95.31</ele>
        <time>2015-01-04T10:35:26Z</time>
      </trkpt>
      <trkpt lat="47.33181" lon="0.12651">
        <ele>94.83</ele>
        <time>2015-01-04T10:35:25Z</time>
      </trkpt>
      <trkpt lat="47.33179" lon="0.12646">
        <ele>95.31</ele>
        <time>2015-01-04T10:35:24Z</time>
      </trkpt>
      <trkpt lat="47.33178" lon="0.12639">
        <ele>95.31</ele>
        <time>2015-01-04T10:35:23Z</time>
      </trkpt>
      <trkpt lat="47.33176" lon="0.12633">
        <ele>94.83</ele>
        <time>2015-01-04T10:35:22Z</time>
      </trkpt>
      <trkpt lat="47.33174" lon="0.12627">
        <ele>94.83</ele>
        <time>2015-01-04T10:35:21Z</time>
      </trkpt>
      <trkpt lat="47.33162" lon="0.12602">
        <ele>94.83</ele>
        <time>2015-01-04T10:35:16Z</time>
      </trkpt>
      <trkpt lat="47.33158" lon="0.12591">
        <ele>94.83</ele>
        <time>2015-01-04T10:35:14Z</time>
      </trkpt>
      <trkpt lat="47.3314" lon="0.12541">
        <ele>93.87</ele>
        <time>2015-01-04T10:35:05Z</time>
      </trkpt>
      <trkpt lat="47.33139" lon="0.12535">
        <ele>94.35</ele>
        <time>2015-01-04T10:35:04Z</time>
      </trkpt>
      <trkpt lat="47.33138" lon="0.12529">
        <ele>94.35</ele>
        <time>2015-01-04T10:35:03Z</time>
      </trkpt>
      <trkpt lat="47.33132" lon="0.12492">
        <ele>93.87</ele>
        <time>2015-01-04T10:34:56Z</time>
      </trkpt>
      <trkpt lat="47.33128" lon="0.12449">
        <ele>91.94</ele>
        <time>2015-01-04T10:34:48Z</time>
      </trkpt>
      <trkpt lat="47.33126" lon="0.12404">
        <ele>91.46</ele>
        <time>2015-01-04T10:34:40Z</time>
      </trkpt>
      <trkpt lat="47.33123" lon="0.12359">
        <ele>90.5</ele>
        <time>2015-01-04T10:34:32Z</time>
      </trkpt>
      <trkpt lat="47.33119" lon="0.12331">
        <ele>89.06</ele>
        <time>2015-01-04T10:34:27Z</time>
      </trkpt>
      <trkpt lat="47.33111" lon="0.12288">
        <ele>89.06</ele>
        <time>2015-01-04T10:34:19Z</time>
      </trkpt>
      <trkpt lat="47.3311" lon="0.12284">
        <ele>88.58</ele>
        <time>2015-01-04T10:34:18Z</time>
      </trkpt>
      <trkpt lat="47.33109" lon="0.1228">
        <ele>88.1</ele>
        <time>2015-01-04T10:34:17Z</time>
      </trkpt>
      <trkpt lat="47.33108" lon="0.12276">
        <ele>87.62</ele>
        <time>2015-01-04T10:34:16Z</time>
      </trkpt>
      <trkpt lat="47.33107" lon="0.12273">
        <ele>88.1</ele>
        <time>2015-01-04T10:34:15Z</time>
      </trkpt>
      <trkpt lat="47.33105" lon="0.1227">
        <ele>87.14</ele>
        <time>2015-01-04T10:34:14Z</time>
      </trkpt>
      <trkpt lat="47.33104" lon="0.12267">
        <ele>87.62</ele>
        <time>2015-01-04T10:34:13Z</time>
      </trkpt>
      <trkpt lat="47.33103" lon="0.12263">
        <ele>87.62</ele>
        <time>2015-01-04T10:34:12Z</time>
      </trkpt>
      <trkpt lat="47.33103" lon="0.12259">
        <ele>87.14</ele>
        <time>2015-01-04T10:34:11Z</time>
      </trkpt>
      <trkpt lat="47.33103" lon="0.12255">
        <ele>87.62</ele>
        <time>2015-01-04T10:34:10Z</time>
      </trkpt>
      <trkpt lat="47.33102" lon="0.12251">
        <ele>87.14</ele>
        <time>2015-01-04T10:34:09Z</time>
      </trkpt>
      <trkpt lat="47.33102" lon="0.12247">
        <ele>86.18</ele>
        <time>2015-01-04T10:34:08Z</time>
      </trkpt>
      <trkpt lat="47.33098" lon="0.12228">
        <ele>86.18</ele>
        <time>2015-01-04T10:34:03Z</time>
      </trkpt>
      <trkpt lat="47.33094" lon="0.12211">
        <ele>85.21</ele>
        <time>2015-01-04T10:33:58Z</time>
      </trkpt>
      <trkpt lat="47.33091" lon="0.1219">
        <ele>84.25</ele>
        <time>2015-01-04T10:33:51Z</time>
      </trkpt>
      <trkpt lat="47.3309" lon="0.12163">
        <ele>83.29</ele>
        <time>2015-01-04T10:33:45Z</time>
      </trkpt>
      <trkpt lat="47.33095" lon="0.12148">
        <ele>81.85</ele>
        <time>2015-01-04T10:33:41Z</time>
      </trkpt>
      <trkpt lat="47.33096" lon="0.12146">
        <ele>81.37</ele>
        <time>2015-01-04T10:33:40Z</time>
      </trkpt>
      <trkpt lat="47.33097" lon="0.12144">
        <ele>80.89</ele>
        <time>2015-01-04T10:33:39Z</time>
      </trkpt>
      <trkpt lat="47.33102" lon="0.12125">
        <ele>79.93</ele>
        <time>2015-01-04T10:33:33Z</time>
      </trkpt>
      <trkpt lat="47.33109" lon="0.12092">
        <ele>77.52</ele>
        <time>2015-01-04T10:33:25Z</time>
      </trkpt>
      <trkpt lat="47.33118" lon="0.12062">
        <ele>75.6</ele>
        <time>2015-01-04T10:33:18Z</time>
      </trkpt>
      <trkpt lat="47.33126" lon="0.12042">
        <ele>74.16</ele>
        <time>2015-01-04T10:33:12Z</time>
      </trkpt>
      <trkpt lat="47.33129" lon="0.12034">
        <ele>73.2</ele>
        <time>2015-01-04T10:33:10Z</time>
      </trkpt>
      <trkpt lat="47.33138" lon="0.12004">
        <ele>71.76</ele>
        <time>2015-01-04T10:33:03Z</time>
      </trkpt>
      <trkpt lat="47.33145" lon="0.11976">
        <ele>69.83</ele>
        <time>2015-01-04T10:32:57Z</time>
      </trkpt>
      <trkpt lat="47.3315" lon="0.11945">
        <ele>68.87</ele>
        <time>2015-01-04T10:32:50Z</time>
      </trkpt>
      <trkpt lat="47.33152" lon="0.11941">
        <ele>68.87</ele>
        <time>2015-01-04T10:32:49Z</time>
      </trkpt>
      <trkpt lat="47.33157" lon="0.11917">
        <ele>66.47</ele>
        <time>2015-01-04T10:32:43Z</time>
      </trkpt>
      <trkpt lat="47.3316" lon="0.11894">
        <ele>65.99</ele>
        <time>2015-01-04T10:32:38Z</time>
      </trkpt>
      <trkpt lat="47.3316" lon="0.1189">
        <ele>65.99</ele>
        <time>2015-01-04T10:32:37Z</time>
      </trkpt>
      <trkpt lat="47.33163" lon="0.11853">
        <ele>64.07</ele>
        <time>2015-01-04T10:32:30Z</time>
      </trkpt>
      <trkpt lat="47.33161" lon="0.11821">
        <ele>62.14</ele>
        <time>2015-01-04T10:32:24Z</time>
      </trkpt>
      <trkpt lat="47.33156" lon="0.11795">
        <ele>60.7</ele>
        <time>2015-01-04T10:32:18Z</time>
      </trkpt>
      <trkpt lat="47.33156" lon="0.11791">
        <ele>60.22</ele>
        <time>2015-01-04T10:32:17Z</time>
      </trkpt>
      <trkpt lat="47.33157" lon="0.11786">
        <ele>60.22</ele>
        <time>2015-01-04T10:32:16Z</time>
      </trkpt>
      <trkpt lat="47.33157" lon="0.11777">
        <ele>60.22</ele>
        <time>2015-01-04T10:32:14Z</time>
      </trkpt>
      <trkpt lat="47.33156" lon="0.11772">
        <ele>59.74</ele>
        <time>2015-01-04T10:32:13Z</time>
      </trkpt>
      <trkpt lat="47.33156" lon="0.11766">
        <ele>59.26</ele>
        <time>2015-01-04T10:32:12Z</time>
      </trkpt>
      <trkpt lat="47.33158" lon="0.11761">
        <ele>59.26</ele>
        <time>2015-01-04T10:32:11Z</time>
      </trkpt>
      <trkpt lat="47.33161" lon="0.11756">
        <ele>59.26</ele>
        <time>2015-01-04T10:32:10Z</time>
      </trkpt>
      <trkpt lat="47.33165" lon="0.11754">
        <ele>59.26</ele>
        <time>2015-01-04T10:32:09Z</time>
      </trkpt>
      <trkpt lat="47.33169" lon="0.11754">
        <ele>59.26</ele>
        <time>2015-01-04T10:32:08Z</time>
      </trkpt>
      <trkpt lat="47.33173" lon="0.11753">
        <ele>58.78</ele>
        <time>2015-01-04T10:32:07Z</time>
      </trkpt>
      <trkpt lat="47.33198" lon="0.11748">
        <ele>58.3</ele>
        <time>2015-01-04T10:32:02Z</time>
      </trkpt>
      <trkpt lat="47.33224" lon="0.11745">
        <ele>58.78</ele>
        <time>2015-01-04T10:31:57Z</time>
      </trkpt>
      <trkpt lat="47.33269" lon="0.11738">
        <ele>58.78</ele>
        <time>2015-01-04T10:31:49Z</time>
      </trkpt>
      <trkpt lat="47.3332" lon="0.1173">
        <ele>60.22</ele>
        <time>2015-01-04T10:31:40Z</time>
      </trkpt>
      <trkpt lat="47.33366" lon="0.11723">
        <ele>59.74</ele>
        <time>2015-01-04T10:31:32Z</time>
      </trkpt>
      <trkpt lat="47.3343" lon="0.11713">
        <ele>61.18</ele>
        <time>2015-01-04T10:31:21Z</time>
      </trkpt>
      <trkpt lat="47.33476" lon="0.11707">
        <ele>62.14</ele>
        <time>2015-01-04T10:31:13Z</time>
      </trkpt>
      <trkpt lat="47.33497" lon="0.11707">
        <ele>75.15234375</ele>
      </trkpt>
      <trkpt lat="47.33497" lon="0.117">
        <ele>74.625</ele>
      </trkpt>
      <trkpt lat="47.33494" lon="0.11694">
        <ele>74.0546875</ele>
      </trkpt>
      <trkpt lat="47.33488" lon="0.11688">
        <ele>73.45703125</ele>
      </trkpt>
      <trkpt lat="47.33483" lon="0.11682">
        <ele>72.79296875</ele>
      </trkpt>
      <trkpt lat="47.33481" lon="0.11668">
        <ele>71.7421875</ele>
      </trkpt>
      <trkpt lat="47.33478" lon="0.1166">
        <ele>71.0625</ele>
      </trkpt>
      <trkpt lat="47.33475" lon="0.11646">
        <ele>69.98828125</ele>
      </trkpt>
      <trkpt lat="47.3347" lon="0.11634">
        <ele>69.10546875</ele>
      </trkpt>
      <trkpt lat="47.33467" lon="0.11611">
        <ele>69.48046875</ele>
      </trkpt>
      <trkpt lat="47.33463" lon="0.11593">
        <ele>69.4765625</ele>
      </trkpt>
      <trkpt lat="47.33457" lon="0.11564">
        <ele>69.2734375</ele>
      </trkpt>
      <trkpt lat="47.33454" lon="0.11543">
        <ele>69.16015625</ele>
      </trkpt>
      <trkpt lat="47.33449" lon="0.11519">
        <ele>68.98046875</ele>
      </trkpt>
      <trkpt lat="47.33443" lon="0.11493">
        <ele>69.015625</ele>
      </trkpt>
      <trkpt lat="47.33441" lon="0.1147">
        <ele>69.8359375</ele>
      </trkpt>
      <trkpt lat="47.33435" lon="0.11443">
        <ele>70.375</ele>
      </trkpt>
      <trkpt lat="47.33431" lon="0.11447">
        <ele>70.21484375</ele>
      </trkpt>
      <trkpt lat="47.33419" lon="0.11459">
        <ele>69.9296875</ele>
      </trkpt>
      <trkpt lat="47.33411" lon="0.11473">
        <ele>69.3359375</ele>
      </trkpt>
      <trkpt lat="47.33404" lon="0.11463">
        <ele>69.41796875</ele>
      </trkpt>
      <trkpt lat="47.33388" lon="0.11468">
        <ele>68.91015625</ele>
      </trkpt>
      <trkpt lat="47.33388" lon="0.11466">
        <ele>68.95703125</ele>
      </trkpt>
      <trkpt lat="47.33363" lon="0.11472">
        <ele>68.76953125</ele>
      </trkpt>
      <trkpt lat="47.33333" lon="0.11481">
        <ele>68.44140625</ele>
      </trkpt>
      <trkpt lat="47.33313" lon="0.11487">
        <ele>68.20703125</ele>
      </trkpt>
      <trkpt lat="47.33296" lon="0.11492">
        <ele>68.546875</ele>
      </trkpt>
      <trkpt lat="47.33282" lon="0.11498">
        <ele>68.83203125</ele>
      </trkpt>
      <trkpt lat="47.33271" lon="0.11498">
        <ele>68.83203125</ele>
      </trkpt>
      <trkpt lat="47.33257" lon="0.11492">
        <ele>69.01953125</ele>
      </trkpt>
      <trkpt lat="47.33246" lon="0.11479">
        <ele>69.65625</ele>
      </trkpt>
      <trkpt lat="47.33233" lon="0.11477">
        <ele>70.04296875</ele>
      </trkpt>
      <trkpt lat="47.33232" lon="0.11477">
        <ele>70.0625</ele>
      </trkpt>
      <trkpt lat="47.33225" lon="0.11473">
        <ele>70.46875</ele>
      </trkpt>
      <trkpt lat="47.33214" lon="0.11473">
        <ele>70.578125</ele>
      </trkpt>
      <trkpt lat="47.33202" lon="0.11452">
        <ele>71.89453125</ele>
      </trkpt>
      <trkpt lat="47.33193" lon="0.11443">
        <ele>73.09765625</ele>
      </trkpt>
      <trkpt lat="47.33187" lon="0.11426">
        <ele>74.47265625</ele>
      </trkpt>
      <trkpt lat="47.33187" lon="0.11428">
        <ele>74.40625</ele>
      </trkpt>
      <trkpt lat="47.33193" lon="0.11404">
        <ele>75.01171875</ele>
      </trkpt>
      <trkpt lat="47.33204" lon="0.11392">
        <ele>74.96875</ele>
      </trkpt>
      <trkpt lat="47.33216" lon="0.1137">
        <ele>75.65625</ele>
      </trkpt>
      <trkpt lat="47.33261" lon="0.1133">
        <ele>75.953125</ele>
      </trkpt>
      <trkpt lat="47.3326" lon="0.11331">
        <ele>75.82421875</ele>
      </trkpt>
      <trkpt lat="47.33304" lon="0.11279">
        <ele>79.6953125</ele>
      </trkpt>
      <trkpt lat="47.33342" lon="0.1124">
        <ele>80.8515625</ele>
      </trkpt>
      <trkpt lat="47.33351" lon="0.11238">
        <ele>80.30078125</ele>
      </trkpt>
      <trkpt lat="47.33371" lon="0.11203">
        <ele>79.98828125</ele>
      </trkpt>
      <trkpt lat="47.33371" lon="0.11201">
        <ele>80.02734375</ele>
      </trkpt>
      <trkpt lat="47.33388" lon="0.11173">
        <ele>79.01171875</ele>
      </trkpt>
      <trkpt lat="47.33408" lon="0.11142">
        <ele>77.78515625</ele>
      </trkpt>
      <trkpt lat="47.33436" lon="0.11072">
        <ele>78.57421875</ele>
      </trkpt>
      <trkpt lat="47.3345" lon="0.11081">
        <ele>77.81640625</ele>
      </trkpt>
      <trkpt lat="47.33463" lon="0.11113">
        <ele>76.1953125</ele>
      </trkpt>
      <trkpt lat="47.3348" lon="0.11138">
        <ele>74.7109375</ele>
      </trkpt>
      <trkpt lat="47.33499" lon="0.1116">
        <ele>74</ele>
      </trkpt>
      <trkpt lat="47.33513" lon="0.11146">
        <ele>73.8515625</ele>
      </trkpt>
      <trkpt lat="47.33528" lon="0.11147">
        <ele>73.5625</ele>
      </trkpt>
      <trkpt lat="47.33541" lon="0.11155">
        <ele>72.82421875</ele>
      </trkpt>
      <trkpt lat="47.33542" lon="0.11155">
        <ele>72.78515625</ele>
      </trkpt>
      <trkpt lat="47.33557" lon="0.11174">
        <ele>72.109375</ele>
      </trkpt>
      <trkpt lat="47.33567" lon="0.11185">
        <ele>72</ele>
      </trkpt>
      <trkpt lat="47.33567" lon="0.11186">
        <ele>72</ele>
      </trkpt>
      <trkpt lat="47.3362" lon="0.11154">
        <ele>72</ele>
      </trkpt>
      <trkpt lat="47.3367" lon="0.11161">
        <ele>72</ele>
      </trkpt>
      <trkpt lat="47.33711" lon="0.11208">
        <ele>72.58203125</ele>
      </trkpt>
      <trkpt lat="47.33727" lon="0.11237">
        <ele>72.24609375</ele>
      </trkpt>
      <trkpt lat="47.33727" lon="0.11239">
        <ele>72.15234375</ele>
      </trkpt>
      <trkpt lat="47.33756" lon="0.11234">
        <ele>73.0546875</ele>
      </trkpt>
      <trkpt lat="47.33753" lon="0.112">
        <ele>73.5</ele>
      </trkpt>
      <trkpt lat="47.33767" lon="0.11143">
        <ele>75.484375</ele>
      </trkpt>
      <trkpt lat="47.33751" lon="0.11086">
        <ele>75.8125</ele>
      </trkpt>
      <trkpt lat="47.33718" lon="0.10995">
        <ele>75.67578125</ele>
      </trkpt>
      <trkpt lat="47.33684" lon="0.10925">
        <ele>73.9296875</ele>
      </trkpt>
      <trkpt lat="47.33665" lon="0.1085">
        <ele>74.1328125</ele>
      </trkpt>
      <trkpt lat="47.33659" lon="0.10751">
        <ele>74.55859375</ele>
      </trkpt>
      <trkpt lat="47.33661" lon="0.10665">
        <ele>74.625</ele>
      </trkpt>
      <trkpt lat="47.33674" lon="0.10585">
        <ele>75.15234375</ele>
      </trkpt>
      <trkpt lat="47.33681" lon="0.10546">
        <ele>75.73046875</ele>
      </trkpt>
      <trkpt lat="47.33687" lon="0.10549">
        <ele>64.07</ele>
        <time>2019-03-17T10:44:34Z</time>
      </trkpt>
      <trkpt lat="47.33689" lon="0.10549">
        <ele>65.03</ele>
        <time>2019-03-17T10:44:35Z</time>
      </trkpt>
      <trkpt lat="47.33692" lon="0.1055">
        <ele>65.03</ele>
        <time>2019-03-17T10:44:36Z</time>
      </trkpt>
      <trkpt lat="47.33694" lon="0.10552">
        <ele>65.51</ele>
        <time>2019-03-17T10:44:37Z</time>
      </trkpt>
      <trkpt lat="47.33696" lon="0.10553">
        <ele>65.51</ele>
        <time>2019-03-17T10:44:38Z</time>
      </trkpt>
      <trkpt lat="47.33697" lon="0.10555">
        <ele>65.99</ele>
        <time>2019-03-17T10:44:40Z</time>
      </trkpt>
      <trkpt lat="47.33705" lon="0.10558">
        <ele>68.87</ele>
        <time>2019-03-17T10:44:47Z</time>
      </trkpt>
      <trkpt lat="47.33709" lon="0.1056">
        <ele>70.31</ele>
        <time>2019-03-17T10:44:52Z</time>
      </trkpt>
      <trkpt lat="47.33711" lon="0.10561">
        <ele>70.79</ele>
        <time>2019-03-17T10:44:54Z</time>
      </trkpt>
      <trkpt lat="47.33716" lon="0.10571">
        <ele>72.24</ele>
        <time>2019-03-17T10:44:59Z</time>
      </trkpt>
      <trkpt lat="47.33719" lon="0.10576">
        <ele>72.72</ele>
        <time>2019-03-17T10:45:01Z</time>
      </trkpt>
      <trkpt lat="47.33723" lon="0.10584">
        <ele>73.68</ele>
        <time>2019-03-17T10:45:05Z</time>
      </trkpt>
      <trkpt lat="47.33728" lon="0.10591">
        <ele>75.12</ele>
        <time>2019-03-17T10:45:11Z</time>
      </trkpt>
      <trkpt lat="47.33732" lon="0.10598">
        <ele>76.08</ele>
        <time>2019-03-17T10:45:17Z</time>
      </trkpt>
      <trkpt lat="47.33736" lon="0.10603">
        <ele>77.52</ele>
        <time>2019-03-17T10:45:22Z</time>
      </trkpt>
      <trkpt lat="47.33742" lon="0.10616">
        <ele>78.48</ele>
        <time>2019-03-17T10:45:29Z</time>
      </trkpt>
      <trkpt lat="47.33751" lon="0.10632">
        <ele>79.45</ele>
        <time>2019-03-17T10:45:36Z</time>
      </trkpt>
      <trkpt lat="47.33755" lon="0.10639">
        <ele>80.41</ele>
        <time>2019-03-17T10:45:39Z</time>
      </trkpt>
      <trkpt lat="47.33763" lon="0.10645">
        <ele>81.37</ele>
        <time>2019-03-17T10:45:45Z</time>
      </trkpt>
      <trkpt lat="47.33775" lon="0.10652">
        <ele>82.33</ele>
        <time>2019-03-17T10:45:52Z</time>
      </trkpt>
      <trkpt lat="47.3378" lon="0.10659">
        <ele>82.33</ele>
        <time>2019-03-17T10:45:56Z</time>
      </trkpt>
      <trkpt lat="47.33786" lon="0.1067">
        <ele>83.29</ele>
        <time>2019-03-17T10:46:02Z</time>
      </trkpt>
      <trkpt lat="47.33793" lon="0.1068">
        <ele>84.25</ele>
        <time>2019-03-17T10:46:07Z</time>
      </trkpt>
      <trkpt lat="47.33797" lon="0.10688">
        <ele>84.73</ele>
        <time>2019-03-17T10:46:10Z</time>
      </trkpt>
      <trkpt lat="47.33802" lon="0.10698">
        <ele>84.73</ele>
        <time>2019-03-17T10:46:14Z</time>
      </trkpt>
      <trkpt lat="47.33813" lon="0.10713">
        <ele>86.18</ele>
        <time>2019-03-17T10:46:19Z</time>
      </trkpt>
      <trkpt lat="47.33823" lon="0.10724">
        <ele>86.18</ele>
        <time>2019-03-17T10:46:25Z</time>
      </trkpt>
      <trkpt lat="47.33835" lon="0.10737">
        <ele>87.14</ele>
        <time>2019-03-17T10:46:31Z</time>
      </trkpt>
      <trkpt lat="47.33839" lon="0.10741">
        <ele>86.66</ele>
        <time>2019-03-17T10:46:33Z</time>
      </trkpt>
      <trkpt lat="47.33856" lon="0.10743">
        <ele>88.1</ele>
        <time>2019-03-17T10:46:41Z</time>
      </trkpt>
      <trkpt lat="47.33858" lon="0.10743">
        <ele>87.62</ele>
        <time>2019-03-17T10:46:42Z</time>
      </trkpt>
      <trkpt lat="47.33869" lon="0.10759">
        <ele>88.1</ele>
        <time>2019-03-17T10:46:48Z</time>
      </trkpt>
      <trkpt lat="47.33877" lon="0.10767">
        <ele>88.58</ele>
        <time>2019-03-17T10:46:51Z</time>
      </trkpt>
      <trkpt lat="47.33893" lon="0.10781">
        <ele>88.1</ele>
        <time>2019-03-17T10:46:57Z</time>
      </trkpt>
      <trkpt lat="47.33908" lon="0.10802">
        <ele>89.54</ele>
        <time>2019-03-17T10:47:03Z</time>
      </trkpt>
      <trkpt lat="47.3391" lon="0.10806">
        <ele>90.02</ele>
        <time>2019-03-17T10:47:04Z</time>
      </trkpt>
      <trkpt lat="47.33917" lon="0.10816">
        <ele>89.06</ele>
        <time>2019-03-17T10:47:08Z</time>
      </trkpt>
      <trkpt lat="47.3392" lon="0.10819">
        <ele>88.1</ele>
        <time>2019-03-17T10:47:17Z</time>
      </trkpt>
      <trkpt lat="47.33921" lon="0.10821">
        <ele>88.58</ele>
        <time>2019-03-17T10:47:18Z</time>
      </trkpt>
      <trkpt lat="47.33929" lon="0.10834">
        <ele>89.06</ele>
        <time>2019-03-17T10:47:24Z</time>
      </trkpt>
      <trkpt lat="47.33941" lon="0.10849">
        <ele>89.06</ele>
        <time>2019-03-17T10:47:29Z</time>
      </trkpt>
      <trkpt lat="47.33962" lon="0.10866">
        <ele>89.54</ele>
        <time>2019-03-17T10:47:37Z</time>
      </trkpt>
      <trkpt lat="47.3398" lon="0.10872">
        <ele>90.02</ele>
        <time>2019-03-17T10:47:44Z</time>
      </trkpt>
      <trkpt lat="47.3399" lon="0.10873">
        <ele>90.5</ele>
        <time>2019-03-17T10:47:48Z</time>
      </trkpt>
      <trkpt lat="47.34009" lon="0.1088">
        <ele>89.06</ele>
        <time>2019-03-17T10:47:54Z</time>
      </trkpt>
      <trkpt lat="47.34032" lon="0.10884">
        <ele>89.06</ele>
        <time>2019-03-17T10:48:00Z</time>
      </trkpt>
      <trkpt lat="47.34039" lon="0.10886">
        <ele>88.58</ele>
        <time>2019-03-17T10:48:02Z</time>
      </trkpt>
      <trkpt lat="47.34053" lon="0.10875">
        <ele>87.14</ele>
        <time>2019-03-17T10:48:07Z</time>
      </trkpt>
      <trkpt lat="47.34053" lon="0.1083">
        <ele>89.54</ele>
        <time>2019-03-17T10:48:15Z</time>
      </trkpt>
      <trkpt lat="47.34054" lon="0.10808">
        <ele>90.02</ele>
        <time>2019-03-17T10:48:19Z</time>
      </trkpt>
      <trkpt lat="47.34054" lon="0.10802">
        <ele>89.54</ele>
        <time>2019-03-17T10:48:20Z</time>
      </trkpt>
      <trkpt lat="47.34056" lon="0.10759">
        <ele>91.46</ele>
        <time>2019-03-17T10:48:27Z</time>
      </trkpt>
      <trkpt lat="47.34062" lon="0.10708">
        <ele>94.35</ele>
        <time>2019-03-17T10:48:36Z</time>
      </trkpt>
      <trkpt lat="47.34069" lon="0.10664">
        <ele>95.31</ele>
        <time>2019-03-17T10:48:44Z</time>
      </trkpt>
      <trkpt lat="47.34076" lon="0.10629">
        <ele>96.75</ele>
        <time>2019-03-17T10:48:51Z</time>
      </trkpt>
      <trkpt lat="47.34082" lon="0.10587">
        <ele>97.23</ele>
        <time>2019-03-17T10:48:59Z</time>
      </trkpt>
      <trkpt lat="47.34092" lon="0.10546">
        <ele>98.67</ele>
        <time>2019-03-17T10:49:07Z</time>
      </trkpt>
      <trkpt lat="47.34095" lon="0.10509">
        <ele>98.19</ele>
        <time>2019-03-17T10:49:13Z</time>
      </trkpt>
      <trkpt lat="47.34096" lon="0.10503">
        <ele>98.19</ele>
        <time>2019-03-17T10:49:14Z</time>
      </trkpt>
      <trkpt lat="47.34096" lon="0.10491">
        <ele>98.19</ele>
        <time>2019-03-17T10:49:16Z</time>
      </trkpt>
      <trkpt lat="47.34099" lon="0.10452">
        <ele>96.75</ele>
        <time>2019-03-17T10:49:22Z</time>
      </trkpt>
      <trkpt lat="47.341" lon="0.10446">
        <ele>96.75</ele>
        <time>2019-03-17T10:49:23Z</time>
      </trkpt>
      <trkpt lat="47.34101" lon="0.1044">
        <ele>97.71</ele>
        <time>2019-03-17T10:49:24Z</time>
      </trkpt>
      <trkpt lat="47.34107" lon="0.104">
        <ele>96.75</ele>
        <time>2019-03-17T10:49:31Z</time>
      </trkpt>
      <trkpt lat="47.34113" lon="0.10355">
        <ele>96.27</ele>
        <time>2019-03-17T10:49:39Z</time>
      </trkpt>
      <trkpt lat="47.34112" lon="0.10352">
        <ele>95.79</ele>
        <time>2019-03-17T10:49:40Z</time>
      </trkpt>
      <trkpt lat="47.3411" lon="0.10349">
        <ele>95.31</ele>
        <time>2019-03-17T10:49:41Z</time>
      </trkpt>
      <trkpt lat="47.34108" lon="0.10348">
        <ele>96.27</ele>
        <time>2019-03-17T10:49:42Z</time>
      </trkpt>
      <trkpt lat="47.34105" lon="0.10346">
        <ele>94.83</ele>
        <time>2019-03-17T10:49:43Z</time>
      </trkpt>
      <trkpt lat="47.34102" lon="0.10343">
        <ele>94.83</ele>
        <time>2019-03-17T10:49:44Z</time>
      </trkpt>
      <trkpt lat="47.34099" lon="0.10342">
        <ele>94.35</ele>
        <time>2019-03-17T10:49:45Z</time>
      </trkpt>
      <trkpt lat="47.34095" lon="0.10339">
        <ele>93.87</ele>
        <time>2019-03-17T10:49:46Z</time>
      </trkpt>
      <trkpt lat="47.34091" lon="0.10336">
        <ele>93.87</ele>
        <time>2019-03-17T10:49:47Z</time>
      </trkpt>
      <trkpt lat="47.34071" lon="0.1032">
        <ele>92.9</ele>
        <time>2019-03-17T10:49:51Z</time>
      </trkpt>
      <trkpt lat="47.34065" lon="0.10317">
        <ele>92.9</ele>
        <time>2019-03-17T10:49:52Z</time>
      </trkpt>
      <trkpt lat="47.34054" lon="0.10309">
        <ele>92.42</ele>
        <time>2019-03-17T10:49:54Z</time>
      </trkpt>
      <trkpt lat="47.34048" lon="0.10304">
        <ele>91.46</ele>
        <time>2019-03-17T10:49:55Z</time>
      </trkpt>
      <trkpt lat="47.34042" lon="0.10299">
        <ele>90.98</ele>
        <time>2019-03-17T10:49:56Z</time>
      </trkpt>
      <trkpt lat="47.34035" lon="0.10295">
        <ele>90.98</ele>
        <time>2019-03-17T10:49:57Z</time>
      </trkpt>
      <trkpt lat="47.34029" lon="0.1029">
        <ele>90.02</ele>
        <time>2019-03-17T10:49:58Z</time>
      </trkpt>
      <trkpt lat="47.34023" lon="0.10285">
        <ele>90.02</ele>
        <time>2019-03-17T10:49:59Z</time>
      </trkpt>
      <trkpt lat="47.3401" lon="0.10272">
        <ele>87.62</ele>
        <time>2019-03-17T10:50:01Z</time>
      </trkpt>
      <trkpt lat="47.33986" lon="0.10254">
        <ele>83.29</ele>
        <time>2019-03-17T10:50:05Z</time>
      </trkpt>
      <trkpt lat="47.33961" lon="0.10233">
        <ele>79.45</ele>
        <time>2019-03-17T10:50:09Z</time>
      </trkpt>
      <trkpt lat="47.33945" lon="0.1022">
        <ele>77.52</ele>
        <time>2019-03-17T10:50:12Z</time>
      </trkpt>
      <trkpt lat="47.33938" lon="0.10215">
        <ele>75.12</ele>
        <time>2019-03-17T10:50:13Z</time>
      </trkpt>
      <trkpt lat="47.33931" lon="0.10211">
        <ele>74.16</ele>
        <time>2019-03-17T10:50:14Z</time>
      </trkpt>
      <trkpt lat="47.33922" lon="0.10207">
        <ele>73.68</ele>
        <time>2019-03-17T10:50:15Z</time>
      </trkpt>
      <trkpt lat="47.33913" lon="0.10201">
        <ele>72.72</ele>
        <time>2019-03-17T10:50:16Z</time>
      </trkpt>
      <trkpt lat="47.33904" lon="0.10194">
        <ele>70.79</ele>
        <time>2019-03-17T10:50:17Z</time>
      </trkpt>
      <trkpt lat="47.33897" lon="0.10188">
        <ele>68.87</ele>
        <time>2019-03-17T10:50:18Z</time>
      </trkpt>
      <trkpt lat="47.33881" lon="0.10183">
        <ele>80.00390625</ele>
      </trkpt>
      <trkpt lat="47.3389" lon="0.10129">
        <ele>79.89453125</ele>
      </trkpt>
      <trkpt lat="47.33876" lon="0.10061">
        <ele>80.84765625</ele>
      </trkpt>
      <trkpt lat="47.33856" lon="0.09962">
        <ele>84.22265625</ele>
      </trkpt>
      <trkpt lat="47.33825" lon="0.09851">
        <ele>90.6171875</ele>
      </trkpt>
      <trkpt lat="47.33793" lon="0.09775">
        <ele>93.4921875</ele>
      </trkpt>
      <trkpt lat="47.33754" lon="0.0971">
        <ele>95.0859375</ele>
      </trkpt>
      <trkpt lat="47.33705" lon="0.09643">
        <ele>97.65625</ele>
      </trkpt>
      <trkpt lat="47.33633" lon="0.09539">
        <ele>97.37890625</ele>
      </trkpt>
      <trkpt lat="47.33565" lon="0.09453">
        <ele>98.359375</ele>
      </trkpt>
      <trkpt lat="47.33516" lon="0.09375">
        <ele>101.703125</ele>
      </trkpt>
      <trkpt lat="47.33473" lon="0.09318">
        <ele>103.4375</ele>
      </trkpt>
      <trkpt lat="47.33423" lon="0.09251">
        <ele>104.98828125</ele>
      </trkpt>
      <trkpt lat="47.33448" lon="0.09115">
        <ele>105.66015625</ele>
      </trkpt>
      <trkpt lat="47.33491" lon="0.08978">
        <ele>105</ele>
      </trkpt>
      <trkpt lat="47.33541" lon="0.08835">
        <ele>104</ele>
      </trkpt>
      <trkpt lat="47.33594" lon="0.08676">
        <ele>104.08984375</ele>
      </trkpt>
      <trkpt lat="47.3363" lon="0.08533">
        <ele>105.80078125</ele>
      </trkpt>
      <trkpt lat="47.33655" lon="0.08419">
        <ele>107</ele>
      </trkpt>
      <trkpt lat="47.33716" lon="0.08258">
        <ele>107.8125</ele>
      </trkpt>
      <trkpt lat="47.33789" lon="0.08087">
        <ele>108</ele>
      </trkpt>
      <trkpt lat="47.33827" lon="0.08022">
        <ele>107.609375</ele>
      </trkpt>
      <trkpt lat="47.33891" lon="0.07959">
        <ele>108</ele>
      </trkpt>
      <trkpt lat="47.33968" lon="0.07881">
        <ele>108.62109375</ele>
      </trkpt>
      <trkpt lat="47.34035" lon="0.07793">
        <ele>107</ele>
      </trkpt>
      <trkpt lat="47.34072" lon="0.07746">
        <ele>107</ele>
      </trkpt>
      <trkpt lat="47.34051" lon="0.07684">
        <ele>105.7890625</ele>
      </trkpt>
      <trkpt lat="47.34031" lon="0.07674">
        <ele>105.4375</ele>
      </trkpt>
      <trkpt lat="47.3401" lon="0.07627">
        <ele>105.59765625</ele>
      </trkpt>
      <trkpt lat="47.3397" lon="0.07567">
        <ele>104.57421875</ele>
      </trkpt>
      <trkpt lat="47.33918" lon="0.07559">
        <ele>104.3828125</ele>
      </trkpt>
      <trkpt lat="47.33789" lon="0.07533">
        <ele>102.578125</ele>
      </trkpt>
      <trkpt lat="47.33778" lon="0.07453">
        <ele>99.2890625</ele>
      </trkpt>
      <trkpt lat="47.33763" lon="0.0739">
        <ele>97.3125</ele>
      </trkpt>
      <trkpt lat="47.33742" lon="0.07302">
        <ele>100.94140625</ele>
      </trkpt>
      <trkpt lat="47.33717" lon="0.07268">
        <ele>102.1875</ele>
      </trkpt>
      <trkpt lat="47.33704" lon="0.07224">
        <ele>103.77734375</ele>
      </trkpt>
      <trkpt lat="47.33648" lon="0.07182">
        <ele>104.046875</ele>
      </trkpt>
      <trkpt lat="47.33605" lon="0.07167">
        <ele>103.515625</ele>
      </trkpt>
      <trkpt lat="47.33587" lon="0.07131">
        <ele>103</ele>
      </trkpt>
      <trkpt lat="47.33566" lon="0.07073">
        <ele>103.3984375</ele>
      </trkpt>
      <trkpt lat="47.33566" lon="0.07076">
        <ele>103.3046875</ele>
      </trkpt>
      <trkpt lat="47.33539" lon="0.07034">
        <ele>103.83203125</ele>
      </trkpt>
      <trkpt lat="47.33722" lon="0.06738">
        <ele>104</ele>
      </trkpt>
      <trkpt lat="47.33628" lon="0.06695">
        <ele>103.42578125</ele>
      </trkpt>
      <trkpt lat="47.33605" lon="0.06685">
        <ele>103</ele>
      </trkpt>
      <trkpt lat="47.33587" lon="0.06668">
        <ele>102.953125</ele>
      </trkpt>
      <trkpt lat="47.33555" lon="0.06641">
        <ele>102</ele>
      </trkpt>
      <trkpt lat="47.33527" lon="0.06618">
        <ele>102</ele>
      </trkpt>
      <trkpt lat="47.33499" lon="0.06589">
        <ele>101.3515625</ele>
      </trkpt>
      <trkpt lat="47.33487" lon="0.06577">
        <ele>101</ele>
      </trkpt>
      <trkpt lat="47.33463" lon="0.06555">
        <ele>101.06640625</ele>
      </trkpt>
      <trkpt lat="47.33452" lon="0.06548">
        <ele>100.2</ele>
        <time>2016-01-26T15:56:30Z</time>
      </trkpt>
      <trkpt lat="47.33415" lon="0.06514">
        <ele>100.2</ele>
        <time>2016-01-26T15:56:39Z</time>
      </trkpt>
      <trkpt lat="47.33406" lon="0.06508">
        <ele>100.2</ele>
        <time>2016-01-26T15:56:41Z</time>
      </trkpt>
      <trkpt lat="47.33393" lon="0.06498">
        <ele>100.2</ele>
        <time>2016-01-26T15:56:44Z</time>
      </trkpt>
      <trkpt lat="47.33364" lon="0.06478">
        <ele>100.2</ele>
        <time>2016-01-26T15:56:51Z</time>
      </trkpt>
      <trkpt lat="47.33354" lon="0.06474">
        <ele>100.2</ele>
        <time>2016-01-26T15:56:53Z</time>
      </trkpt>
      <trkpt lat="47.33345" lon="0.06468">
        <ele>100.2</ele>
        <time>2016-01-26T15:56:55Z</time>
      </trkpt>
      <trkpt lat="47.33333" lon="0.06458">
        <ele>100.2</ele>
        <time>2016-01-26T15:56:59Z</time>
      </trkpt>
      <trkpt lat="47.33329" lon="0.0645">
        <ele>100.2</ele>
        <time>2016-01-26T15:57:02Z</time>
      </trkpt>
      <trkpt lat="47.33329" lon="0.06442">
        <ele>100.2</ele>
        <time>2016-01-26T15:57:04Z</time>
      </trkpt>
      <trkpt lat="47.33335" lon="0.0642">
        <ele>100.2</ele>
        <time>2016-01-26T15:57:10Z</time>
      </trkpt>
      <trkpt lat="47.3334" lon="0.06401">
        <ele>100.2</ele>
        <time>2016-01-26T15:57:14Z</time>
      </trkpt>
      <trkpt lat="47.33337" lon="0.06371">
        <ele>100.2</ele>
        <time>2016-01-26T15:57:19Z</time>
      </trkpt>
      <trkpt lat="47.33334" lon="0.06341">
        <ele>100.2</ele>
        <time>2016-01-26T15:57:24Z</time>
      </trkpt>
      <trkpt lat="47.33332" lon="0.06312">
        <ele>100.2</ele>
        <time>2016-01-26T15:57:28Z</time>
      </trkpt>
      <trkpt lat="47.33325" lon="0.06263">
        <ele>100.2</ele>
        <time>2016-01-26T15:57:34Z</time>
      </trkpt>
      <trkpt lat="47.33323" lon="0.06236">
        <ele>100.2</ele>
        <time>2016-01-26T15:57:37Z</time>
      </trkpt>
      <trkpt lat="47.33322" lon="0.06207">
        <ele>99.8</ele>
        <time>2016-01-26T15:57:40Z</time>
      </trkpt>
      <trkpt lat="47.3332" lon="0.06198">
        <ele>99.4</ele>
        <time>2016-01-26T15:57:41Z</time>
      </trkpt>
      <trkpt lat="47.33316" lon="0.06189">
        <ele>99</ele>
        <time>2016-01-26T15:57:42Z</time>
      </trkpt>
      <trkpt lat="47.33313" lon="0.06181">
        <ele>98.6</ele>
        <time>2016-01-26T15:57:43Z</time>
      </trkpt>
      <trkpt lat="47.33312" lon="0.06174">
        <ele>98</ele>
        <time>2016-01-26T15:57:44Z</time>
      </trkpt>
      <trkpt lat="47.33311" lon="0.06164">
        <ele>98</ele>
        <time>2016-01-26T15:57:46Z</time>
      </trkpt>
      <trkpt lat="47.33311" lon="0.06163">
        <ele>97.6</ele>
        <time>2016-01-26T15:57:47Z</time>
      </trkpt>
      <trkpt lat="47.33311" lon="0.06163">
        <ele>97.2</ele>
        <time>2016-01-26T15:57:48Z</time>
      </trkpt>
      <trkpt lat="47.33311" lon="0.06159">
        <ele>96</ele>
        <time>2016-01-26T15:57:53Z</time>
      </trkpt>
      <trkpt lat="47.33312" lon="0.06153">
        <ele>96</ele>
        <time>2016-01-26T15:57:54Z</time>
      </trkpt>
      <trkpt lat="47.33313" lon="0.0614">
        <ele>96</ele>
        <time>2016-01-26T15:57:56Z</time>
      </trkpt>
      <trkpt lat="47.3331" lon="0.06116">
        <ele>96</ele>
        <time>2016-01-26T15:57:59Z</time>
      </trkpt>
      <trkpt lat="47.33309" lon="0.06094">
        <ele>95.6</ele>
        <time>2016-01-26T15:58:02Z</time>
      </trkpt>
      <trkpt lat="47.33309" lon="0.06087">
        <ele>95.2</ele>
        <time>2016-01-26T15:58:03Z</time>
      </trkpt>
      <trkpt lat="47.33307" lon="0.0608">
        <ele>94.8</ele>
        <time>2016-01-26T15:58:04Z</time>
      </trkpt>
      <trkpt lat="47.33306" lon="0.06072">
        <ele>94.4</ele>
        <time>2016-01-26T15:58:05Z</time>
      </trkpt>
      <trkpt lat="47.33304" lon="0.06063">
        <ele>94</ele>
        <time>2016-01-26T15:58:06Z</time>
      </trkpt>
      <trkpt lat="47.33303" lon="0.06055">
        <ele>94</ele>
        <time>2016-01-26T15:58:07Z</time>
      </trkpt>
      <trkpt lat="47.33303" lon="0.06046">
        <ele>93.6</ele>
        <time>2016-01-26T15:58:08Z</time>
      </trkpt>
      <trkpt lat="47.33304" lon="0.06038">
        <ele>93</ele>
        <time>2016-01-26T15:58:09Z</time>
      </trkpt>
      <trkpt lat="47.33304" lon="0.06031">
        <ele>92.2</ele>
        <time>2016-01-26T15:58:10Z</time>
      </trkpt>
      <trkpt lat="47.33304" lon="0.06026">
        <ele>91.8</ele>
        <time>2016-01-26T15:58:11Z</time>
      </trkpt>
      <trkpt lat="47.33304" lon="0.0602">
        <ele>91.8</ele>
        <time>2016-01-26T15:58:12Z</time>
      </trkpt>
      <trkpt lat="47.33303" lon="0.06001">
        <ele>91.8</ele>
        <time>2016-01-26T15:58:15Z</time>
      </trkpt>
      <trkpt lat="47.33302" lon="0.05994">
        <ele>91.8</ele>
        <time>2016-01-26T15:58:16Z</time>
      </trkpt>
      <trkpt lat="47.333" lon="0.05982">
        <ele>91.8</ele>
        <time>2016-01-26T15:58:18Z</time>
      </trkpt>
      <trkpt lat="47.333" lon="0.05966">
        <ele>91.8</ele>
        <time>2016-01-26T15:58:21Z</time>
      </trkpt>
      <trkpt lat="47.33304" lon="0.05956">
        <ele>92.2</ele>
        <time>2016-01-26T15:58:23Z</time>
      </trkpt>
      <trkpt lat="47.33305" lon="0.05951">
        <ele>92.6</ele>
        <time>2016-01-26T15:58:24Z</time>
      </trkpt>
      <trkpt lat="47.33306" lon="0.05949">
        <ele>93</ele>
        <time>2016-01-26T15:58:25Z</time>
      </trkpt>
      <trkpt lat="47.33307" lon="0.05947">
        <ele>93.4</ele>
        <time>2016-01-26T15:58:26Z</time>
      </trkpt>
      <trkpt lat="47.33308" lon="0.05945">
        <ele>93.8</ele>
        <time>2016-01-26T15:58:27Z</time>
      </trkpt>
      <trkpt lat="47.33307" lon="0.05947">
        <ele>93.8</ele>
        <time>2016-01-26T15:58:28Z</time>
      </trkpt>
      <trkpt lat="47.33306" lon="0.05947">
        <ele>93.8</ele>
        <time>2016-01-26T15:58:29Z</time>
      </trkpt>
      <trkpt lat="47.33296" lon="0.05946">
        <ele>93.8</ele>
        <time>2016-01-26T15:58:33Z</time>
      </trkpt>
      <trkpt lat="47.33293" lon="0.05945">
        <ele>93.8</ele>
        <time>2016-01-26T15:58:34Z</time>
      </trkpt>
      <trkpt lat="47.33287" lon="0.05942">
        <ele>94.2</ele>
        <time>2016-01-26T15:58:36Z</time>
      </trkpt>
      <trkpt lat="47.33283" lon="0.0594">
        <ele>94.8</ele>
        <time>2016-01-26T15:58:37Z</time>
      </trkpt>
      <trkpt lat="47.33281" lon="0.05939">
        <ele>95.2</ele>
        <time>2016-01-26T15:58:38Z</time>
      </trkpt>
      <trkpt lat="47.33278" lon="0.05937">
        <ele>95.6</ele>
        <time>2016-01-26T15:58:39Z</time>
      </trkpt>
      <trkpt lat="47.33274" lon="0.05936">
        <ele>96</ele>
        <time>2016-01-26T15:58:40Z</time>
      </trkpt>
      <trkpt lat="47.33253" lon="0.05928">
        <ele>96</ele>
        <time>2016-01-26T15:58:46Z</time>
      </trkpt>
      <trkpt lat="47.3323" lon="0.05918">
        <ele>96</ele>
        <time>2016-01-26T15:58:52Z</time>
      </trkpt>
      <trkpt lat="47.33206" lon="0.05912">
        <ele>96</ele>
        <time>2016-01-26T15:58:57Z</time>
      </trkpt>
      <trkpt lat="47.33187" lon="0.05908">
        <ele>96</ele>
        <time>2016-01-26T15:59:01Z</time>
      </trkpt>
      <trkpt lat="47.33176" lon="0.05901">
        <ele>96</ele>
        <time>2016-01-26T15:59:05Z</time>
      </trkpt>
      <trkpt lat="47.33171" lon="0.059">
        <ele>96</ele>
        <time>2016-01-26T15:59:07Z</time>
      </trkpt>
      <trkpt lat="47.33158" lon="0.05896">
        <ele>96</ele>
        <time>2016-01-26T15:59:11Z</time>
      </trkpt>
      <trkpt lat="47.33149" lon="0.05894">
        <ele>96.4</ele>
        <time>2016-01-26T15:59:13Z</time>
      </trkpt>
      <trkpt lat="47.33146" lon="0.05893">
        <ele>96.8</ele>
        <time>2016-01-26T15:59:14Z</time>
      </trkpt>
      <trkpt lat="47.33143" lon="0.05891">
        <ele>97.4</ele>
        <time>2016-01-26T15:59:15Z</time>
      </trkpt>
      <trkpt lat="47.33139" lon="0.05888">
        <ele>97.8</ele>
        <time>2016-01-26T15:59:16Z</time>
      </trkpt>
      <trkpt lat="47.33136" lon="0.05886">
        <ele>98.2</ele>
        <time>2016-01-26T15:59:17Z</time>
      </trkpt>
      <trkpt lat="47.33123" lon="0.05879">
        <ele>98.2</ele>
        <time>2016-01-26T15:59:21Z</time>
      </trkpt>
      <trkpt lat="47.33112" lon="0.05875">
        <ele>98.6</ele>
        <time>2016-01-26T15:59:24Z</time>
      </trkpt>
      <trkpt lat="47.33109" lon="0.05873">
        <ele>99</ele>
        <time>2016-01-26T15:59:25Z</time>
      </trkpt>
      <trkpt lat="47.33106" lon="0.0587">
        <ele>99.4</ele>
        <time>2016-01-26T15:59:26Z</time>
      </trkpt>
      <trkpt lat="47.33103" lon="0.05868">
        <ele>99.8</ele>
        <time>2016-01-26T15:59:27Z</time>
      </trkpt>
      <trkpt lat="47.33098" lon="0.05866">
        <ele>100.2</ele>
        <time>2016-01-26T15:59:28Z</time>
      </trkpt>
      <trkpt lat="47.33091" lon="0.05861">
        <ele>100.2</ele>
        <time>2016-01-26T15:59:30Z</time>
      </trkpt>
      <trkpt lat="47.33067" lon="0.05844">
        <ele>100.2</ele>
        <time>2016-01-26T15:59:36Z</time>
      </trkpt>
      <trkpt lat="47.33051" lon="0.05834">
        <ele>100.6</ele>
        <time>2016-01-26T15:59:42Z</time>
      </trkpt>
      <trkpt lat="47.33049" lon="0.05831">
        <ele>101.2</ele>
        <time>2016-01-26T15:59:43Z</time>
      </trkpt>
      <trkpt lat="47.33046" lon="0.05828">
        <ele>101.6</ele>
        <time>2016-01-26T15:59:44Z</time>
      </trkpt>
      <trkpt lat="47.33043" lon="0.05826">
        <ele>102</ele>
        <time>2016-01-26T15:59:45Z</time>
      </trkpt>
      <trkpt lat="47.3304" lon="0.05823">
        <ele>102.4</ele>
        <time>2016-01-26T15:59:46Z</time>
      </trkpt>
      <trkpt lat="47.33037" lon="0.05822">
        <ele>102.4</ele>
        <time>2016-01-26T15:59:47Z</time>
      </trkpt>
      <trkpt lat="47.33024" lon="0.05811">
        <ele>102.4</ele>
        <time>2016-01-26T15:59:52Z</time>
      </trkpt>
      <trkpt lat="47.33004" lon="0.05792">
        <ele>102.4</ele>
        <time>2016-01-26T15:59:57Z</time>
      </trkpt>
      <trkpt lat="47.32986" lon="0.05772">
        <ele>102.4</ele>
        <time>2016-01-26T16:00:02Z</time>
      </trkpt>
      <trkpt lat="47.32983" lon="0.05768">
        <ele>102.8</ele>
        <time>2016-01-26T16:00:03Z</time>
      </trkpt>
      <trkpt lat="47.3298" lon="0.05764">
        <ele>103.2</ele>
        <time>2016-01-26T16:00:04Z</time>
      </trkpt>
      <trkpt lat="47.32977" lon="0.05763">
        <ele>103.6</ele>
        <time>2016-01-26T16:00:05Z</time>
      </trkpt>
      <trkpt lat="47.32972" lon="0.05762">
        <ele>104.2</ele>
        <time>2016-01-26T16:00:06Z</time>
      </trkpt>
      <trkpt lat="47.32968" lon="0.05762">
        <ele>104.6</ele>
        <time>2016-01-26T16:00:07Z</time>
      </trkpt>
      <trkpt lat="47.32956" lon="0.05753">
        <ele>104.6</ele>
        <time>2016-01-26T16:00:10Z</time>
      </trkpt>
      <trkpt lat="47.32942" lon="0.05752">
        <ele>104.6</ele>
        <time>2016-01-26T16:00:14Z</time>
      </trkpt>
      <trkpt lat="47.32923" lon="0.05758">
        <ele>104.6</ele>
        <time>2016-01-26T16:00:19Z</time>
      </trkpt>
      <trkpt lat="47.32904" lon="0.05768">
        <ele>104.6</ele>
        <time>2016-01-26T16:00:24Z</time>
      </trkpt>
      <trkpt lat="47.32893" lon="0.05769">
        <ele>104.6</ele>
        <time>2016-01-26T16:00:28Z</time>
      </trkpt>
      <trkpt lat="47.32885" lon="0.05762">
        <ele>104.6</ele>
        <time>2016-01-26T16:00:31Z</time>
      </trkpt>
      <trkpt lat="47.32882" lon="0.05761">
        <ele>104.6</ele>
        <time>2016-01-26T16:00:32Z</time>
      </trkpt>
      <trkpt lat="47.32868" lon="0.05749">
        <ele>104.6</ele>
        <time>2016-01-26T16:00:38Z</time>
      </trkpt>
      <trkpt lat="47.32847" lon="0.05739">
        <ele>104.6</ele>
        <time>2016-01-26T16:00:44Z</time>
      </trkpt>
      <trkpt lat="47.32827" lon="0.05734">
        <ele>104.6</ele>
        <time>2016-01-26T16:00:49Z</time>
      </trkpt>
      <trkpt lat="47.32822" lon="0.05735">
        <ele>104.2</ele>
        <time>2016-01-26T16:00:50Z</time>
      </trkpt>
      <trkpt lat="47.32817" lon="0.05734">
        <ele>103.8</ele>
        <time>2016-01-26T16:00:51Z</time>
      </trkpt>
      <trkpt lat="47.32814" lon="0.05732">
        <ele>103.4</ele>
        <time>2016-01-26T16:00:52Z</time>
      </trkpt>
      <trkpt lat="47.3281" lon="0.05729">
        <ele>103</ele>
        <time>2016-01-26T16:00:53Z</time>
      </trkpt>
      <trkpt lat="47.32807" lon="0.05728">
        <ele>102.6</ele>
        <time>2016-01-26T16:00:54Z</time>
      </trkpt>
      <trkpt lat="47.32804" lon="0.05728">
        <ele>102.6</ele>
        <time>2016-01-26T16:00:55Z</time>
      </trkpt>
      <trkpt lat="47.32791" lon="0.05737">
        <ele>102.6</ele>
        <time>2016-01-26T16:00:59Z</time>
      </trkpt>
      <trkpt lat="47.32787" lon="0.05738">
        <ele>102.6</ele>
        <time>2016-01-26T16:01:00Z</time>
      </trkpt>
      <trkpt lat="47.32776" lon="0.05732">
        <ele>102.6</ele>
        <time>2016-01-26T16:01:04Z</time>
      </trkpt>
      <trkpt lat="47.32748" lon="0.05738">
        <ele>102.6</ele>
        <time>2016-01-26T16:01:08Z</time>
      </trkpt>
      <trkpt lat="47.32715" lon="0.05739">
        <ele>102.6</ele>
        <time>2016-01-26T16:01:14Z</time>
      </trkpt>
      <trkpt lat="47.32709" lon="0.05741">
        <ele>102.6</ele>
        <time>2016-01-26T16:01:15Z</time>
      </trkpt>
      <trkpt lat="47.32697" lon="0.05745">
        <ele>102.6</ele>
        <time>2016-01-26T16:01:18Z</time>
      </trkpt>
      <trkpt lat="47.32675" lon="0.05745">
        <ele>102.6</ele>
        <time>2016-01-26T16:01:22Z</time>
      </trkpt>
      <trkpt lat="47.32657" lon="0.05746">
        <ele>102.6</ele>
        <time>2016-01-26T16:01:27Z</time>
      </trkpt>
      <trkpt lat="47.32649" lon="0.05749">
        <ele>102.6</ele>
        <time>2016-01-26T16:01:31Z</time>
      </trkpt>
      <trkpt lat="47.32649" lon="0.05749">
        <ele>102.6</ele>
        <time>2016-01-26T16:01:32Z</time>
      </trkpt>
      <trkpt lat="47.32638" lon="0.05754">
        <ele>102.6</ele>
        <time>2016-01-26T16:02:37Z</time>
      </trkpt>
      <trkpt lat="47.32634" lon="0.05758">
        <ele>102.6</ele>
        <time>2016-01-26T16:02:38Z</time>
      </trkpt>
      <trkpt lat="47.32628" lon="0.05763">
        <ele>102.6</ele>
        <time>2016-01-26T16:02:39Z</time>
      </trkpt>
      <trkpt lat="47.3262" lon="0.05781">
        <ele>102.6</ele>
        <time>2016-01-26T16:02:45Z</time>
      </trkpt>
      <trkpt lat="47.32618" lon="0.05789">
        <ele>102.2</ele>
        <time>2016-01-26T16:02:47Z</time>
      </trkpt>
      <trkpt lat="47.32617" lon="0.05793">
        <ele>101.8</ele>
        <time>2016-01-26T16:02:48Z</time>
      </trkpt>
      <trkpt lat="47.32616" lon="0.05798">
        <ele>101.4</ele>
        <time>2016-01-26T16:02:49Z</time>
      </trkpt>
      <trkpt lat="47.32614" lon="0.05802">
        <ele>100.8</ele>
        <time>2016-01-26T16:02:50Z</time>
      </trkpt>
      <trkpt lat="47.32614" lon="0.05807">
        <ele>100.4</ele>
        <time>2016-01-26T16:02:51Z</time>
      </trkpt>
      <trkpt lat="47.32607" lon="0.05834">
        <ele>100.4</ele>
        <time>2016-01-26T16:02:56Z</time>
      </trkpt>
      <trkpt lat="47.32605" lon="0.05841">
        <ele>100.4</ele>
        <time>2016-01-26T16:02:57Z</time>
      </trkpt>
      <trkpt lat="47.32601" lon="0.05859">
        <ele>100.4</ele>
        <time>2016-01-26T16:03:01Z</time>
      </trkpt>
      <trkpt lat="47.32601" lon="0.0586">
        <ele>100</ele>
        <time>2016-01-26T16:03:02Z</time>
      </trkpt>
      <trkpt lat="47.326" lon="0.05862">
        <ele>99.6</ele>
        <time>2016-01-26T16:03:03Z</time>
      </trkpt>
      <trkpt lat="47.326" lon="0.05862">
        <ele>99.2</ele>
        <time>2016-01-26T16:03:04Z</time>
      </trkpt>
      <trkpt lat="47.326" lon="0.05869">
        <ele>98.2</ele>
        <time>2016-01-26T16:04:09Z</time>
      </trkpt>
      <trkpt lat="47.32596" lon="0.05889">
        <ele>98.2</ele>
        <time>2016-01-26T16:04:14Z</time>
      </trkpt>
      <trkpt lat="47.32588" lon="0.05926">
        <ele>98.2</ele>
        <time>2016-01-26T16:04:21Z</time>
      </trkpt>
      <trkpt lat="47.32587" lon="0.05948">
        <ele>98.2</ele>
        <time>2016-01-26T16:04:25Z</time>
      </trkpt>
      <trkpt lat="47.32587" lon="0.05959">
        <ele>98.8</ele>
        <time>2016-01-26T16:04:27Z</time>
      </trkpt>
      <trkpt lat="47.32587" lon="0.05965">
        <ele>99.2</ele>
        <time>2016-01-26T16:04:28Z</time>
      </trkpt>
      <trkpt lat="47.32586" lon="0.05971">
        <ele>99.6</ele>
        <time>2016-01-26T16:04:29Z</time>
      </trkpt>
      <trkpt lat="47.32585" lon="0.05977">
        <ele>100</ele>
        <time>2016-01-26T16:04:30Z</time>
      </trkpt>
      <trkpt lat="47.32584" lon="0.05982">
        <ele>100.4</ele>
        <time>2016-01-26T16:04:31Z</time>
      </trkpt>
      <trkpt lat="47.32582" lon="0.05994">
        <ele>100.4</ele>
        <time>2016-01-26T16:04:33Z</time>
      </trkpt>
      <trkpt lat="47.3258" lon="0.06012">
        <ele>100.4</ele>
        <time>2016-01-26T16:04:36Z</time>
      </trkpt>
      <trkpt lat="47.32579" lon="0.06018">
        <ele>100.8</ele>
        <time>2016-01-26T16:04:37Z</time>
      </trkpt>
      <trkpt lat="47.32578" lon="0.06024">
        <ele>101.4</ele>
        <time>2016-01-26T16:04:38Z</time>
      </trkpt>
      <trkpt lat="47.32577" lon="0.06029">
        <ele>101.8</ele>
        <time>2016-01-26T16:04:39Z</time>
      </trkpt>
      <trkpt lat="47.32575" lon="0.06035">
        <ele>102.2</ele>
        <time>2016-01-26T16:04:40Z</time>
      </trkpt>
      <trkpt lat="47.32573" lon="0.0604">
        <ele>102.6</ele>
        <time>2016-01-26T16:04:41Z</time>
      </trkpt>
      <trkpt lat="47.32567" lon="0.06054">
        <ele>102.6</ele>
        <time>2016-01-26T16:04:44Z</time>
      </trkpt>
      <trkpt lat="47.32562" lon="0.06062">
        <ele>102.6</ele>
        <time>2016-01-26T16:04:46Z</time>
      </trkpt>
      <trkpt lat="47.32554" lon="0.06072">
        <ele>102.6</ele>
        <time>2016-01-26T16:04:49Z</time>
      </trkpt>
      <trkpt lat="47.32548" lon="0.06077">
        <ele>102.6</ele>
        <time>2016-01-26T16:04:51Z</time>
      </trkpt>
      <trkpt lat="47.32529" lon="0.06094">
        <ele>102.6</ele>
        <time>2016-01-26T16:04:56Z</time>
      </trkpt>
      <trkpt lat="47.32511" lon="0.06113">
        <ele>103</ele>
        <time>2016-01-26T16:05:01Z</time>
      </trkpt>
      <trkpt lat="47.32509" lon="0.06116">
        <ele>103.4</ele>
        <time>2016-01-26T16:05:02Z</time>
      </trkpt>
      <trkpt lat="47.32504" lon="0.06121">
        <ele>103.8</ele>
        <time>2016-01-26T16:05:03Z</time>
      </trkpt>
      <trkpt lat="47.32499" lon="0.06125">
        <ele>104.4</ele>
        <time>2016-01-26T16:05:04Z</time>
      </trkpt>
      <trkpt lat="47.32495" lon="0.06129">
        <ele>104.8</ele>
        <time>2016-01-26T16:05:05Z</time>
      </trkpt>
      <trkpt lat="47.32486" lon="0.06137">
        <ele>104.8</ele>
        <time>2016-01-26T16:05:07Z</time>
      </trkpt>
      <trkpt lat="47.32455" lon="0.06161">
        <ele>104.8</ele>
        <time>2016-01-26T16:05:13Z</time>
      </trkpt>
      <trkpt lat="47.32423" lon="0.06196">
        <ele>104.8</ele>
        <time>2016-01-26T16:05:20Z</time>
      </trkpt>
      <trkpt lat="47.32394" lon="0.0623">
        <ele>104.8</ele>
        <time>2016-01-26T16:05:27Z</time>
      </trkpt>
      <trkpt lat="47.3239" lon="0.06234">
        <ele>104.8</ele>
        <time>2016-01-26T16:05:28Z</time>
      </trkpt>
      <trkpt lat="47.32376" lon="0.06252">
        <ele>104.8</ele>
        <time>2016-01-26T16:05:32Z</time>
      </trkpt>
      <trkpt lat="47.32369" lon="0.0626">
        <ele>102.5390625</ele>
      </trkpt>
      <trkpt lat="47.3235" lon="0.06289">
        <ele>102</ele>
      </trkpt>
      <trkpt lat="47.32314" lon="0.0634">
        <ele>101.53515625</ele>
      </trkpt>
      <trkpt lat="47.32289" lon="0.06379">
        <ele>101.0078125</ele>
      </trkpt>
      <trkpt lat="47.32265" lon="0.06402">
        <ele>101.44921875</ele>
      </trkpt>
      <trkpt lat="47.32238" lon="0.06451">
        <ele>101.25390625</ele>
      </trkpt>
      <trkpt lat="47.32212" lon="0.06484">
        <ele>102.109375</ele>
      </trkpt>
      <trkpt lat="47.32187" lon="0.06547">
        <ele>103.953125</ele>
      </trkpt>
      <trkpt lat="47.32172" lon="0.06603">
        <ele>105.01171875</ele>
      </trkpt>
      <trkpt lat="47.32153" lon="0.06675">
        <ele>105.55078125</ele>
      </trkpt>
      <trkpt lat="47.32142" lon="0.06739">
        <ele>104.37109375</ele>
      </trkpt>
      <trkpt lat="47.32115" lon="0.06724">
        <ele>106.0390625</ele>
      </trkpt>
      <trkpt lat="47.32086" lon="0.06718">
        <ele>107</ele>
      </trkpt>
      <trkpt lat="47.32063" lon="0.06704">
        <ele>107</ele>
      </trkpt>
      <trkpt lat="47.32035" lon="0.06683">
        <ele>106.296875</ele>
      </trkpt>
      <trkpt lat="47.32005" lon="0.06662">
        <ele>106.97265625</ele>
      </trkpt>
      <trkpt lat="47.32004" lon="0.06662">
        <ele>106.921875</ele>
      </trkpt>
    </trkseg>
  </trk>
</gpx>